Provisional Data: Marsh Creek near Blanchard, PA


Please select a monitoring station.
Please select start date.
Please select start date.

Toggle Unit: C/F Toggle Unit: C/F
Sample Time Temperature (C) Temperature (F) Specific Conductivity (mS/cm) pH   Turbidity (NTU+) DO (mg/L)
3/23/2021 12:00:00 AM 7.6 45.68 0.073 6.62 3.85 11.27
3/23/2021 12:15:00 AM 7.5 45.5 0.074 6.62 4.05 11.3
3/23/2021 12:30:00 AM 7.41 45.338 0.073 6.63 3.95 11.34
3/23/2021 12:45:00 AM 7.32 45.176 0.074 6.62 3.89 11.37
3/23/2021 1:00:00 AM 7.23 45.014 0.074 6.61 4.01 11.4
3/23/2021 1:15:00 AM 7.14 44.852 0.074 6.61 3.85 11.43
3/23/2021 1:30:00 AM 7.04 44.672 0.074 6.62 3.84 11.46
3/23/2021 1:45:00 AM 6.95 44.51 0.074 6.6 3.9 11.48
3/23/2021 2:00:00 AM 6.85 44.33 0.074 6.61 3.93 11.52
3/23/2021 2:15:00 AM 6.77 44.186 0.074 6.61 4 11.55
3/23/2021 2:30:00 AM 6.66 43.988 0.074 6.61 3.86 11.59
3/23/2021 2:45:00 AM 6.57 43.826 0.074 6.59 3.93 11.62
3/23/2021 3:00:00 AM 6.48 43.664 0.074 6.6 3.95 11.64
3/23/2021 3:15:00 AM 6.38 43.484 0.074 6.61 3.83 11.67
3/23/2021 3:30:00 AM 6.28 43.304 0.075 6.6 3.89 11.71
3/23/2021 3:45:00 AM 6.2 43.16 0.074 6.6 3.88 11.74
3/23/2021 4:00:00 AM 6.09 42.962 0.075 6.6 3.92 11.78
3/23/2021 4:15:00 AM 6 42.8 0.075 6.6 3.94 11.8
3/23/2021 4:30:00 AM 5.91 42.638 0.075 6.61 3.85 11.84
3/23/2021 4:45:00 AM 5.82 42.476 0.075 6.62 3.83 11.87
3/23/2021 5:00:00 AM 5.73 42.314 0.075 6.59 3.99 11.9
3/23/2021 5:15:00 AM 5.64 42.152 0.075 6.59 3.75 11.94
3/23/2021 5:30:00 AM 5.55 41.99 0.075 6.61 3.93 11.96
3/23/2021 5:45:00 AM 5.47 41.846 0.075 6.59 3.93 11.99
3/23/2021 6:00:00 AM 5.38 41.684 0.075 6.61 4.03 12.03
3/23/2021 6:15:00 AM 5.31 41.558 0.075 6.6 3.97 12.05
3/23/2021 6:30:00 AM 5.22 41.396 0.075 6.61 3.83 12.08
3/23/2021 6:45:00 AM 5.14 41.252 0.075 6.61 3.93 12.12
3/23/2021 7:00:00 AM 5.07 41.126 0.075 6.61 3.99 12.14
3/23/2021 7:15:00 AM 4.98 40.964 0.075 6.6 3.76 12.18
3/23/2021 7:30:00 AM 4.91 40.838 0.075 6.61 3.88 12.25
3/23/2021 7:45:00 AM 4.86 40.748 0.075 6.62 3.84 12.33
3/23/2021 8:00:00 AM 4.81 40.658 0.075 6.61 3.97 12.45
3/23/2021 8:15:00 AM 4.78 40.604 0.075 6.62 4.08 12.58
3/23/2021 8:30:00 AM 4.75 40.55 0.075 6.63 3.97 12.72
3/23/2021 8:45:00 AM 4.74 40.532 0.074 6.64 3.83 12.85
3/23/2021 9:00:00 AM 4.75 40.55 0.074 6.64 3.9 12.98
3/23/2021 9:15:00 AM 4.77 40.586 0.074 6.65 3.87 13.1
3/23/2021 9:30:00 AM 4.84 40.712 0.074 6.66 4.07 13.21
3/23/2021 9:45:00 AM 4.9 40.82 0.074 6.68 3.89 13.34
3/23/2021 10:00:00 AM 4.96 40.928 0.074 6.69 3.95 13.42
3/23/2021 10:15:00 AM 5.07 41.126 0.073 6.69 3.87 13.51
3/23/2021 10:30:00 AM 5.19 41.342 0.074 6.71 3.87 13.55
3/23/2021 10:45:00 AM 5.33 41.594 0.073 6.72 3.83 13.59
3/23/2021 11:00:00 AM 5.51 41.918 0.073 6.73 4.03 13.61
3/23/2021 11:15:00 AM 5.71 42.278 0.073 6.75 3.91 13.62
3/23/2021 11:30:00 AM 5.88 42.584 0.073 6.76 3.79 13.6
3/23/2021 11:45:00 AM 6.09 42.962 0.073 6.76 3.77 13.58
3/23/2021 12:00:00 PM 6.25 43.25 0.073 6.76 3.76 13.55
3/23/2021 12:15:00 PM 6.44 43.592 0.073 6.76 3.84 13.53
3/23/2021 12:30:00 PM 6.67 44.006 0.073 6.77 3.86 13.5
3/23/2021 12:45:00 PM 6.9 44.42 0.073 6.77 3.72 13.45
3/23/2021 1:00:00 PM 7.01 44.618 0.073 6.77 3.66 13.41
3/23/2021 1:15:00 PM 7.16 44.888 0.073 6.77 4.4 13.36
3/23/2021 1:30:00 PM 7.31 45.158 0.073 6.77 3.87 13.33
3/23/2021 1:45:00 PM 7.53 45.554 0.073 6.77 10.64 13.26
3/23/2021 2:00:00 PM 7.6 45.68 0.073 6.77 3.97 13.25
3/23/2021 2:15:00 PM 7.72 45.896 0.073 6.76 3.83 13.21
3/23/2021 2:30:00 PM 7.89 46.202 0.073 6.77 3.84 13.17
3/23/2021 2:45:00 PM 7.97 46.346 0.073 6.76 3.79 13.12
3/23/2021 3:00:00 PM 8.04 46.472 0.073 6.76 3.92 13.07
3/23/2021 3:15:00 PM 8.12 46.616 0.073 6.75 3.96 13.01
3/23/2021 3:30:00 PM 8.2 46.76 0.073 6.75 3.83 12.96
3/23/2021 3:45:00 PM 8.27 46.886 0.073 6.75 3.82 12.91
3/23/2021 4:00:00 PM 8.34 47.012 0.072 6.74 3.82 12.86
3/23/2021 4:15:00 PM 8.38 47.084 0.073 6.75 3.91 12.79
3/23/2021 4:30:00 PM 8.41 47.138 0.072 6.74 3.87 12.75
3/23/2021 4:45:00 PM 8.48 47.264 0.073 6.74 3.82 12.72
3/23/2021 5:00:00 PM 8.55 47.39 0.072 6.74 4.86 12.68
3/23/2021 5:15:00 PM 8.59 47.462 0.072 6.74 3.93 12.61
3/23/2021 5:30:00 PM 8.63 47.534 0.072 6.73 3.89 12.55
3/23/2021 5:45:00 PM 8.69 47.642 0.072 6.73 3.91 12.49
3/23/2021 6:00:00 PM 8.74 47.732 0.072 6.73 3.99 12.44
3/23/2021 6:15:00 PM 8.79 47.822 0.072 6.73 3.85 12.39
3/23/2021 6:30:00 PM 8.81 47.858 0.072 6.73 3.68 12.32
3/23/2021 6:45:00 PM 8.81 47.858 0.072 6.72 3.9 12.22
3/23/2021 7:00:00 PM 8.81 47.858 0.072 6.72 3.8 12.11
3/23/2021 7:15:00 PM 8.8 47.84 0.072 6.72 3.82 11.96
3/23/2021 7:30:00 PM 8.78 47.804 0.073 6.7 3.84 11.8
3/23/2021 7:45:00 PM 8.76 47.768 0.073 6.7 3.91 11.65
3/23/2021 8:00:00 PM 8.73 47.714 0.073 6.7 4.01 11.5
3/23/2021 8:15:00 PM 8.69 47.642 0.073 6.71 3.99 11.39
3/23/2021 8:30:00 PM 8.66 47.588 0.073 6.7 3.93 11.29
3/23/2021 8:45:00 PM 8.63 47.534 0.073 6.7 4.01 11.21
3/23/2021 9:00:00 PM 8.6 47.48 0.073 6.68 3.99 11.15
3/23/2021 9:15:00 PM 8.57 47.426 0.073 6.69 3.99 11.1
3/23/2021 9:30:00 PM 8.54 47.372 0.074 6.68 3.96 11.07
3/23/2021 9:45:00 PM 8.51 47.318 0.074 6.67 3.9 11.05
3/23/2021 10:00:00 PM 8.47 47.246 0.074 6.68 3.87 11.04
3/23/2021 10:15:00 PM 8.43 47.174 0.074 6.67 3.97 11.03
3/23/2021 10:30:00 PM 8.4 47.12 0.074 6.68 3.88 11.03
3/23/2021 10:45:00 PM 8.37 47.066 0.074 6.69 3.89 11.02
3/23/2021 11:00:00 PM 8.32 46.976 0.074 6.68 3.84 11.03
3/23/2021 11:15:00 PM 8.28 46.904 0.074 6.66 4.77 11.04
3/23/2021 11:30:00 PM 8.24 46.832 0.074 6.68 4.27 11.04
3/23/2021 11:45:00 PM 8.2 46.76 0.074 6.68 4.11 11.05
3/24/2021 12:00:00 AM 8.16 46.688 0.074 6.67 4.08 11.06
3/24/2021 12:15:00 AM 8.13 46.634 0.074 6.68 4.08 11.07
3/24/2021 12:30:00 AM 8.09 46.562 0.074 6.67 4.22 11.08
3/24/2021 12:45:00 AM 8.06 46.508 0.074 6.67 3.82 11.08
3/24/2021 1:00:00 AM 8.02 46.436 0.074 6.64 4.07 11.1
3/24/2021 1:15:00 AM 7.99 46.382 0.074 6.67 3.94 11.11
3/24/2021 1:30:00 AM 7.96 46.328 0.074 6.68 3.97 11.12
3/24/2021 1:45:00 AM 7.94 46.292 0.074 6.68 4.09 11.13
3/24/2021 2:00:00 AM 7.92 46.256 0.074 6.68 3.9 11.15
3/24/2021 2:15:00 AM 7.89 46.202 0.075 6.69 4.04 11.16
3/24/2021 2:30:00 AM 7.86 46.148 0.075 6.68 4.01 11.17
3/24/2021 2:45:00 AM 7.85 46.13 0.075 6.68 3.89 11.18
3/24/2021 3:00:00 AM 7.83 46.094 0.075 6.68 3.95 11.19
3/24/2021 3:15:00 AM 7.82 46.076 0.075 6.68 3.99 11.19
3/24/2021 3:30:00 AM 7.82 46.076 0.075 6.68 3.82 11.19
3/24/2021 3:45:00 AM 7.81 46.058 0.075 6.68 4 11.18
3/24/2021 4:00:00 AM 7.81 46.058 0.075 6.69 3.93 11.21
3/24/2021 4:15:00 AM 7.81 46.058 0.075 6.69 3.79 11.2
3/24/2021 4:30:00 AM 7.8 46.04 0.076 6.69 3.92 11.22
3/24/2021 4:45:00 AM 7.8 46.04 0.075 6.68 3.95 11.21
3/24/2021 5:00:00 AM 7.79 46.022 0.075 6.68 3.98 11.21
3/24/2021 5:15:00 AM 7.78 46.004 0.076 6.69 3.95 11.21
3/24/2021 5:30:00 AM 7.78 46.004 0.076 6.7 3.93 11.22
3/24/2021 5:45:00 AM 7.77 45.986 0.076 6.69 4.02 11.23
3/24/2021 6:00:00 AM 7.76 45.968 0.076 6.68 3.79 11.23
3/24/2021 6:15:00 AM 7.76 45.968 0.076 6.69 3.97 11.22
3/24/2021 6:30:00 AM 7.75 45.95 0.076 6.68 3.97 11.22
3/24/2021 6:45:00 AM 7.74 45.932 0.076 6.69 4.07 11.22
3/24/2021 7:00:00 AM 7.74 45.932 0.076 6.69 4.11 11.22
3/24/2021 7:15:00 AM 7.73 45.914 0.076 6.7 3.8 11.23
3/24/2021 7:30:00 AM 7.73 45.914 0.076 6.7 3.99 11.23
3/24/2021 7:45:00 AM 7.73 45.914 0.076 6.7 4.02 11.25
3/24/2021 8:00:00 AM 7.73 45.914 0.076 6.7 4.05 11.25
3/24/2021 8:15:00 AM 7.73 45.914 0.076 6.69 4.05 11.28
3/24/2021 8:30:00 AM 7.73 45.914 0.076 6.7 4.18 11.3
3/24/2021 8:45:00 AM 7.74 45.932 0.076 6.69 4.48 11.34
3/24/2021 9:00:00 AM 7.75 45.95 0.076 6.69 4.86 11.38
3/24/2021 9:15:00 AM 7.75 45.95 0.077 6.7 10.43 11.41
3/24/2021 9:30:00 AM 7.75 45.95 0.079 6.69 29.53 11.42
3/24/2021 9:45:00 AM 7.76 45.968 0.081 6.69 17.79 11.48
3/24/2021 10:00:00 AM 7.77 45.986 0.085 6.68 14.56 11.58
3/24/2021 10:15:00 AM 7.78 46.004 0.087 6.68 15.69 11.65
3/24/2021 10:30:00 AM 7.79 46.022 0.088 6.69 19.2 11.74
3/24/2021 10:45:00 AM 7.81 46.058 0.088 6.69 18.71 11.8
3/24/2021 11:00:00 AM 7.85 46.13 0.09 6.69 16.87 11.89
3/24/2021 11:15:00 AM 7.88 46.184 0.095 6.68 15.35 11.93
3/24/2021 11:30:00 AM 7.93 46.274 0.104 6.68 13.98 12.06
3/24/2021 11:45:00 AM 8 46.4 0.106 6.68 13.3 12.16
3/24/2021 12:00:00 PM 8.06 46.508 0.101 6.71 13.86 12.24
3/24/2021 12:15:00 PM 8.13 46.634 0.097 6.7 15.35 12.28
3/24/2021 12:30:00 PM 8.18 46.724 0.094 6.7 15.66 12.28
3/24/2021 12:45:00 PM 8.23 46.814 0.093 6.67 15.72 12.27
3/24/2021 1:00:00 PM 8.28 46.904 0.091 6.67 16.05 12.27
3/24/2021 1:15:00 PM 8.33 46.994 0.091 6.65 17.86 12.26
3/24/2021 1:30:00 PM 8.36 47.048 0.089 6.64 12.66 12.26
3/24/2021 1:45:00 PM 8.4 47.12 0.088 6.66 11.56 12.23
3/24/2021 2:00:00 PM 8.44 47.192 0.088 6.64 16.41 12.2
3/24/2021 2:15:00 PM 8.49 47.282 0.089 6.63 13.66 12.21
3/24/2021 2:30:00 PM 8.55 47.39 0.089 6.63 10.82 12.22
3/24/2021 2:45:00 PM 8.61 47.498 0.088 6.65 10.58 12.24
3/24/2021 3:00:00 PM 8.66 47.588 0.089 6.63 10.65 12.22
3/24/2021 3:15:00 PM 8.71 47.678 0.088 6.7 10.16 12.2
3/24/2021 3:30:00 PM 8.75 47.75 0.088 6.64 10.56 12.18
3/24/2021 3:45:00 PM 8.79 47.822 0.087 6.65 9.32 12.18
3/24/2021 4:00:00 PM 8.83 47.894 0.088 6.65 8.71 12.14
3/24/2021 4:15:00 PM 8.85 47.93 0.088 6.68 8.33 12.11
3/24/2021 4:30:00 PM 8.88 47.984 0.088 6.71 8.28 12.06
3/24/2021 4:45:00 PM 8.9 48.02 0.087 6.7 7.71 12.02
3/24/2021 5:00:00 PM 8.92 48.056 0.087 6.7 7.84 11.95
3/24/2021 5:15:00 PM 8.95 48.11 0.087 6.73 7.97 11.92
3/24/2021 5:30:00 PM 8.98 48.164 0.087 6.72 7.43 11.92
3/24/2021 5:45:00 PM 9.01 48.218 0.088 6.73 7.05 11.9
3/24/2021 6:00:00 PM 9.03 48.254 0.088 6.72 7.15 11.88
3/24/2021 6:15:00 PM 9.05 48.29 0.088 6.72 7.15 11.82
3/24/2021 6:30:00 PM 9.07 48.326 0.088 6.71 6.96 11.76
3/24/2021 6:45:00 PM 9.09 48.362 0.088 6.71 6.74 11.71
3/24/2021 7:00:00 PM 9.11 48.398 0.089 6.7 6.91 11.63
3/24/2021 7:15:00 PM 9.11 48.398 0.088 6.71 6.59 11.53
3/24/2021 7:30:00 PM 9.1 48.38 0.088 6.7 6.42 11.4
3/24/2021 7:45:00 PM 9.09 48.362 0.088 6.72 6.55 11.28
3/24/2021 8:00:00 PM 9.08 48.344 0.089 6.72 6.46 11.17
3/24/2021 8:15:00 PM 9.07 48.326 0.089 6.72 6.77 11.09
3/24/2021 8:30:00 PM 9.05 48.29 0.089 6.69 6.62 11.02
3/24/2021 8:45:00 PM 9.04 48.272 0.089 6.69 6.37 10.96
3/24/2021 9:00:00 PM 9.03 48.254 0.09 6.7 6.39 10.92
3/24/2021 9:15:00 PM 9.02 48.236 0.09 6.7 6.69 10.88
3/24/2021 9:30:00 PM 9.01 48.218 0.09 6.69 6.86 10.87
3/24/2021 9:45:00 PM 9 48.2 0.09 6.68 6.64 10.84
3/24/2021 10:00:00 PM 9 48.2 0.09 6.7 6.43 10.84
3/24/2021 10:15:00 PM 8.98 48.164 0.09 6.71 6.66 10.83
3/24/2021 10:30:00 PM 8.98 48.164 0.091 6.69 6.99 10.83
3/24/2021 10:45:00 PM 8.97 48.146 0.09 6.68 6.52 10.83
3/24/2021 11:00:00 PM 8.96 48.128 0.09 6.69 6.52 10.82
3/24/2021 11:15:00 PM 8.95 48.11 0.09 6.67 6.38 10.82
3/24/2021 11:30:00 PM 8.94 48.092 0.09 6.69 5.92 10.82
3/24/2021 11:45:00 PM 8.93 48.074 0.09 6.7 5.81 10.82
3/25/2021 12:00:00 AM 8.92 48.056 0.089 6.7 5.72 10.82
3/25/2021 12:15:00 AM 8.91 48.038 0.089 6.7 5.92 10.83
3/25/2021 12:30:00 AM 8.9 48.02 0.09 6.67 5.87 10.82
3/25/2021 12:45:00 AM 8.89 48.002 0.089 6.69 5.58 10.83
3/25/2021 1:00:00 AM 8.88 47.984 0.09 6.69 5.75 10.83
3/25/2021 1:15:00 AM 8.87 47.966 0.089 6.68 5.36 10.84
3/25/2021 1:30:00 AM 8.86 47.948 0.089 6.68 5.49 10.84
3/25/2021 1:45:00 AM 8.84 47.912 0.09 6.69 5.5 10.83
3/25/2021 2:00:00 AM 8.83 47.894 0.089 6.69 5.34 10.84
3/25/2021 2:15:00 AM 8.82 47.876 0.09 6.7 5.5 10.85
3/25/2021 2:30:00 AM 8.81 47.858 0.089 6.69 5.27 10.85
3/25/2021 2:45:00 AM 8.81 47.858 0.089 6.69 5.06 10.86
3/25/2021 3:00:00 AM 8.8 47.84 0.09 6.69 5.43 10.86
3/25/2021 3:15:00 AM 8.79 47.822 0.09 6.69 5.38 10.86
3/25/2021 3:30:00 AM 8.78 47.804 0.09 6.68 5.48 10.87
3/25/2021 3:45:00 AM 8.77 47.786 0.089 6.7 5.26 10.87
3/25/2021 4:00:00 AM 8.76 47.768 0.09 6.66 5.19 10.88
3/25/2021 4:15:00 AM 8.75 47.75 0.09 6.69 5.19 10.87
3/25/2021 4:30:00 AM 8.74 47.732 0.09 6.68 5.06 10.88
3/25/2021 4:45:00 AM 8.72 47.696 0.09 6.68 5.1 10.89
3/25/2021 5:00:00 AM 8.71 47.678 0.09 6.67 4.97 10.88
3/25/2021 5:15:00 AM 8.7 47.66 0.09 6.68 4.88 10.89
3/25/2021 5:30:00 AM 8.69 47.642 0.089 6.66 4.8 10.9
3/25/2021 5:45:00 AM 8.68 47.624 0.09 6.68 4.87 10.91
3/25/2021 6:00:00 AM 8.67 47.606 0.09 6.67 4.84 10.91
3/25/2021 6:15:00 AM 8.66 47.588 0.09 6.68 5.14 10.91
3/25/2021 6:30:00 AM 8.65 47.57 0.09 6.69 4.86 10.92
3/25/2021 6:45:00 AM 8.64 47.552 0.09 6.69 4.87 10.92
3/25/2021 7:00:00 AM 8.63 47.534 0.09 6.69 4.69 10.93
3/25/2021 7:15:00 AM 8.62 47.516 0.089 6.69 4.61 10.94
3/25/2021 7:30:00 AM 8.62 47.516 0.089 6.69 4.75 10.95
3/25/2021 7:45:00 AM 8.61 47.498 0.09 6.68 4.59 10.98
3/25/2021 8:00:00 AM 8.62 47.516 0.089 6.68 4.88 11.04
3/25/2021 8:15:00 AM 8.62 47.516 0.09 6.68 4.64 11.12
3/25/2021 8:30:00 AM 8.63 47.534 0.089 6.69 4.83 11.21
3/25/2021 8:45:00 AM 8.64 47.552 0.089 6.69 4.52 11.31
3/25/2021 9:00:00 AM 8.66 47.588 0.089 6.68 4.75 11.43
3/25/2021 9:15:00 AM 8.7 47.66 0.088 6.7 4.66 11.58
3/25/2021 9:30:00 AM 8.74 47.732 0.088 6.7 4.49 11.71
3/25/2021 9:45:00 AM 8.79 47.822 0.088 6.7 4.58 11.88
3/25/2021 10:00:00 AM 8.84 47.912 0.088 6.7 4.5 12
3/25/2021 10:15:00 AM 8.92 48.056 0.088 6.69 4.51 12.12
3/25/2021 10:30:00 AM 9 48.2 0.087 6.72 4.68 12.25
3/25/2021 10:45:00 AM 9.15 48.47 0.087 6.73 4.57 12.37
3/25/2021 11:00:00 AM 9.28 48.704 0.087 6.72 4.56 12.46
3/25/2021 11:15:00 AM 9.52 49.136 0.087 6.74 4.52 12.52
3/25/2021 11:30:00 AM 9.69 49.442 0.087 6.75 4.39 12.54
3/25/2021 11:45:00 AM 9.92 49.856 0.086 6.76 4.41 12.58
3/25/2021 12:00:00 PM 10.13 50.234 0.086 6.77 4.48 12.58
3/25/2021 12:15:00 PM 10.34 50.612 0.086 6.77 4.22 12.57
3/25/2021 12:30:00 PM 10.56 51.008 0.086 6.78 4.41 12.55
3/25/2021 12:45:00 PM 10.74 51.332 0.086 6.77 4.49 12.53
3/25/2021 1:00:00 PM 11 51.8 0.086 6.79 4.59 12.49
3/25/2021 1:15:00 PM 11.21 52.178 0.085 6.79 4.27 12.47
3/25/2021 1:30:00 PM 11.4 52.52 0.085 6.78 4.49 12.45
3/25/2021 1:45:00 PM 11.53 52.754 0.086 6.79 4.31 12.4
3/25/2021 2:00:00 PM 11.62 52.916 0.085 6.77 4.19 12.38
3/25/2021 2:15:00 PM 11.72 53.096 0.085 6.77 4.23 12.35
3/25/2021 2:30:00 PM 11.81 53.258 0.085 6.78 4.44 12.33
3/25/2021 2:45:00 PM 11.92 53.456 0.085 6.77 4.34 12.29
3/25/2021 3:00:00 PM 12.02 53.636 0.084 6.76 4.4 12.24
3/25/2021 3:15:00 PM 12.13 53.834 0.085 6.77 4.46 12.18
3/25/2021 3:30:00 PM 12.2 53.96 0.084 6.75 4.49 12.13
3/25/2021 3:45:00 PM 12.26 54.068 0.084 6.76 4.55 12.09
3/25/2021 4:00:00 PM 12.31 54.158 0.085 6.75 4.51 12.03
3/25/2021 4:15:00 PM 12.34 54.212 0.084 6.75 4.39 11.98
3/25/2021 4:30:00 PM 12.34 54.212 0.084 6.74 4.27 11.92
3/25/2021 4:45:00 PM 12.33 54.194 0.084 6.74 4.46 11.85
3/25/2021 5:00:00 PM 12.33 54.194 0.084 6.74 4.54 11.75
3/25/2021 5:15:00 PM 12.34 54.212 0.084 6.72 4.32 11.65
3/25/2021 5:30:00 PM 12.36 54.248 0.084 6.72 4.47 11.55
3/25/2021 5:45:00 PM 12.36 54.248 0.084 6.73 4.32 11.43
3/25/2021 6:00:00 PM 12.36 54.248 0.084 6.7 4.38 11.32
3/25/2021 6:15:00 PM 12.35 54.23 0.084 6.71 4.56 11.21
3/25/2021 6:30:00 PM 12.33 54.194 0.084 6.71 4.48 11.05
3/25/2021 6:45:00 PM 12.31 54.158 0.084 6.7 4.22 10.88
3/25/2021 7:00:00 PM 12.28 54.104 0.084 6.7 4.43 10.74
3/25/2021 7:15:00 PM 12.25 54.05 0.084 6.68 4.38 10.6
3/25/2021 7:30:00 PM 12.22 53.996 0.084 6.7 4.43 10.47
3/25/2021 7:45:00 PM 12.18 53.924 0.084 6.69 4.41 10.35
3/25/2021 8:00:00 PM 12.14 53.852 0.085 6.7 4.35 10.24
3/25/2021 8:15:00 PM 12.1 53.78 0.085 6.69 4.27 10.16
3/25/2021 8:30:00 PM 12.07 53.726 0.085 6.67 4.45 10.1
3/25/2021 8:45:00 PM 12.04 53.672 0.084 6.67 4.48 10.05
3/25/2021 9:00:00 PM 12.01 53.618 0.084 6.68 4.36 10.01
3/25/2021 9:15:00 PM 11.98 53.564 0.084 6.68 4.38 9.99
3/25/2021 9:30:00 PM 11.95 53.51 0.084 6.68 4.27 9.96
3/25/2021 9:45:00 PM 11.92 53.456 0.084 6.66 4.44 9.95
3/25/2021 10:00:00 PM 11.89 53.402 0.084 6.7 4.38 9.94
3/25/2021 10:15:00 PM 11.86 53.348 0.084 6.67 4.66 9.93
3/25/2021 10:30:00 PM 11.84 53.312 0.084 6.69 4.45 9.93
3/25/2021 10:45:00 PM 11.81 53.258 0.084 6.68 4.62 9.93
3/25/2021 11:00:00 PM 11.79 53.222 0.084 6.67 4.33 9.93
3/25/2021 11:15:00 PM 11.77 53.186 0.084 6.68 4.39 9.93
3/25/2021 11:30:00 PM 11.76 53.168 0.084 6.68 4.45 9.94
3/25/2021 11:45:00 PM 11.75 53.15 0.084 6.67 4.41 9.94
3/26/2021 12:00:00 AM 11.72 53.096 0.084 6.69 4.34 9.94
3/26/2021 12:15:00 AM 11.69 53.042 0.085 6.67 4.48 9.94
3/26/2021 12:30:00 AM 11.66 52.988 0.084 6.68 4.78 9.96
3/26/2021 12:45:00 AM 11.63 52.934 0.085 6.69 4.6 9.95
3/26/2021 1:00:00 AM 11.6 52.88 0.085 6.68 4.47 9.96
3/26/2021 1:15:00 AM 11.56 52.808 0.085 6.68 4.3 9.97
3/26/2021 1:30:00 AM 11.52 52.736 0.085 6.66 4.49 9.97
3/26/2021 1:45:00 AM 11.48 52.664 0.085 6.68 4.74 9.98
3/26/2021 2:00:00 AM 11.46 52.628 0.085 6.67 4.36 9.99
3/26/2021 2:15:00 AM 11.43 52.574 0.086 6.68 4.7 10
3/26/2021 2:30:00 AM 11.39 52.502 0.085 6.68 4.65 10
3/26/2021 2:45:00 AM 11.35 52.43 0.085 6.68 4.66 10.01
3/26/2021 3:00:00 AM 11.32 52.376 0.086 6.67 4.57 10.02
3/26/2021 3:15:00 AM 11.3 52.34 0.086 6.68 4.6 10.02
3/26/2021 3:30:00 AM 11.27 52.286 0.086 6.69 4.56 10.04
3/26/2021 3:45:00 AM 11.24 52.232 0.086 6.69 4.65 10.05
3/26/2021 4:00:00 AM 11.2 52.16 0.086 6.67 4.4 10.05
3/26/2021 4:15:00 AM 11.16 52.088 0.086 6.69 4.49 10.06
3/26/2021 4:30:00 AM 11.12 52.016 0.086 6.68 4.62 10.07
3/26/2021 4:45:00 AM 11.09 51.962 0.086 6.68 4.76 10.07
3/26/2021 5:00:00 AM 11.05 51.89 0.086 6.68 4.38 10.08
3/26/2021 5:15:00 AM 11.01 51.818 0.086 6.7 4.65 10.08
3/26/2021 5:30:00 AM 10.97 51.746 0.086 6.68 4.55 10.1
3/26/2021 5:45:00 AM 10.94 51.692 0.086 6.69 4.55 10.11
3/26/2021 6:00:00 AM 10.91 51.638 0.086 6.69 4.83 10.12
3/26/2021 6:15:00 AM 10.86 51.548 0.087 6.69 4.88 10.12
3/26/2021 6:30:00 AM 10.82 51.476 0.087 6.69 5.36 10.13
3/26/2021 6:45:00 AM 10.78 51.404 0.087 6.68 5.74 10.15
3/26/2021 7:00:00 AM 10.74 51.332 0.087 6.69 4.88 10.15
3/26/2021 7:15:00 AM 10.7 51.26 0.087 6.67 4.6 10.17
3/26/2021 7:30:00 AM 10.67 51.206 0.087 6.67 4.74 10.2
3/26/2021 7:45:00 AM 10.65 51.17 0.087 6.68 4.78 10.3
3/26/2021 8:00:00 AM 10.62 51.116 0.087 6.66 5.03 10.37
3/26/2021 8:15:00 AM 10.6 51.08 0.087 6.68 4.42 10.5
3/26/2021 8:30:00 AM 10.58 51.044 0.087 6.71 4.47 10.66
3/26/2021 8:45:00 AM 10.6 51.08 0.087 6.68 4.21 10.8
3/26/2021 9:00:00 AM 10.67 51.206 0.086 6.71 4.4 10.97
3/26/2021 9:15:00 AM 10.71 51.278 0.086 6.71 4.4 11.13
3/26/2021 9:30:00 AM 10.79 51.422 0.086 6.72 4.27 11.22
3/26/2021 9:45:00 AM 10.91 51.638 0.086 6.73 4.24 11.38
3/26/2021 10:00:00 AM 11 51.8 0.086 6.76 4.25 11.51
3/26/2021 10:15:00 AM 11.19 52.142 0.086 6.76 4.3 11.64
3/26/2021 10:30:00 AM 11.31 52.358 0.086 6.76 4.42 11.73
3/26/2021 10:45:00 AM 11.48 52.664 0.086 6.77 4.31 11.77
3/26/2021 11:00:00 AM 11.63 52.934 0.086 6.79 4.46 11.81
3/26/2021 11:15:00 AM 11.72 53.096 0.085 6.78 4.41 11.81
3/26/2021 11:30:00 AM 11.77 53.186 0.085 6.77 4.38 11.82
3/26/2021 11:45:00 AM 11.83 53.294 0.085 6.78 4.27 11.8
3/26/2021 12:00:00 PM 11.85 53.33 0.085 6.76 4.28 11.71
3/26/2021 12:15:00 PM 11.92 53.456 0.085 6.76 4.34 11.69
3/26/2021 12:30:00 PM 11.99 53.582 0.084 6.76 4.26 11.64
3/26/2021 12:45:00 PM 12.08 53.744 0.084 6.77 4.47 11.71
3/26/2021 1:00:00 PM 12.14 53.852 0.084 6.76 4.52 11.74
3/26/2021 1:15:00 PM 12.15 53.87 0.084 6.76 4.49 11.74
3/26/2021 1:30:00 PM 12.2 53.96 0.084 6.75 4.4 11.76
3/26/2021 1:45:00 PM 12.27 54.086 0.084 6.76 5.24 11.79
3/26/2021 2:00:00 PM 12.42 54.356 0.084 6.77 4.45 11.8
3/26/2021 2:15:00 PM 12.58 54.644 0.084 6.76 4.34 11.82
3/26/2021 2:30:00 PM 12.6 54.68 0.084 6.76 4.38 11.81
3/26/2021 2:45:00 PM 12.65 54.77 0.083 6.76 4.3 11.78
3/26/2021 3:00:00 PM 12.69 54.842 0.084 6.77 4.29 11.77
3/26/2021 3:15:00 PM 12.71 54.878 0.083 6.75 4.48 11.75
3/26/2021 3:30:00 PM 12.7 54.86 0.083 6.75 4.29 11.74
3/26/2021 3:45:00 PM 12.71 54.878 0.083 6.74 4.4 11.72
3/26/2021 4:00:00 PM 12.69 54.842 0.083 6.75 4.3 11.69
3/26/2021 4:15:00 PM 12.65 54.77 0.083 6.72 4.47 11.61
3/26/2021 4:30:00 PM 12.62 54.716 0.083 6.74 4.52 11.56
3/26/2021 4:45:00 PM 12.57 54.626 0.083 6.72 4.45 11.48
3/26/2021 5:00:00 PM 12.53 54.554 0.083 6.73 4.48 11.47
3/26/2021 5:15:00 PM 12.5 54.5 0.083 6.74 4.41 11.45
3/26/2021 5:30:00 PM 12.46 54.428 0.083 6.71 4.58 11.42
3/26/2021 5:45:00 PM 12.41 54.338 0.083 6.71 4.26 11.38
3/26/2021 6:00:00 PM 12.38 54.284 0.083 6.71 4.52 11.38
3/26/2021 6:15:00 PM 12.34 54.212 0.082 6.7 4.55 11.31
3/26/2021 6:30:00 PM 12.29 54.122 0.082 6.7 4.42 11.21
3/26/2021 6:45:00 PM 12.24 54.032 0.083 6.7 4.49 11.12
3/26/2021 7:00:00 PM 12.2 53.96 0.083 6.7 4.51 10.96
3/26/2021 7:15:00 PM 12.16 53.888 0.083 6.71 4.33 10.81
3/26/2021 7:30:00 PM 12.1 53.78 0.083 6.68 4.56 10.67
3/26/2021 7:45:00 PM 12.04 53.672 0.083 6.69 4.58 10.52
3/26/2021 8:00:00 PM 11.97 53.546 0.083 6.69 4.46 10.39
3/26/2021 8:15:00 PM 11.91 53.438 0.083 6.69 4.43 10.29
3/26/2021 8:30:00 PM 11.83 53.294 0.083 6.69 4.31 10.22
3/26/2021 8:45:00 PM 11.76 53.168 0.083 6.67 4.18 10.15
3/26/2021 9:00:00 PM 11.69 53.042 0.083 6.67 4.32 10.12
3/26/2021 9:15:00 PM 11.63 52.934 0.083 6.68 4.31 10.09
3/26/2021 9:30:00 PM 11.56 52.808 0.083 6.67 4.56 10.08
3/26/2021 9:45:00 PM 11.5 52.7 0.083 6.68 4.79 10.07
3/26/2021 10:00:00 PM 11.44 52.592 0.083 6.66 4.78 10.08
3/26/2021 10:15:00 PM 11.39 52.502 0.084 6.69 4.72 10.08
3/26/2021 10:30:00 PM 11.35 52.43 0.083 6.69 5.26 10.09
3/26/2021 10:45:00 PM 11.3 52.34 0.083 6.7 5.72 10.1
3/26/2021 11:00:00 PM 11.25 52.25 0.083 6.68 6.43 10.1
3/26/2021 11:15:00 PM 11.21 52.178 0.083 6.7 5.4 10.12
3/26/2021 11:30:00 PM 11.16 52.088 0.083 6.71 4.84 10.13
3/26/2021 11:45:00 PM 11.09 51.962 0.083 6.72 4.69 10.15
3/27/2021 12:00:00 AM 11.01 51.818 0.083 6.7 4.75 10.16
3/27/2021 12:15:00 AM 10.93 51.674 0.083 6.69 4.5 10.17
3/27/2021 12:30:00 AM 10.83 51.494 0.083 6.68 4.38 10.21
3/27/2021 12:45:00 AM 10.73 51.314 0.083 6.69 4.44 10.23
3/27/2021 1:00:00 AM 10.66 51.188 0.084 6.68 4.55 10.25
3/27/2021 1:15:00 AM 10.59 51.062 0.083 6.66 4.56 10.27
3/27/2021 1:30:00 AM 10.51 50.918 0.084 6.65 4.51 10.3
3/27/2021 1:45:00 AM 10.43 50.774 0.084 6.67 4.56 10.32
3/27/2021 2:00:00 AM 10.35 50.63 0.084 6.68 4.61 10.33
3/27/2021 2:15:00 AM 10.27 50.486 0.084 6.67 4.37 10.35
3/27/2021 2:30:00 AM 10.2 50.36 0.084 6.69 4.7 10.38
3/27/2021 2:45:00 AM 10.14 50.252 0.084 6.7 4.67 10.41
3/27/2021 3:00:00 AM 10.04 50.072 0.084 6.68 4.57 10.43
3/27/2021 3:15:00 AM 9.97 49.946 0.084 6.68 4.57 10.44
3/27/2021 3:30:00 AM 9.88 49.784 0.084 6.67 4.69 10.47
3/27/2021 3:45:00 AM 9.79 49.622 0.084 6.66 4.62 10.5
3/27/2021 4:00:00 AM 9.71 49.478 0.084 6.66 4.41 10.52
3/27/2021 4:15:00 AM 9.63 49.334 0.084 6.67 4.4 10.54
3/27/2021 4:30:00 AM 9.56 49.208 0.084 6.68 4.45 10.57
3/27/2021 4:45:00 AM 9.49 49.082 0.084 6.68 4.37 10.58
3/27/2021 5:00:00 AM 9.41 48.938 0.085 6.67 4.44 10.62
3/27/2021 5:15:00 AM 9.35 48.83 0.084 6.69 4.4 10.64
3/27/2021 5:30:00 AM 9.29 48.722 0.084 6.7 4.63 10.67
3/27/2021 5:45:00 AM 9.23 48.614 0.084 6.68 4.35 10.68
3/27/2021 6:00:00 AM 9.18 48.524 0.085 6.67 4.48 10.7
3/27/2021 6:15:00 AM 9.11 48.398 0.084 6.67 4.43 10.73
3/27/2021 6:30:00 AM 9.04 48.272 0.084 6.67 4.41 10.75
3/27/2021 6:45:00 AM 8.97 48.146 0.084 6.7 4.72 10.77
3/27/2021 7:00:00 AM 8.89 48.002 0.085 6.67 4.25 10.79
3/27/2021 7:15:00 AM 8.82 47.876 0.084 6.68 4.2 10.83
3/27/2021 7:30:00 AM 8.75 47.75 0.084 6.69 4.19 10.91
3/27/2021 7:45:00 AM 8.7 47.66 0.085 6.69 4.06 11.02
3/27/2021 8:00:00 AM 8.67 47.606 0.084 6.69 4.25 11.15
3/27/2021 8:15:00 AM 8.63 47.534 0.084 6.71 4.27 11.29
3/27/2021 8:30:00 AM 8.6 47.48 0.084 6.71 4.21 11.44
3/27/2021 8:45:00 AM 8.61 47.498 0.084 6.71 4.04 11.61
3/27/2021 9:00:00 AM 8.63 47.534 0.084 6.71 3.88 11.77
3/27/2021 9:15:00 AM 8.66 47.588 0.084 6.73 3.97 11.91
3/27/2021 9:30:00 AM 8.73 47.714 0.083 6.72 4.08 12.07
3/27/2021 9:45:00 AM 8.81 47.858 0.083 6.73 4.06 12.22
3/27/2021 10:00:00 AM 8.89 48.002 0.083 6.74 4.19 12.35
3/27/2021 10:15:00 AM 8.99 48.182 0.083 6.76 4.09 12.41
3/27/2021 10:30:00 AM 9.17 48.506 0.083 6.77 4.08 12.51
3/27/2021 10:45:00 AM 9.26 48.668 0.083 6.79 4.02 12.56
3/27/2021 11:00:00 AM 9.4 48.92 0.083 6.77 4.09 12.6
3/27/2021 11:15:00 AM 9.57 49.226 0.082 6.79 3.86 12.61
3/27/2021 11:30:00 AM 9.77 49.586 0.082 6.8 4.01 12.64
3/27/2021 11:45:00 AM 9.97 49.946 0.082 6.8 3.91 12.62
3/27/2021 12:00:00 PM 10.09 50.162 0.082 6.79 3.98 12.6
3/27/2021 12:15:00 PM 10.29 50.522 0.082 6.8 4.14 12.6
3/27/2021 12:30:00 PM 10.5 50.9 0.082 6.81 3.96 12.58
3/27/2021 12:45:00 PM 10.68 51.224 0.082 6.81 4.02 12.55
3/27/2021 1:00:00 PM 10.86 51.548 0.082 6.8 4.13 12.53
3/27/2021 1:15:00 PM 11.1 51.98 0.082 6.82 4.13 12.49
3/27/2021 1:30:00 PM 11.34 52.412 0.082 6.82 4.12 12.45
3/27/2021 1:45:00 PM 11.51 52.718 0.082 6.82 4.06 12.41
3/27/2021 2:00:00 PM 11.65 52.97 0.082 6.82 3.88 12.38
3/27/2021 2:15:00 PM 11.79 53.222 0.082 6.81 3.9 12.34
3/27/2021 2:30:00 PM 11.86 53.348 0.082 6.8 3.96 12.31
3/27/2021 2:45:00 PM 11.93 53.474 0.082 6.81 4.05 12.28
3/27/2021 3:00:00 PM 11.98 53.564 0.082 6.78 4.11 12.23
3/27/2021 3:15:00 PM 12.05 53.69 0.082 6.79 4.11 12.17
3/27/2021 3:30:00 PM 12.1 53.78 0.082 6.79 4.18 12.12
3/27/2021 3:45:00 PM 12.13 53.834 0.082 6.78 3.94 12.06
3/27/2021 4:00:00 PM 12.14 53.852 0.082 6.79 4.09 12.02
3/27/2021 4:15:00 PM 12.15 53.87 0.081 6.78 4.13 11.96
3/27/2021 4:30:00 PM 12.13 53.834 0.081 6.77 4.08 11.9
3/27/2021 4:45:00 PM 12.11 53.798 0.082 6.76 3.98 11.85
3/27/2021 5:00:00 PM 12.09 53.762 0.082 6.75 4.1 11.8
3/27/2021 5:15:00 PM 12.1 53.78 0.082 6.76 4.08 11.75
3/27/2021 5:30:00 PM 12.11 53.798 0.081 6.77 3.92 11.7
3/27/2021 5:45:00 PM 12.11 53.798 0.081 6.75 4.1 11.63
3/27/2021 6:00:00 PM 12.13 53.834 0.081 6.74 4.09 11.57
3/27/2021 6:15:00 PM 12.13 53.834 0.081 6.75 4.17 11.51
3/27/2021 6:30:00 PM 12.14 53.852 0.081 6.75 3.97 11.42
3/27/2021 6:45:00 PM 12.13 53.834 0.081 6.74 3.99 11.34
3/27/2021 7:00:00 PM 12.1 53.78 0.081 6.75 4.01 11.2
3/27/2021 7:15:00 PM 12.06 53.708 0.082 6.72 4 11.02
3/27/2021 7:30:00 PM 12.01 53.618 0.082 6.74 4.07 10.85
3/27/2021 7:45:00 PM 11.97 53.546 0.082 6.73 4.07 10.69
3/27/2021 8:00:00 PM 11.91 53.438 0.082 6.73 4.06 10.55
3/27/2021 8:15:00 PM 11.83 53.294 0.082 6.73 4.13 10.42
3/27/2021 8:30:00 PM 11.74 53.132 0.082 6.72 4.13 10.31
3/27/2021 8:45:00 PM 11.64 52.952 0.082 6.7 4.17 10.23
3/27/2021 9:00:00 PM 11.55 52.79 0.083 6.71 4.29 10.17
3/27/2021 9:15:00 PM 11.48 52.664 0.083 6.69 4.2 10.12
3/27/2021 9:30:00 PM 11.41 52.538 0.083 6.69 4.14 10.11
3/27/2021 9:45:00 PM 11.35 52.43 0.083 6.7 4.07 10.08
3/27/2021 10:00:00 PM 11.3 52.34 0.083 6.71 4.16 10.07
3/27/2021 10:15:00 PM 11.23 52.214 0.083 6.7 4.1 10.07
3/27/2021 10:30:00 PM 11.16 52.088 0.083 6.7 4.22 10.07
3/27/2021 10:45:00 PM 11.08 51.944 0.083 6.71 4.3 10.08
3/27/2021 11:00:00 PM 11.02 51.836 0.083 6.69 4.15 10.08
3/27/2021 11:15:00 PM 10.95 51.71 0.083 6.7 4.16 10.09
3/27/2021 11:30:00 PM 10.88 51.584 0.082 6.7 3.99 10.11
3/27/2021 11:45:00 PM 10.82 51.476 0.082 6.7 4.14 10.12
3/28/2021 12:00:00 AM 10.75 51.35 0.082 6.71 4.15 10.14
3/28/2021 12:15:00 AM 10.68 51.224 0.083 6.69 4.06 10.15
3/28/2021 12:30:00 AM 10.62 51.116 0.082 6.7 4.08 10.16
3/28/2021 12:45:00 AM 10.55 50.99 0.083 6.7 4.14 10.19
3/28/2021 1:00:00 AM 10.48 50.864 0.083 6.7 4.13 10.2
3/28/2021 1:15:00 AM 10.4 50.72 0.083 6.7 4.24 10.22
3/28/2021 1:30:00 AM 10.33 50.594 0.083 6.7 4.16 10.25
3/28/2021 1:45:00 AM 10.26 50.468 0.083 6.7 4.15 10.25
3/28/2021 2:00:00 AM 10.19 50.342 0.083 6.7 4.09 10.27
3/28/2021 2:15:00 AM 10.12 50.216 0.083 6.7 4.07 10.29
3/28/2021 2:30:00 AM 10.04 50.072 0.084 6.7 4.2 10.32
3/28/2021 2:45:00 AM 9.98 49.964 0.083 6.71 4.16 10.34
3/28/2021 3:00:00 AM 9.91 49.838 0.084 6.68 4.07 10.35
3/28/2021 3:15:00 AM 9.84 49.712 0.084 6.7 4.18 10.37
3/28/2021 3:30:00 AM 9.77 49.586 0.084 6.69 4.11 10.39
3/28/2021 3:45:00 AM 9.72 49.496 0.084 6.69 4.23 10.41
3/28/2021 4:00:00 AM 9.66 49.388 0.084 6.71 4.12 10.43
3/28/2021 4:15:00 AM 9.59 49.262 0.084 6.69 4.07 10.44
3/28/2021 4:30:00 AM 9.54 49.172 0.084 6.7 4.07 10.46
3/28/2021 4:45:00 AM 9.49 49.082 0.084 6.7 4.05 10.47
3/28/2021 5:00:00 AM 9.43 48.974 0.084 6.7 4.32 10.49
3/28/2021 5:15:00 AM 9.37 48.866 0.084 6.71 4.18 10.51
3/28/2021 5:30:00 AM 9.32 48.776 0.084 6.7 4.15 10.53
3/28/2021 5:45:00 AM 9.28 48.704 0.084 6.7 4.16 10.54
3/28/2021 6:00:00 AM 9.24 48.632 0.084 6.71 4.09 10.55
3/28/2021 6:15:00 AM 9.2 48.56 0.085 6.72 4.16 10.57
3/28/2021 6:30:00 AM 9.16 48.488 0.085 6.7 4.21 10.58
3/28/2021 6:45:00 AM 9.13 48.434 0.085 6.71 4.04 10.58
3/28/2021 7:00:00 AM 9.1 48.38 0.084 6.73 4.06 10.61
3/28/2021 7:15:00 AM 9.07 48.326 0.084 6.72 4.17 10.62
3/28/2021 7:30:00 AM 9.04 48.272 0.084 6.73 4.29 10.64
3/28/2021 7:45:00 AM 9.02 48.236 0.084 6.72 4.16 10.67
3/28/2021 8:00:00 AM 9.01 48.218 0.084 6.73 4.03 10.7
3/28/2021 8:15:00 AM 8.99 48.182 0.084 6.72 4.09 10.76
3/28/2021 8:30:00 AM 8.98 48.164 0.084 6.74 4.25 10.82
3/28/2021 8:45:00 AM 8.97 48.146 0.084 6.74 4.23 10.88
3/28/2021 9:00:00 AM 8.97 48.146 0.084 6.73 4.58 10.94
3/28/2021 9:15:00 AM 8.96 48.128 0.084 6.75 4.18 10.99
3/28/2021 9:30:00 AM 8.95 48.11 0.084 6.74 4.12 11
3/28/2021 9:45:00 AM 8.94 48.092 0.084 6.75 4.02 11
3/28/2021 10:00:00 AM 8.95 48.11 0.084 6.74 4.12 11.05
3/28/2021 10:15:00 AM 8.94 48.092 0.084 6.74 4.07 11.11
3/28/2021 10:30:00 AM 8.95 48.11 0.084 6.74 4.25 11.16
3/28/2021 10:45:00 AM 8.98 48.164 0.084 6.75 4.22 11.33
3/28/2021 11:00:00 AM 9 48.2 0.084 6.74 5.2 11.44
3/28/2021 11:15:00 AM 9.01 48.218 0.084 6.75 4.34 11.46
3/28/2021 11:30:00 AM 9.05 48.29 0.083 6.75 4.08 11.53
3/28/2021 11:45:00 AM 9.08 48.344 0.084 6.77 4.11 11.59
3/28/2021 12:00:00 PM 9.1 48.38 0.083 6.77 4.06 11.63
3/28/2021 12:15:00 PM 9.12 48.416 0.083 6.76 4.09 11.65
3/28/2021 12:30:00 PM 9.16 48.488 0.083 6.76 4.23 11.7
3/28/2021 12:45:00 PM 9.18 48.524 0.084 6.77 4.31 11.71
3/28/2021 1:00:00 PM 9.21 48.578 0.084 6.75 4.11 11.72
3/28/2021 1:15:00 PM 9.24 48.632 0.084 6.76 4.1 11.7
3/28/2021 1:30:00 PM 9.29 48.722 0.083 6.77 4.21 11.73
3/28/2021 1:45:00 PM 9.33 48.794 0.084 6.76 4.33 11.71
3/28/2021 2:00:00 PM 9.35 48.83 0.083 6.77 4.33 11.59
3/28/2021 2:15:00 PM 9.38 48.884 0.083 6.77 4.32 11.54
3/28/2021 2:30:00 PM 9.42 48.956 0.083 6.77 4.27 11.53
3/28/2021 2:45:00 PM 9.47 49.046 0.084 6.79 4.16 11.55
3/28/2021 3:00:00 PM 9.52 49.136 0.083 6.76 4.27 11.57
3/28/2021 3:15:00 PM 9.6 49.28 0.083 6.77 5.04 11.53
3/28/2021 3:30:00 PM 9.64 49.352 0.084 6.78 4.99 11.54
3/28/2021 3:45:00 PM 9.68 49.424 0.084 6.78 5.36 11.48
3/28/2021 4:00:00 PM 9.77 49.586 0.084 6.79 9.45 11.59
3/28/2021 4:15:00 PM 9.77 49.586 0.084 6.78 6.26 11.5
3/28/2021 4:30:00 PM 9.77 49.586 0.084 6.78 7.44 11.39
3/28/2021 4:45:00 PM 9.79 49.622 0.085 6.77 7.13 11.43
3/28/2021 5:00:00 PM 9.79 49.622 0.086 6.75 6.41 11.4
3/28/2021 5:15:00 PM 9.81 49.658 0.087 6.76 6.64 11.47
3/28/2021 5:30:00 PM 9.83 49.694 0.087 6.76 6.77 11.52
3/28/2021 5:45:00 PM 9.88 49.784 0.087 6.75 6.38 11.57
3/28/2021 6:00:00 PM 9.89 49.802 0.088 6.76 6.96 11.61
3/28/2021 6:15:00 PM 9.87 49.766 0.088 6.77 6.72 11.58
3/28/2021 6:30:00 PM 9.86 49.748 0.089 6.76 6.62 11.47
3/28/2021 6:45:00 PM 9.88 49.784 0.09 6.77 6.55 11.38
3/28/2021 7:00:00 PM 9.87 49.766 0.092 6.76 6.31 11.33
3/28/2021 7:15:00 PM 9.84 49.712 0.093 6.76 6.54 11.19
3/28/2021 7:30:00 PM 9.8 49.64 0.093 6.75 7.13 11.07
3/28/2021 7:45:00 PM 9.72 49.496 0.094 6.74 7.7 10.95
3/28/2021 8:00:00 PM 9.65 49.37 0.093 6.73 7.8 10.84
3/28/2021 8:15:00 PM 9.58 49.244 0.093 6.71 8.35 10.76
3/28/2021 8:30:00 PM 9.51 49.118 0.093 6.72 7.95 10.7
3/28/2021 8:45:00 PM 9.43 48.974 0.092 6.71 8.18 10.66
3/28/2021 9:00:00 PM 9.35 48.83 0.092 6.71 7.36 10.64
3/28/2021 9:15:00 PM 9.28 48.704 0.091 6.7 6.93 10.63
3/28/2021 9:30:00 PM 9.21 48.578 0.091 6.71 6.77 10.62
3/28/2021 9:45:00 PM 9.14 48.452 0.09 6.7 6.56 10.63
3/28/2021 10:00:00 PM 9.04 48.272 0.091 6.7 6.18 10.64
3/28/2021 10:15:00 PM 8.97 48.146 0.091 6.7 6.3 10.65
3/28/2021 10:30:00 PM 8.9 48.02 0.09 6.7 6.06 10.67
3/28/2021 10:45:00 PM 8.82 47.876 0.09 6.7 5.94 10.68
3/28/2021 11:00:00 PM 8.75 47.75 0.09 6.71 6.04 10.71
3/28/2021 11:15:00 PM 8.69 47.642 0.09 6.71 5.87 10.74
3/28/2021 11:30:00 PM 8.64 47.552 0.09 6.71 5.97 10.74
3/28/2021 11:45:00 PM 8.58 47.444 0.09 6.7 6.05 10.77
3/29/2021 12:00:00 AM 8.53 47.354 0.09 6.69 6 10.78
3/29/2021 12:15:00 AM 8.47 47.246 0.09 6.69 5.89 10.81
3/29/2021 12:30:00 AM 8.41 47.138 0.09 6.69 5.93 10.82
3/29/2021 12:45:00 AM 8.33 46.994 0.09 6.69 6.4 10.85
3/29/2021 1:00:00 AM 8.25 46.85 0.09 6.71 5.78 10.87
3/29/2021 1:15:00 AM 8.18 46.724 0.09 6.7 5.59 10.9
3/29/2021 1:30:00 AM 8.12 46.616 0.09 6.71 5.92 10.92
3/29/2021 1:45:00 AM 8.06 46.508 0.09 6.71 5.59 10.94
3/29/2021 2:00:00 AM 7.99 46.382 0.091 6.7 5.52 10.96
3/29/2021 2:15:00 AM 7.92 46.256 0.09 6.7 5.45 10.99
3/29/2021 2:30:00 AM 7.86 46.148 0.091 6.7 5.31 11.01
3/29/2021 2:45:00 AM 7.81 46.058 0.09 6.7 5.5 11.03
3/29/2021 3:00:00 AM 7.76 45.968 0.09 6.7 5.47 11.05
3/29/2021 3:15:00 AM 7.72 45.896 0.09 6.7 5.35 11.07
3/29/2021 3:30:00 AM 7.68 45.824 0.09 6.72 5.45 11.08
3/29/2021 3:45:00 AM 7.62 45.716 0.091 6.72 5.6 11.1
3/29/2021 4:00:00 AM 7.57 45.626 0.091 6.72 5.44 11.12
3/29/2021 4:15:00 AM 7.51 45.518 0.091 6.72 5.62 11.15
3/29/2021 4:30:00 AM 7.45 45.41 0.091 6.71 5.27 11.17
3/29/2021 4:45:00 AM 7.39 45.302 0.091 6.72 5.43 11.19
3/29/2021 5:00:00 AM 7.32 45.176 0.091 6.71 5.31 11.21
3/29/2021 5:15:00 AM 7.25 45.05 0.091 6.7 5.32 11.23
3/29/2021 5:30:00 AM 7.19 44.942 0.091 6.7 5.29 11.26
3/29/2021 5:45:00 AM 7.13 44.834 0.091 6.7 5.39 11.29
3/29/2021 6:00:00 AM 7.08 44.744 0.091 6.7 5.37 11.31
3/29/2021 6:15:00 AM 7.02 44.636 0.091 6.7 5.38 11.33
3/29/2021 6:30:00 AM 6.95 44.51 0.091 6.71 5.46 11.35
3/29/2021 6:45:00 AM 6.9 44.42 0.092 6.72 5.36 11.38
3/29/2021 7:00:00 AM 6.85 44.33 0.091 6.72 5.31 11.4
3/29/2021 7:15:00 AM 6.8 44.24 0.092 6.72 5.43 11.42
3/29/2021 7:30:00 AM 6.75 44.15 0.092 6.72 5.47 11.47
3/29/2021 7:45:00 AM 6.7 44.06 0.092 6.72 5.12 11.53
3/29/2021 8:00:00 AM 6.66 43.988 0.092 6.71 5.22 11.62
3/29/2021 8:15:00 AM 6.62 43.916 0.092 6.73 5.31 11.67
3/29/2021 8:30:00 AM 6.58 43.844 0.092 6.72 5.22 11.76
3/29/2021 8:45:00 AM 6.55 43.79 0.091 6.71 5.22 11.87
3/29/2021 9:00:00 AM 6.53 43.754 0.091 6.72 5.06 12
3/29/2021 9:15:00 AM 6.5 43.7 0.091 6.72 5.11 12.11
3/29/2021 9:30:00 AM 6.48 43.664 0.091 6.71 5.09 12.23
3/29/2021 9:45:00 AM 6.48 43.664 0.091 6.73 5.1 12.36
3/29/2021 10:00:00 AM 6.48 43.664 0.091 6.73 5.14 12.48
3/29/2021 10:15:00 AM 6.48 43.664 0.09 6.73 4.94 12.58
3/29/2021 10:30:00 AM 6.5 43.7 0.09 6.73 4.91 12.68
3/29/2021 10:45:00 AM 6.53 43.754 0.09 6.72 4.93 12.81
3/29/2021 11:00:00 AM 6.58 43.844 0.09 6.73 4.83 12.91
3/29/2021 11:15:00 AM 6.66 43.988 0.09 6.76 4.89 13
3/29/2021 11:30:00 AM 6.76 44.168 0.09 6.76 4.96 13.08
3/29/2021 11:45:00 AM 6.87 44.366 0.09 6.78 4.83 13.14
3/29/2021 12:00:00 PM 7.1 44.78 0.09 6.77 4.87 13.19
3/29/2021 12:15:00 PM 7.34 45.212 0.09 6.8 4.88 13.2
3/29/2021 12:30:00 PM 7.49 45.482 0.09 6.8 4.75 13.2
3/29/2021 12:45:00 PM 7.61 45.698 0.09 6.8 4.91 13.16
3/29/2021 1:00:00 PM 7.93 46.274 0.09 6.81 4.68 13.15
3/29/2021 1:15:00 PM 8.13 46.634 0.09 6.82 4.81 13.11
3/29/2021 1:30:00 PM 8.32 46.976 0.09 6.82 4.79 13.05
3/29/2021 1:45:00 PM 8.48 47.264 0.09 6.82 4.77 13.01
3/29/2021 2:00:00 PM 8.71 47.678 0.09 6.82 4.63 12.96
3/29/2021 2:15:00 PM 8.94 48.092 0.09 6.82 4.74 12.92
3/29/2021 2:30:00 PM 9.11 48.398 0.09 6.82 4.64 12.86
3/29/2021 2:45:00 PM 9.25 48.65 0.09 6.82 4.58 12.81
3/29/2021 3:00:00 PM 9.39 48.902 0.09 6.81 4.63 12.77
3/29/2021 3:15:00 PM 9.46 49.028 0.09 6.81 4.62 12.73
3/29/2021 3:30:00 PM 9.53 49.154 0.09 6.81 4.69 12.7
3/29/2021 3:45:00 PM 9.58 49.244 0.09 6.8 4.55 12.65
3/29/2021 4:00:00 PM 9.63 49.334 0.09 6.8 4.77 12.61
3/29/2021 4:15:00 PM 9.65 49.37 0.09 6.79 4.7 12.55
3/29/2021 4:30:00 PM 9.68 49.424 0.09 6.79 4.49 12.5
3/29/2021 4:45:00 PM 9.68 49.424 0.09 6.79 4.61 12.46
3/29/2021 5:00:00 PM 9.67 49.406 0.09 6.78 4.54 12.4
3/29/2021 5:15:00 PM 9.66 49.388 0.09 6.78 4.64 12.35
3/29/2021 5:30:00 PM 9.64 49.352 0.09 6.76 4.56 12.28
3/29/2021 5:45:00 PM 9.62 49.316 0.089 6.77 4.61 12.21
3/29/2021 6:00:00 PM 9.59 49.262 0.089 6.77 4.51 12.14
3/29/2021 6:15:00 PM 9.55 49.19 0.09 6.75 4.4 12.04
3/29/2021 6:30:00 PM 9.5 49.1 0.09 6.75 4.7 11.94
3/29/2021 6:45:00 PM 9.45 49.01 0.09 6.73 4.37 11.82
3/29/2021 7:00:00 PM 9.38 48.884 0.09 6.74 4.65 11.72
3/29/2021 7:15:00 PM 9.28 48.704 0.09 6.74 4.55 11.6
3/29/2021 7:30:00 PM 9.19 48.542 0.09 6.72 4.55 11.49
3/29/2021 7:45:00 PM 9.09 48.362 0.09 6.72 4.58 11.38
3/29/2021 8:00:00 PM 8.99 48.182 0.09 6.7 4.47 11.27
3/29/2021 8:15:00 PM 8.89 48.002 0.09 6.7 4.43 11.19
3/29/2021 8:30:00 PM 8.8 47.84 0.09 6.7 4.56 11.11
3/29/2021 8:45:00 PM 8.71 47.678 0.09 6.69 4.62 11.06
3/29/2021 9:00:00 PM 8.63 47.534 0.09 6.69 4.45 11.03
3/29/2021 9:15:00 PM 8.56 47.408 0.09 6.72 4.52 11
3/29/2021 9:30:00 PM 8.48 47.264 0.09 6.7 4.5 10.98
3/29/2021 9:45:00 PM 8.39 47.102 0.089 6.69 4.46 10.99
3/29/2021 10:00:00 PM 8.31 46.958 0.09 6.68 4.45 10.99
3/29/2021 10:15:00 PM 8.22 46.796 0.089 6.69 4.46 11.02
3/29/2021 10:30:00 PM 8.13 46.634 0.089 6.69 4.44 11.03
3/29/2021 10:45:00 PM 8.02 46.436 0.09 6.7 4.62 11.05
3/29/2021 11:00:00 PM 7.93 46.274 0.089 6.67 4.37 11.08
3/29/2021 11:15:00 PM 7.84 46.112 0.089 6.69 4.63 11.11
3/29/2021 11:30:00 PM 7.75 45.95 0.089 6.68 4.51 11.13
3/29/2021 11:45:00 PM 7.66 45.788 0.089 6.69 4.49 11.16
3/30/2021 12:00:00 AM 7.56 45.608 0.089 6.68 4.6 11.2
3/30/2021 12:15:00 AM 7.46 45.428 0.089 6.67 4.63 11.22
3/30/2021 12:30:00 AM 7.37 45.266 0.089 6.69 4.47 11.25
3/30/2021 12:45:00 AM 7.28 45.104 0.089 6.7 4.36 11.29
3/30/2021 1:00:00 AM 7.19 44.942 0.089 6.67 4.44 11.31
3/30/2021 1:15:00 AM 7.1 44.78 0.089 6.67 4.48 11.34
3/30/2021 1:30:00 AM 7.01 44.618 0.089 6.69 4.53 11.37
3/30/2021 1:45:00 AM 6.92 44.456 0.089 6.68 4.5 11.39
3/30/2021 2:00:00 AM 6.84 44.312 0.089 6.68 4.38 11.42
3/30/2021 2:15:00 AM 6.75 44.15 0.089 6.69 4.44 11.45
3/30/2021 2:30:00 AM 6.65 43.97 0.09 6.69 4.4 11.49
3/30/2021 2:45:00 AM 6.57 43.826 0.09 6.69 4.55 11.51
3/30/2021 3:00:00 AM 6.49 43.682 0.089 6.7 4.43 11.54
3/30/2021 3:15:00 AM 6.4 43.52 0.09 6.71 4.46 11.58
3/30/2021 3:30:00 AM 6.31 43.358 0.09 6.66 4.48 11.59
3/30/2021 3:45:00 AM 6.23 43.214 0.09 6.65 4.52 11.63
3/30/2021 4:00:00 AM 6.14 43.052 0.09 6.67 4.41 11.66
3/30/2021 4:15:00 AM 6.06 42.908 0.09 6.67 4.64 11.69
3/30/2021 4:30:00 AM 5.98 42.764 0.09 6.68 4.39 11.72
3/30/2021 4:45:00 AM 5.9 42.62 0.09 6.68 4.5 11.76
3/30/2021 5:00:00 AM 5.82 42.476 0.09 6.68 4.54 11.78
3/30/2021 5:15:00 AM 5.74 42.332 0.09 6.67 4.37 11.81
3/30/2021 5:30:00 AM 5.66 42.188 0.09 6.68 4.5 11.84
3/30/2021 5:45:00 AM 5.58 42.044 0.09 6.7 4.64 11.86
3/30/2021 6:00:00 AM 5.5 41.9 0.09 6.69 4.32 11.89
3/30/2021 6:15:00 AM 5.42 41.756 0.09 6.68 4.46 11.93
3/30/2021 6:30:00 AM 5.35 41.63 0.09 6.68 4.38 11.96
3/30/2021 6:45:00 AM 5.28 41.504 0.09 6.69 4.41 11.98
3/30/2021 7:00:00 AM 5.2 41.36 0.09 6.68 4.57 12.01
3/30/2021 7:15:00 AM 5.14 41.252 0.09 6.69 4.52 12.07
3/30/2021 7:30:00 AM 5.07 41.126 0.09 6.69 4.23 12.15
3/30/2021 7:45:00 AM 5.03 41.054 0.09 6.69 4.45 12.26
3/30/2021 8:00:00 AM 4.99 40.982 0.09 6.69 4.41 12.39
3/30/2021 8:15:00 AM 4.96 40.928 0.09 6.69 4.17 12.5
3/30/2021 8:30:00 AM 4.94 40.892 0.089 6.71 4.51 12.64
3/30/2021 8:45:00 AM 4.94 40.892 0.089 6.71 4.38 12.78
3/30/2021 9:00:00 AM 4.96 40.928 0.089 6.72 4.48 12.91
3/30/2021 9:15:00 AM 5.01 41.018 0.089 6.71 4.33 13.03
3/30/2021 9:30:00 AM 5.07 41.126 0.089 6.72 4.38 13.15
3/30/2021 9:45:00 AM 5.15 41.27 0.089 6.74 4.37 13.25
3/30/2021 10:00:00 AM 5.27 41.486 0.089 6.76 4.34 13.34
3/30/2021 10:15:00 AM 5.41 41.738 0.088 6.77 4.24 13.4
3/30/2021 10:30:00 AM 5.57 42.026 0.088 6.78 4.29 13.44
3/30/2021 10:45:00 AM 5.76 42.368 0.088 6.8 4.3 13.47
3/30/2021 11:00:00 AM 5.99 42.782 0.088 6.79 4.14 13.46
3/30/2021 11:15:00 AM 6.21 43.178 0.088 6.81 4.22 13.46
3/30/2021 11:30:00 AM 6.44 43.592 0.088 6.81 4.11 13.44
3/30/2021 11:45:00 AM 6.7 44.06 0.088 6.82 4.09 13.41
3/30/2021 12:00:00 PM 6.96 44.528 0.088 6.82 4.15 13.37
3/30/2021 12:15:00 PM 7.24 45.032 0.088 6.82 4.16 13.32
3/30/2021 12:30:00 PM 7.52 45.536 0.088 6.84 4.29 13.27
3/30/2021 12:45:00 PM 7.81 46.058 0.088 6.82 4.28 13.22
3/30/2021 1:00:00 PM 8.09 46.562 0.088 6.83 4.16 13.15
3/30/2021 1:15:00 PM 8.36 47.048 0.088 6.84 4.12 13.1
3/30/2021 1:30:00 PM 8.64 47.552 0.088 6.84 4.2 13.04
3/30/2021 1:45:00 PM 8.88 47.984 0.088 6.84 4.17 12.97
3/30/2021 2:00:00 PM 9.13 48.434 0.088 6.84 4.2 12.9
3/30/2021 2:15:00 PM 9.34 48.812 0.088 6.85 4.07 12.84
3/30/2021 2:30:00 PM 9.54 49.172 0.088 6.83 4.09 12.78
3/30/2021 2:45:00 PM 9.74 49.532 0.088 6.83 4.13 12.7
3/30/2021 3:00:00 PM 9.9 49.82 0.087 6.83 4.04 12.65
3/30/2021 3:15:00 PM 10.04 50.072 0.087 6.83 4.12 12.6
3/30/2021 3:30:00 PM 10.16 50.288 0.087 6.82 4.59 12.55
3/30/2021 3:45:00 PM 10.28 50.504 0.087 6.82 4.14 12.49
3/30/2021 4:00:00 PM 10.37 50.666 0.087 6.81 4.12 12.43
3/30/2021 4:15:00 PM 10.44 50.792 0.087 6.81 4.12 12.38
3/30/2021 4:30:00 PM 10.46 50.828 0.087 6.8 4.21 12.29
3/30/2021 4:45:00 PM 10.54 50.972 0.087 6.79 4.13 12.26
3/30/2021 5:00:00 PM 10.6 51.08 0.087 6.79 4.18 12.21
3/30/2021 5:15:00 PM 10.62 51.116 0.087 6.78 4.17 12.13
3/30/2021 5:30:00 PM 10.64 51.152 0.087 6.79 4.12 12.06
3/30/2021 5:45:00 PM 10.65 51.17 0.087 6.78 4.14 12.01
3/30/2021 6:00:00 PM 10.64 51.152 0.087 6.77 4.09 11.89
3/30/2021 6:15:00 PM 10.63 51.134 0.087 6.78 4.19 11.81
3/30/2021 6:30:00 PM 10.63 51.134 0.087 6.78 4.07 11.72
3/30/2021 6:45:00 PM 10.62 51.116 0.087 6.77 4.48 11.59
3/30/2021 7:00:00 PM 10.58 51.044 0.087 6.76 4 11.43
3/30/2021 7:15:00 PM 10.53 50.954 0.087 6.76 4.21 11.28
3/30/2021 7:30:00 PM 10.49 50.882 0.087 6.76 4.11 11.14
3/30/2021 7:45:00 PM 10.44 50.792 0.087 6.75 4.3 10.97
3/30/2021 8:00:00 PM 10.4 50.72 0.088 6.73 4.32 10.85
3/30/2021 8:15:00 PM 10.36 50.648 0.087 6.76 4.13 10.75
3/30/2021 8:30:00 PM 10.31 50.558 0.088 6.75 4.19 10.65
3/30/2021 8:45:00 PM 10.27 50.486 0.088 6.75 4.22 10.58
3/30/2021 9:00:00 PM 10.23 50.414 0.088 6.73 4.29 10.52
3/30/2021 9:15:00 PM 10.19 50.342 0.088 6.74 4.24 10.48
3/30/2021 9:30:00 PM 10.16 50.288 0.088 6.74 4.37 10.44
3/30/2021 9:45:00 PM 10.12 50.216 0.088 6.74 4.24 10.44
3/30/2021 10:00:00 PM 10.08 50.144 0.088 6.75 4.29 10.43
3/30/2021 10:15:00 PM 10.04 50.072 0.088 6.75 4.33 10.42
3/30/2021 10:30:00 PM 10 50 0.088 6.75 4.31 10.43
3/30/2021 10:45:00 PM 9.96 49.928 0.088 6.72 4.4 10.43
3/30/2021 11:00:00 PM 9.91 49.838 0.088 6.71 4.26 10.44
3/30/2021 11:15:00 PM 9.86 49.748 0.088 6.74 4.25 10.47
3/30/2021 11:30:00 PM 9.8 49.64 0.088 6.75 4.35 10.47
3/30/2021 11:45:00 PM 9.76 49.568 0.088 6.74 4.29 10.47
3/31/2021 12:00:00 AM 9.71 49.478 0.088 6.75 4.38 10.47
3/31/2021 12:15:00 AM 9.66 49.388 0.088 6.73 4.51 10.5
3/31/2021 12:30:00 AM 9.61 49.298 0.087 6.73 4.31 10.52
3/31/2021 12:45:00 AM 9.56 49.208 0.088 6.73 4.23 10.54
3/31/2021 1:00:00 AM 9.5 49.1 0.088 6.73 4.37 10.55
3/31/2021 1:15:00 AM 9.46 49.028 0.088 6.74 4.27 10.56
3/31/2021 1:30:00 AM 9.41 48.938 0.088 6.73 4.35 10.57
3/31/2021 1:45:00 AM 9.37 48.866 0.088 6.74 4.37 10.59
3/31/2021 2:00:00 AM 9.31 48.758 0.088 6.73 4.24 10.58
3/31/2021 2:15:00 AM 9.26 48.668 0.088 6.73 4.43 10.63
3/31/2021 2:30:00 AM 9.21 48.578 0.088 6.72 4.5 10.63
3/31/2021 2:45:00 AM 9.15 48.47 0.088 6.71 4.23 10.64
3/31/2021 3:00:00 AM 9.1 48.38 0.088 6.73 4.2 10.66
3/31/2021 3:15:00 AM 9.05 48.29 0.088 6.74 4.23 10.66
3/31/2021 3:30:00 AM 9.01 48.218 0.088 6.73 4.33 10.68
3/31/2021 3:45:00 AM 8.97 48.146 0.088 6.72 4.33 10.7
3/31/2021 4:00:00 AM 8.94 48.092 0.088 6.73 4.32 10.7
3/31/2021 4:15:00 AM 8.9 48.02 0.089 6.75 4.23 10.72
3/31/2021 4:30:00 AM 8.86 47.948 0.089 6.73 4.26 10.73
3/31/2021 4:45:00 AM 8.83 47.894 0.089 6.73 4.26 10.74
3/31/2021 5:00:00 AM 8.8 47.84 0.089 6.74 4.34 10.74
3/31/2021 5:15:00 AM 8.77 47.786 0.089 6.74 4.36 10.75
3/31/2021 5:30:00 AM 8.74 47.732 0.089 6.73 4.32 10.76
3/31/2021 5:45:00 AM 8.71 47.678 0.089 6.73 4.44 10.78
3/31/2021 6:00:00 AM 8.67 47.606 0.089 6.73 4.27 10.78
3/31/2021 6:15:00 AM 8.65 47.57 0.089 6.73 4.17 10.78
3/31/2021 6:30:00 AM 8.61 47.498 0.089 6.74 4.28 10.81
3/31/2021 6:45:00 AM 8.58 47.444 0.089 6.74 4.35 10.81
3/31/2021 7:00:00 AM 8.54 47.372 0.089 6.74 4.42 10.83
3/31/2021 7:15:00 AM 8.51 47.318 0.089 6.74 4.37 10.86
3/31/2021 7:30:00 AM 8.48 47.264 0.089 6.74 4.44 10.92
3/31/2021 7:45:00 AM 8.46 47.228 0.089 6.74 4.3 11
3/31/2021 8:00:00 AM 8.44 47.192 0.089 6.73 4.36 11.11
3/31/2021 8:15:00 AM 8.42 47.156 0.089 6.73 4.37 11.22
3/31/2021 8:30:00 AM 8.4 47.12 0.089 6.75 4.32 11.3
3/31/2021 8:45:00 AM 8.39 47.102 0.088 6.73 4.26 11.42
3/31/2021 9:00:00 AM 8.4 47.12 0.088 6.75 4.35 11.54
3/31/2021 9:15:00 AM 8.4 47.12 0.088 6.75 4.43 11.62
3/31/2021 9:30:00 AM 8.4 47.12 0.088 6.75 4.23 11.71
3/31/2021 9:45:00 AM 8.39 47.102 0.088 6.76 4.21 11.7
3/31/2021 10:00:00 AM 8.38 47.084 0.088 6.76 4.31 11.68
3/31/2021 10:15:00 AM 8.38 47.084 0.088 6.75 4.48 11.66
3/31/2021 10:30:00 AM 8.37 47.066 0.088 6.76 4.33 11.65
3/31/2021 10:45:00 AM 8.36 47.048 0.089 6.76 4.47 11.63
3/31/2021 11:00:00 AM 8.36 47.048 0.088 6.76 4.62 11.67
3/31/2021 11:15:00 AM 8.36 47.048 0.088 6.75 4.91 11.74
3/31/2021 11:30:00 AM 8.37 47.066 0.088 6.76 6.62 11.79
3/31/2021 11:45:00 AM 8.38 47.084 0.088 6.76 6.56 11.87
3/31/2021 12:00:00 PM 8.4 47.12 0.088 6.77 5.64 11.94
3/31/2021 12:15:00 PM 8.42 47.156 0.089 6.75 5.45 11.99
3/31/2021 12:30:00 PM 8.43 47.174 0.089 6.75 5.52 12.01
3/31/2021 12:45:00 PM 8.45 47.21 0.089 6.76 6.32 11.99
3/31/2021 1:00:00 PM 8.47 47.246 0.09 6.76 6.2 12.01
3/31/2021 1:15:00 PM 8.49 47.282 0.09 6.77 6.48 12.02
3/31/2021 1:30:00 PM 8.51 47.318 0.09 6.78 6.15 12.02
3/31/2021 1:45:00 PM 8.53 47.354 0.091 6.77 6.04 12
3/31/2021 2:00:00 PM 8.55 47.39 0.091 6.77 6.12 11.98
3/31/2021 2:15:00 PM 8.6 47.48 0.093 6.76 6.07 12.05
3/31/2021 2:30:00 PM 8.63 47.534 0.094 6.77 6.05 12.07
3/31/2021 2:45:00 PM 8.65 47.57 0.097 6.78 5.81 12.03
3/31/2021 3:00:00 PM 8.68 47.624 0.097 6.79 6.11 12.03
3/31/2021 3:15:00 PM 8.72 47.696 0.097 6.78 6.32 12.05
3/31/2021 3:30:00 PM 8.74 47.732 0.096 6.77 6.36 11.96
3/31/2021 3:45:00 PM 8.76 47.768 0.096 6.76 6.84 11.91
3/31/2021 4:00:00 PM 8.78 47.804 0.095 6.76 6.6 11.83
3/31/2021 4:15:00 PM 8.79 47.822 0.096 6.78 6.95 11.78
3/31/2021 4:30:00 PM 8.81 47.858 0.095 6.77 6.18 11.75
3/31/2021 4:45:00 PM 8.84 47.912 0.094 6.76 6.01 11.77
3/31/2021 5:00:00 PM 8.85 47.93 0.094 6.78 6.02 11.68
3/31/2021 5:15:00 PM 8.86 47.948 0.094 6.77 5.85 11.63
3/31/2021 5:30:00 PM 8.89 48.002 0.093 6.76 5.8 11.65
3/31/2021 5:45:00 PM 8.9 48.02 0.094 6.77 5.89 11.64
3/31/2021 6:00:00 PM 8.91 48.038 0.094 6.78 5.83 11.57
3/31/2021 6:15:00 PM 8.92 48.056 0.093 6.77 5.61 11.52
3/31/2021 6:30:00 PM 8.93 48.074 0.093 6.77 5.57 11.48
3/31/2021 6:45:00 PM 8.93 48.074 0.093 6.76 5.47 11.37
3/31/2021 7:00:00 PM 8.93 48.074 0.093 6.76 5.65 11.3
3/31/2021 7:15:00 PM 8.93 48.074 0.093 6.78 5.73 11.2
3/31/2021 7:30:00 PM 8.93 48.074 0.093 6.78 5.47 11.12
3/31/2021 7:45:00 PM 8.92 48.056 0.093 6.77 5.58 11.04
3/31/2021 8:00:00 PM 8.91 48.038 0.092 6.76 5.36 11
3/31/2021 8:15:00 PM 8.91 48.038 0.093 6.76 5.51 10.95
3/31/2021 8:30:00 PM 8.9 48.02 0.092 6.76 5.49 10.9
3/31/2021 8:45:00 PM 8.89 48.002 0.093 6.75 5.34 10.88
3/31/2021 9:00:00 PM 8.88 47.984 0.092 6.76 5.3 10.87
3/31/2021 9:15:00 PM 8.86 47.948 0.093 6.75 5.52 10.85
3/31/2021 9:30:00 PM 8.84 47.912 0.093 6.76 5.45 10.83
3/31/2021 9:45:00 PM 8.82 47.876 0.093 6.77 5.38 10.83
3/31/2021 10:00:00 PM 8.79 47.822 0.093 6.76 5.23 10.83
3/31/2021 10:15:00 PM 8.77 47.786 0.092 6.74 5.45 10.83
3/31/2021 10:30:00 PM 8.75 47.75 0.092 6.75 5.39 10.83
3/31/2021 10:45:00 PM 8.73 47.714 0.093 6.77 5.27 10.83
3/31/2021 11:00:00 PM 8.71 47.678 0.093 6.75 5.12 10.84
3/31/2021 11:15:00 PM 8.69 47.642 0.092 6.76 5.22 10.83
3/31/2021 11:30:00 PM 8.66 47.588 0.093 6.76 5.19 10.84
3/31/2021 11:45:00 PM 8.63 47.534 0.093 6.76 5.29 10.86
4/1/2021 12:00:00 AM 8.61 47.498 0.093 6.76 5.21 10.87
4/1/2021 12:15:00 AM 8.58 47.444 0.093 6.74 5.15 10.87
4/1/2021 12:30:00 AM 8.56 47.408 0.093 6.76 5.17 10.88
4/1/2021 12:45:00 AM 8.53 47.354 0.093 6.75 5.07 10.87
4/1/2021 1:00:00 AM 8.49 47.282 0.093 6.75 5.15 10.9
4/1/2021 1:15:00 AM 8.44 47.192 0.093 6.73 4.91 10.9
4/1/2021 1:30:00 AM 8.4 47.12 0.093 6.73 5.09 10.92
4/1/2021 1:45:00 AM 8.36 47.048 0.094 6.72 5.38 10.93
4/1/2021 2:00:00 AM 8.32 46.976 0.093 6.74 5.21 10.94
4/1/2021 2:15:00 AM 8.28 46.904 0.094 6.74 5.18 10.96
4/1/2021 2:30:00 AM 8.22 46.796 0.094 6.74 5.37 10.97
4/1/2021 2:45:00 AM 8.18 46.724 0.094 6.72 5.3 10.98
4/1/2021 3:00:00 AM 8.13 46.634 0.094 6.73 5.39 10.99
4/1/2021 3:15:00 AM 8.08 46.544 0.094 6.73 5.05 11
4/1/2021 3:30:00 AM 8.04 46.472 0.094 6.72 5.24 11.02
4/1/2021 3:45:00 AM 7.99 46.382 0.095 6.73 6.45 11.03
4/1/2021 4:00:00 AM 7.95 46.31 0.094 6.73 5.32 11.05
4/1/2021 4:15:00 AM 7.9 46.22 0.095 6.73 5.36 11.06
4/1/2021 4:30:00 AM 7.86 46.148 0.095 6.73 5.11 11.07
4/1/2021 4:45:00 AM 7.82 46.076 0.094 6.74 5.42 11.1
4/1/2021 5:00:00 AM 7.78 46.004 0.094 6.74 4.97 11.09
4/1/2021 5:15:00 AM 7.72 45.896 0.095 6.74 5.19 11.11
4/1/2021 5:30:00 AM 7.68 45.824 0.094 6.74 5.33 11.13
4/1/2021 5:45:00 AM 7.64 45.752 0.094 6.74 5.21 11.13
4/1/2021 6:00:00 AM 7.6 45.68 0.094 6.73 5.24 11.16
4/1/2021 6:15:00 AM 7.56 45.608 0.094 6.73 5.2 11.17
4/1/2021 6:30:00 AM 7.51 45.518 0.094 6.72 5.21 11.18
4/1/2021 6:45:00 AM 7.48 45.464 0.095 6.73 5.3 11.2
4/1/2021 7:00:00 AM 7.43 45.374 0.094 6.74 5.07 11.2
4/1/2021 7:15:00 AM 7.39 45.302 0.095 6.73 5.3 11.24
4/1/2021 7:30:00 AM 7.34 45.212 0.095 6.73 5.15 11.25
4/1/2021 7:45:00 AM 7.3 45.14 0.095 6.75 5.12 11.3
4/1/2021 8:00:00 AM 7.26 45.068 0.095 6.72 5.08 11.36
4/1/2021 8:15:00 AM 7.22 44.996 0.095 6.74 5.07 11.52
4/1/2021 8:30:00 AM 7.19 44.942 0.094 6.75 5.16 11.67
4/1/2021 8:45:00 AM 7.19 44.942 0.094 6.75 4.84 11.85
4/1/2021 9:00:00 AM 7.17 44.906 0.093 6.75 4.99 11.99
4/1/2021 9:15:00 AM 7.15 44.87 0.093 6.75 5.07 12.12
4/1/2021 9:30:00 AM 7.13 44.834 0.093 6.75 4.98 12.16
4/1/2021 9:45:00 AM 7.11 44.798 0.093 6.74 4.98 12.26
4/1/2021 10:00:00 AM 7.14 44.852 0.093 6.74 4.92 12.37
4/1/2021 10:15:00 AM 7.17 44.906 0.093 6.74 4.92 12.48
4/1/2021 10:30:00 AM 7.36 45.248 0.092 6.77 4.79 12.59
4/1/2021 10:45:00 AM 7.44 45.392 0.093 6.79 4.94 12.67
4/1/2021 11:00:00 AM 7.49 45.482 0.092 6.8 4.79 12.73
4/1/2021 11:15:00 AM 7.59 45.662 0.093 6.78 4.83 12.76
4/1/2021 11:30:00 AM 7.63 45.734 0.092 6.81 4.87 12.79
4/1/2021 11:45:00 AM 7.62 45.716 0.093 6.77 5.02 12.79
4/1/2021 12:00:00 PM 7.68 45.824 0.092 6.77 4.86 12.8
4/1/2021 12:15:00 PM 7.76 45.968 0.093 6.79 4.93 12.84
4/1/2021 12:30:00 PM 7.97 46.346 0.093 6.8 5 12.85
4/1/2021 12:45:00 PM 7.98 46.364 0.093 6.81 4.94 12.84
4/1/2021 1:00:00 PM 7.97 46.346 0.092 6.81 4.98 12.81
4/1/2021 1:15:00 PM 7.98 46.364 0.093 6.78 4.94 12.77
4/1/2021 1:30:00 PM 7.96 46.328 0.093 6.78 4.98 12.78
4/1/2021 1:45:00 PM 7.9 46.22 0.093 6.78 4.83 12.72
4/1/2021 2:00:00 PM 7.85 46.13 0.093 6.76 4.93 12.69
4/1/2021 2:15:00 PM 7.86 46.148 0.093 6.78 4.81 12.73
4/1/2021 2:30:00 PM 7.81 46.058 0.092 6.77 4.76 12.7
4/1/2021 2:45:00 PM 7.81 46.058 0.092 6.77 4.92 12.71
4/1/2021 3:00:00 PM 7.79 46.022 0.092 6.77 4.97 12.73
4/1/2021 3:15:00 PM 7.74 45.932 0.092 6.76 4.88 12.71
4/1/2021 3:30:00 PM 7.72 45.896 0.092 6.77 4.72 12.74
4/1/2021 3:45:00 PM 7.74 45.932 0.092 6.76 4.88 12.75
4/1/2021 4:00:00 PM 7.7 45.86 0.092 6.76 4.96 12.73
4/1/2021 4:15:00 PM 7.68 45.824 0.092 6.76 4.9 12.72
4/1/2021 4:30:00 PM 7.76 45.968 0.092 6.76 4.86 12.71
4/1/2021 4:45:00 PM 7.73 45.914 0.092 6.76 5.02 12.68
4/1/2021 5:00:00 PM 7.69 45.842 0.092 6.75 4.87 12.67
4/1/2021 5:15:00 PM 7.64 45.752 0.092 6.75 4.87 12.69
4/1/2021 5:30:00 PM 7.62 45.716 0.092 6.74 4.86 12.7
4/1/2021 5:45:00 PM 7.57 45.626 0.092 6.75 4.95 12.64
4/1/2021 6:00:00 PM 7.55 45.59 0.092 6.75 4.8 12.6
4/1/2021 6:15:00 PM 7.53 45.554 0.092 6.75 4.9 12.57
4/1/2021 6:30:00 PM 7.48 45.464 0.092 6.76 4.85 12.52
4/1/2021 6:45:00 PM 7.43 45.374 0.092 6.75 4.62 12.41
4/1/2021 7:00:00 PM 7.37 45.266 0.092 6.75 4.73 12.3
4/1/2021 7:15:00 PM 7.3 45.14 0.092 6.75 4.7 12.19
4/1/2021 7:30:00 PM 7.2 44.96 0.092 6.74 4.84 12.05
4/1/2021 7:45:00 PM 7.11 44.798 0.092 6.73 4.9 11.94
4/1/2021 8:00:00 PM 7.04 44.672 0.092 6.71 4.67 11.81
4/1/2021 8:15:00 PM 6.99 44.582 0.092 6.72 4.78 11.73
4/1/2021 8:30:00 PM 6.92 44.456 0.092 6.72 4.69 11.66
4/1/2021 8:45:00 PM 6.85 44.33 0.092 6.71 4.61 11.62
4/1/2021 9:00:00 PM 6.77 44.186 0.092 6.72 4.84 11.58
4/1/2021 9:15:00 PM 6.68 44.024 0.092 6.73 4.8 11.56
4/1/2021 9:30:00 PM 6.6 43.88 0.092 6.73 4.86 11.55
4/1/2021 9:45:00 PM 6.52 43.736 0.092 6.72 4.75 11.57
4/1/2021 10:00:00 PM 6.43 43.574 0.092 6.69 4.67 11.58
4/1/2021 10:15:00 PM 6.32 43.376 0.092 6.7 4.62 11.61
4/1/2021 10:30:00 PM 6.24 43.232 0.092 6.71 4.72 11.64
4/1/2021 10:45:00 PM 6.16 43.088 0.092 6.7 4.71 11.66
4/1/2021 11:00:00 PM 6.04 42.872 0.092 6.7 4.71 11.68
4/1/2021 11:15:00 PM 5.93 42.674 0.091 6.71 4.69 11.71
4/1/2021 11:30:00 PM 5.88 42.584 0.092 6.69 4.76 11.74
4/1/2021 11:45:00 PM 5.8 42.44 0.091 6.7 4.81 11.76
4/2/2021 12:00:00 AM 5.69 42.242 0.091 6.71 4.68 11.79
4/2/2021 12:15:00 AM 5.6 42.08 0.092 6.69 4.74 11.83
4/2/2021 12:30:00 AM 5.5 41.9 0.091 6.69 4.65 11.85
4/2/2021 12:45:00 AM 5.42 41.756 0.092 6.7 4.61 11.89
4/2/2021 1:00:00 AM 5.33 41.594 0.092 6.7 4.72 11.92
4/2/2021 1:15:00 AM 5.25 41.45 0.092 6.69 4.73 11.95
4/2/2021 1:30:00 AM 5.17 41.306 0.092 6.68 4.6 11.96
4/2/2021 1:45:00 AM 5.09 41.162 0.092 6.7 4.65 12.01
4/2/2021 2:00:00 AM 5.01 41.018 0.092 6.7 4.59 12.04
4/2/2021 2:15:00 AM 4.92 40.856 0.092 6.71 4.73 12.07
4/2/2021 2:30:00 AM 4.84 40.712 0.092 6.71 4.61 12.11
4/2/2021 2:45:00 AM 4.77 40.586 0.092 6.71 4.67 12.14
4/2/2021 3:00:00 AM 4.69 40.442 0.093 6.71 4.56 12.17
4/2/2021 3:15:00 AM 4.63 40.334 0.092 6.71 4.76 12.19
4/2/2021 3:30:00 AM 4.57 40.226 0.092 6.72 4.61 12.22
4/2/2021 3:45:00 AM 4.51 40.118 0.092 6.72 4.65 12.24
4/2/2021 4:00:00 AM 4.44 39.992 0.092 6.72 4.62 12.26
4/2/2021 4:15:00 AM 4.38 39.884 0.093 6.71 4.66 12.29
4/2/2021 4:30:00 AM 4.31 39.758 0.093 6.71 4.65 12.33
4/2/2021 4:45:00 AM 4.23 39.614 0.092 6.7 4.58 12.34
4/2/2021 5:00:00 AM 4.16 39.488 0.092 6.71 4.69 12.38
4/2/2021 5:15:00 AM 4.09 39.362 0.092 6.71 4.74 12.41
4/2/2021 5:30:00 AM 4.01 39.218 0.092 6.7 4.59 12.43
4/2/2021 5:45:00 AM 3.94 39.092 0.092 6.7 4.65 12.47
4/2/2021 6:00:00 AM 3.86 38.948 0.092 6.7 4.57 12.5
4/2/2021 6:15:00 AM 3.79 38.822 0.092 6.71 4.66 12.53
4/2/2021 6:30:00 AM 3.73 38.714 0.093 6.71 4.51 12.55
4/2/2021 6:45:00 AM 3.67 38.606 0.093 6.71 4.64 12.57
4/2/2021 7:00:00 AM 3.61 38.498 0.093 6.71 4.6 12.61
4/2/2021 7:15:00 AM 3.55 38.39 0.092 6.71 4.58 12.68
4/2/2021 7:30:00 AM 3.5 38.3 0.092 6.71 4.63 12.76
4/2/2021 7:45:00 AM 3.45 38.21 0.092 6.72 4.58 12.87
4/2/2021 8:00:00 AM 3.42 38.156 0.092 6.72 4.53 12.99
4/2/2021 8:15:00 AM 3.39 38.102 0.092 6.72 4.55 13.1
4/2/2021 8:30:00 AM 3.38 38.084 0.091 6.72 4.6 13.22
4/2/2021 8:45:00 AM 3.37 38.066 0.091 6.73 4.43 13.33
4/2/2021 9:00:00 AM 3.38 38.084 0.091 6.74 4.49 13.45
4/2/2021 9:15:00 AM 3.42 38.156 0.091 6.74 4.49 13.54
4/2/2021 9:30:00 AM 3.48 38.264 0.091 6.75 4.49 13.62
4/2/2021 9:45:00 AM 3.57 38.426 0.09 6.76 4.46 13.72
4/2/2021 10:00:00 AM 3.67 38.606 0.09 6.77 4.53 13.78
4/2/2021 10:15:00 AM 3.8 38.84 0.09 6.78 4.42 13.81
4/2/2021 10:30:00 AM 3.95 39.11 0.09 6.79 4.42 13.83
4/2/2021 10:45:00 AM 4.13 39.434 0.09 6.8 4.36 13.86
4/2/2021 11:00:00 AM 4.32 39.776 0.09 6.8 4.4 13.85
4/2/2021 11:15:00 AM 4.5 40.1 0.09 6.81 4.41 13.82
4/2/2021 11:30:00 AM 4.72 40.496 0.09 6.82 4.27 13.81
4/2/2021 11:45:00 AM 4.93 40.874 0.09 6.83 4.36 13.78
4/2/2021 12:00:00 PM 5.12 41.216 0.09 6.83 4.39 13.75
4/2/2021 12:15:00 PM 5.34 41.612 0.09 6.83 4.38 13.69
4/2/2021 12:30:00 PM 5.54 41.972 0.09 6.83 4.31 13.64
4/2/2021 12:45:00 PM 5.77 42.386 0.089 6.83 4.24 13.6
4/2/2021 1:00:00 PM 5.99 42.782 0.09 6.83 4.26 13.55
4/2/2021 1:15:00 PM 6.2 43.16 0.089 6.84 4.36 13.5
4/2/2021 1:30:00 PM 6.39 43.502 0.089 6.84 4.53 13.44
4/2/2021 1:45:00 PM 6.56 43.808 0.089 6.84 4.24 13.39
4/2/2021 2:00:00 PM 6.72 44.096 0.089 6.84 4.35 13.35
4/2/2021 2:15:00 PM 6.83 44.294 0.089 6.83 4.37 13.3
4/2/2021 2:30:00 PM 6.98 44.564 0.089 6.83 4.31 13.25
4/2/2021 2:45:00 PM 7.11 44.798 0.089 6.83 4.39 13.2
4/2/2021 3:00:00 PM 7.2 44.96 0.089 6.83 4.23 13.16
4/2/2021 3:15:00 PM 7.28 45.104 0.088 6.82 4.25 13.13
4/2/2021 3:30:00 PM 7.35 45.23 0.088 6.82 4.3 13.08
4/2/2021 3:45:00 PM 7.4 45.32 0.088 6.82 4.36 13.03
4/2/2021 4:00:00 PM 7.42 45.356 0.089 6.81 4.24 12.99
4/2/2021 4:15:00 PM 7.44 45.392 0.088 6.81 4.26 12.95
4/2/2021 4:30:00 PM 7.46 45.428 0.088 6.8 4.42 12.89
4/2/2021 4:45:00 PM 7.46 45.428 0.088 6.8 4.35 12.86
4/2/2021 5:00:00 PM 7.45 45.41 0.088 6.8 4.31 12.8
4/2/2021 5:15:00 PM 7.41 45.338 0.088 6.8 4.4 12.75
4/2/2021 5:30:00 PM 7.38 45.284 0.088 6.78 4.3 12.71
4/2/2021 5:45:00 PM 7.32 45.176 0.088 6.78 4.36 12.67
4/2/2021 6:00:00 PM 7.25 45.05 0.088 6.76 4.26 12.61
4/2/2021 6:15:00 PM 7.18 44.924 0.088 6.77 4.33 12.55
4/2/2021 6:30:00 PM 7.1 44.78 0.088 6.75 4.41 12.49
4/2/2021 6:45:00 PM 7 44.6 0.088 6.75 4.33 12.42
4/2/2021 7:00:00 PM 6.9 44.42 0.088 6.73 4.24 12.33
4/2/2021 7:15:00 PM 6.81 44.258 0.088 6.72 4.34 12.25
4/2/2021 7:30:00 PM 6.71 44.078 0.088 6.72 4.4 12.16
4/2/2021 7:45:00 PM 6.61 43.898 0.088 6.71 4.37 12.07
4/2/2021 8:00:00 PM 6.53 43.754 0.088 6.71 4.4 11.99
4/2/2021 8:15:00 PM 6.46 43.628 0.088 6.71 4.42 11.92
4/2/2021 8:30:00 PM 6.38 43.484 0.088 6.71 4.43 11.86
4/2/2021 8:45:00 PM 6.29 43.322 0.088 6.71 4.57 11.82
4/2/2021 9:00:00 PM 6.21 43.178 0.088 6.7 4.41 11.79
4/2/2021 9:15:00 PM 6.13 43.034 0.088 6.71 4.38 11.78
4/2/2021 9:30:00 PM 6.04 42.872 0.088 6.69 4.4 11.79
4/2/2021 9:45:00 PM 5.96 42.728 0.088 6.71 4.32 11.8
4/2/2021 10:00:00 PM 5.88 42.584 0.088 6.7 4.47 11.8
4/2/2021 10:15:00 PM 5.8 42.44 0.088 6.7 4.59 11.82
4/2/2021 10:30:00 PM 5.71 42.278 0.088 6.7 4.64 11.84
4/2/2021 10:45:00 PM 5.63 42.134 0.088 6.7 4.41 11.87
4/2/2021 11:00:00 PM 5.55 41.99 0.088 6.7 4.56 11.9
4/2/2021 11:15:00 PM 5.47 41.846 0.088 6.7 4.58 11.91
4/2/2021 11:30:00 PM 5.4 41.72 0.088 6.71 4.39 11.94
4/2/2021 11:45:00 PM 5.32 41.576 0.088 6.7 4.75 11.97
4/3/2021 12:00:00 AM 5.24 41.432 0.088 6.7 4.82 11.98
4/3/2021 12:15:00 AM 5.16 41.288 0.088 6.71 4.45 12.02
4/3/2021 12:30:00 AM 5.08 41.144 0.088 6.7 4.69 12.04
4/3/2021 12:45:00 AM 4.99 40.982 0.088 6.7 4.57 12.08
4/3/2021 1:00:00 AM 4.92 40.856 0.088 6.69 4.32 12.1
4/3/2021 1:15:00 AM 4.83 40.694 0.088 6.69 4.45 12.13
4/3/2021 1:30:00 AM 4.75 40.55 0.088 6.69 4.48 12.18
4/3/2021 1:45:00 AM 4.66 40.388 0.088 6.69 4.43 12.2
4/3/2021 2:00:00 AM 4.59 40.262 0.088 6.7 4.52 12.23
4/3/2021 2:15:00 AM 4.51 40.118 0.088 6.71 4.47 12.27
4/3/2021 2:30:00 AM 4.43 39.974 0.088 6.71 4.48 12.29
4/3/2021 2:45:00 AM 4.35 39.83 0.088 6.69 4.63 12.33
4/3/2021 3:00:00 AM 4.27 39.686 0.088 6.69 5.15 12.36
4/3/2021 3:15:00 AM 4.19 39.542 0.088 6.7 4.45 12.39
4/3/2021 3:30:00 AM 4.11 39.398 0.089 6.68 4.44 12.42
4/3/2021 3:45:00 AM 4.04 39.272 0.088 6.7 4.66 12.45
4/3/2021 4:00:00 AM 3.97 39.146 0.088 6.69 4.45 12.48
4/3/2021 4:15:00 AM 3.89 39.002 0.088 6.7 4.66 12.51
4/3/2021 4:30:00 AM 3.82 38.876 0.088 6.68 4.67 12.53
4/3/2021 4:45:00 AM 3.74 38.732 0.088 6.7 4.32 12.57
4/3/2021 5:00:00 AM 3.67 38.606 0.088 6.69 4.43 12.59
4/3/2021 5:15:00 AM 3.6 38.48 0.088 6.7 4.55 12.62
4/3/2021 5:30:00 AM 3.52 38.336 0.088 6.71 4.55 12.66
4/3/2021 5:45:00 AM 3.45 38.21 0.088 6.69 4.5 12.69
4/3/2021 6:00:00 AM 3.37 38.066 0.088 6.71 4.45 12.72
4/3/2021 6:15:00 AM 3.3 37.94 0.088 6.7 4.55 12.75
4/3/2021 6:30:00 AM 3.23 37.814 0.088 6.7 4.44 12.78
4/3/2021 6:45:00 AM 3.15 37.67 0.088 6.7 4.52 12.82
4/3/2021 7:00:00 AM 3.09 37.562 0.088 6.7 4.46 12.86
4/3/2021 7:15:00 AM 3.03 37.454 0.088 6.71 4.56 12.92
4/3/2021 7:30:00 AM 2.98 37.364 0.088 6.71 4.35 13
4/3/2021 7:45:00 AM 2.94 37.292 0.088 6.71 4.47 13.11
4/3/2021 8:00:00 AM 2.91 37.238 0.088 6.72 4.58 13.21
4/3/2021 8:15:00 AM 2.9 37.22 0.088 6.72 4.43 13.34
4/3/2021 8:30:00 AM 2.89 37.202 0.088 6.72 4.55 13.46
4/3/2021 8:45:00 AM 2.91 37.238 0.088 6.72 4.43 13.56
4/3/2021 9:00:00 AM 2.95 37.31 0.088 6.73 4.5 13.66
4/3/2021 9:15:00 AM 3.02 37.436 0.088 6.75 4.48 13.76
4/3/2021 9:30:00 AM 3.11 37.598 0.087 6.76 4.27 13.84
4/3/2021 9:45:00 AM 3.22 37.796 0.087 6.77 4.51 13.91
4/3/2021 10:00:00 AM 3.36 38.048 0.087 6.78 4.51 13.95
4/3/2021 10:15:00 AM 3.52 38.336 0.087 6.8 4.46 13.99
4/3/2021 10:30:00 AM 3.72 38.696 0.087 6.82 4.38 13.99
4/3/2021 10:45:00 AM 3.93 39.074 0.087 6.82 4.51 14
4/3/2021 11:00:00 AM 4.15 39.47 0.087 6.81 4.43 13.96
4/3/2021 11:15:00 AM 4.39 39.902 0.087 6.83 4.44 13.94
4/3/2021 11:30:00 AM 4.63 40.334 0.087 6.84 4.33 13.9
4/3/2021 11:45:00 AM 4.9 40.82 0.087 6.83 4.41 13.86
4/3/2021 12:00:00 PM 5.14 41.252 0.087 6.84 4.43 13.81
4/3/2021 12:15:00 PM 5.39 41.702 0.087 6.84 4.27 13.76
4/3/2021 12:30:00 PM 5.52 41.936 0.086 6.84 4.33 13.73
4/3/2021 12:45:00 PM 5.63 42.134 0.086 6.83 4.36 13.68
4/3/2021 1:00:00 PM 5.82 42.476 0.086 6.83 4.31 13.63
4/3/2021 1:15:00 PM 6.14 43.052 0.086 6.84 4.33 13.6
4/3/2021 1:30:00 PM 6.38 43.484 0.086 6.85 4.35 13.53
4/3/2021 1:45:00 PM 6.56 43.808 0.086 6.86 4.35 13.47
4/3/2021 2:00:00 PM 6.74 44.132 0.086 6.85 4.26 13.41
4/3/2021 2:15:00 PM 6.73 44.114 0.086 6.83 4.31 13.37
4/3/2021 2:30:00 PM 6.93 44.474 0.086 6.83 4.25 13.31
4/3/2021 2:45:00 PM 7.18 44.924 0.086 6.84 4.24 13.25
4/3/2021 3:00:00 PM 7.36 45.248 0.086 6.85 4.24 13.17
4/3/2021 3:15:00 PM 7.55 45.59 0.086 6.85 4.36 13.1
4/3/2021 3:30:00 PM 7.67 45.806 0.086 6.85 4.31 13.06
4/3/2021 3:45:00 PM 7.75 45.95 0.085 6.84 4.37 13.01
4/3/2021 4:00:00 PM 7.77 45.986 0.086 6.83 4.3 12.95
4/3/2021 4:15:00 PM 7.75 45.95 0.085 6.83 4.29 12.91
4/3/2021 4:30:00 PM 7.82 46.076 0.086 6.82 4.33 12.87
4/3/2021 4:45:00 PM 7.86 46.148 0.085 6.81 4.28 12.82
4/3/2021 5:00:00 PM 7.92 46.256 0.085 6.81 4.23 12.76
4/3/2021 5:15:00 PM 7.95 46.31 0.085 6.8 4.23 12.71
4/3/2021 5:30:00 PM 7.96 46.328 0.085 6.8 4.44 12.65
4/3/2021 5:45:00 PM 7.93 46.274 0.085 6.81 4.42 12.59
4/3/2021 6:00:00 PM 7.92 46.256 0.085 6.8 4.42 12.53
4/3/2021 6:15:00 PM 7.91 46.238 0.085 6.77 4.41 12.45
4/3/2021 6:30:00 PM 7.92 46.256 0.085 6.78 4.36 12.33
4/3/2021 6:45:00 PM 7.93 46.274 0.085 6.79 4.32 12.18
4/3/2021 7:00:00 PM 7.91 46.238 0.085 6.78 4.45 12.03
4/3/2021 7:15:00 PM 7.88 46.184 0.085 6.77 4.37 11.89
4/3/2021 7:30:00 PM 7.83 46.094 0.085 6.77 4.35 11.77
4/3/2021 7:45:00 PM 7.8 46.04 0.085 6.77 4.41 11.65
4/3/2021 8:00:00 PM 7.78 46.004 0.085 6.77 4.33 11.55
4/3/2021 8:15:00 PM 7.76 45.968 0.086 6.76 4.4 11.45
4/3/2021 8:30:00 PM 7.75 45.95 0.085 6.77 4.52 11.39
4/3/2021 8:45:00 PM 7.75 45.95 0.085 6.76 4.5 11.33
4/3/2021 9:00:00 PM 7.75 45.95 0.085 6.76 4.35 11.27
4/3/2021 9:15:00 PM 7.73 45.914 0.085 6.74 4.3 11.26
4/3/2021 9:30:00 PM 7.71 45.878 0.085 6.78 4.4 11.23
4/3/2021 9:45:00 PM 7.69 45.842 0.085 6.74 4.52 11.22
4/3/2021 10:00:00 PM 7.66 45.788 0.085 6.78 4.43 11.23
4/3/2021 10:15:00 PM 7.62 45.716 0.085 6.77 4.45 11.21
4/3/2021 10:30:00 PM 7.59 45.662 0.086 6.77 4.53 11.22
4/3/2021 10:45:00 PM 7.56 45.608 0.085 6.77 4.45 11.23
4/3/2021 11:00:00 PM 7.52 45.536 0.085 6.77 4.5 11.24
4/3/2021 11:15:00 PM 7.49 45.482 0.085 6.75 4.49 11.25
4/3/2021 11:30:00 PM 7.46 45.428 0.085 6.76 4.49 11.25
4/3/2021 11:45:00 PM 7.43 45.374 0.085 6.76 4.31 11.26
4/4/2021 12:00:00 AM 7.4 45.32 0.085 6.75 4.53 11.27
4/4/2021 12:15:00 AM 7.37 45.266 0.085 6.76 4.45 11.26
4/4/2021 12:30:00 AM 7.34 45.212 0.085 6.76 4.45 11.27
4/4/2021 12:45:00 AM 7.31 45.158 0.085 6.75 4.4 11.28
4/4/2021 1:00:00 AM 7.28 45.104 0.085 6.75 4.45 11.3
4/4/2021 1:15:00 AM 7.25 45.05 0.085 6.76 4.42 11.31
4/4/2021 1:30:00 AM 7.22 44.996 0.085 6.76 4.47 11.31
4/4/2021 1:45:00 AM 7.19 44.942 0.085 6.73 4.49 11.33
4/4/2021 2:00:00 AM 7.16 44.888 0.085 6.75 4.21 11.32
4/4/2021 2:15:00 AM 7.13 44.834 0.085 6.75 4.44 11.34
4/4/2021 2:30:00 AM 7.1 44.78 0.085 6.76 4.42 11.35
4/4/2021 2:45:00 AM 7.06 44.708 0.086 6.76 4.45 11.36
4/4/2021 3:00:00 AM 7.02 44.636 0.086 6.75 4.48 11.36
4/4/2021 3:15:00 AM 6.98 44.564 0.086 6.73 4.41 11.37
4/4/2021 3:30:00 AM 6.92 44.456 0.086 6.75 4.32 11.39
4/4/2021 3:45:00 AM 6.86 44.348 0.086 6.76 4.58 11.4
4/4/2021 4:00:00 AM 6.8 44.24 0.086 6.76 4.4 11.41
4/4/2021 4:15:00 AM 6.73 44.114 0.086 6.75 4.35 11.43
4/4/2021 4:30:00 AM 6.66 43.988 0.086 6.73 4.35 11.45
4/4/2021 4:45:00 AM 6.58 43.844 0.086 6.73 4.24 11.46
4/4/2021 5:00:00 AM 6.51 43.718 0.086 6.74 4.37 11.48
4/4/2021 5:15:00 AM 6.43 43.574 0.086 6.74 4.5 11.51
4/4/2021 5:30:00 AM 6.37 43.466 0.086 6.72 4.42 11.54
4/4/2021 5:45:00 AM 6.31 43.358 0.086 6.72 4.37 11.55
4/4/2021 6:00:00 AM 6.27 43.286 0.086 6.74 4.44 11.57
4/4/2021 6:15:00 AM 6.21 43.178 0.086 6.75 4.27 11.58
4/4/2021 6:30:00 AM 6.17 43.106 0.086 6.73 4.27 11.61
4/4/2021 6:45:00 AM 6.12 43.016 0.086 6.73 4.43 11.64
4/4/2021 7:00:00 AM 6.08 42.944 0.086 6.74 4.41 11.67
4/4/2021 7:15:00 AM 6.02 42.836 0.086 6.73 4.4 11.72
4/4/2021 7:30:00 AM 5.98 42.764 0.086 6.73 4.44 11.8
4/4/2021 7:45:00 AM 5.94 42.692 0.086 6.74 4.53 11.91
4/4/2021 8:00:00 AM 5.91 42.638 0.086 6.73 4.35 12.04
4/4/2021 8:15:00 AM 5.89 42.602 0.086 6.76 4.45 12.16
4/4/2021 8:30:00 AM 5.88 42.584 0.086 6.75 4.43 12.32
4/4/2021 8:45:00 AM 5.89 42.602 0.086 6.75 4.42 12.45
4/4/2021 9:00:00 AM 5.91 42.638 0.086 6.76 4.41 12.58
4/4/2021 9:15:00 AM 5.97 42.746 0.085 6.75 4.37 12.71
4/4/2021 9:30:00 AM 6.05 42.89 0.085 6.77 4.38 12.8
4/4/2021 9:45:00 AM 6.16 43.088 0.085 6.79 4.47 12.89
4/4/2021 10:00:00 AM 6.3 43.34 0.085 6.79 4.3 12.97
4/4/2021 10:15:00 AM 6.45 43.61 0.085 6.81 4.35 13.02
4/4/2021 10:30:00 AM 6.63 43.934 0.085 6.83 4.4 13.05
4/4/2021 10:45:00 AM 6.84 44.312 0.085 6.84 4.3 13.07
4/4/2021 11:00:00 AM 7.08 44.744 0.085 6.83 4.37 13.07
4/4/2021 11:15:00 AM 7.31 45.158 0.084 6.84 4.32 13.06
4/4/2021 11:30:00 AM 7.57 45.626 0.085 6.85 4.23 13.03
4/4/2021 11:45:00 AM 7.83 46.094 0.085 6.86 4.32 13
4/4/2021 12:00:00 PM 8.11 46.598 0.085 6.87 4.26 12.96
4/4/2021 12:15:00 PM 8.4 47.12 0.085 6.86 4.36 12.91
4/4/2021 12:30:00 PM 8.66 47.588 0.085 6.87 4.27 12.86
4/4/2021 12:45:00 PM 8.94 48.092 0.085 6.87 4.26 12.81
4/4/2021 1:00:00 PM 9.2 48.56 0.084 6.87 4.3 12.76
4/4/2021 1:15:00 PM 9.46 49.028 0.084 6.87 4.28 12.7
4/4/2021 1:30:00 PM 9.71 49.478 0.084 6.87 4.24 12.64
4/4/2021 1:45:00 PM 9.94 49.892 0.084 6.87 4.28 12.59
4/4/2021 2:00:00 PM 10.15 50.27 0.084 6.88 4.28 12.54
4/4/2021 2:15:00 PM 10.34 50.612 0.084 6.87 4.2 12.48
4/4/2021 2:30:00 PM 10.46 50.828 0.084 6.87 4.26 12.43
4/4/2021 2:45:00 PM 10.64 51.152 0.084 6.86 4.18 12.38
4/4/2021 3:00:00 PM 10.79 51.422 0.084 6.86 4.19 12.31
4/4/2021 3:15:00 PM 10.92 51.656 0.084 6.85 4.32 12.27
4/4/2021 3:30:00 PM 11.03 51.854 0.084 6.86 4.31 12.22
4/4/2021 3:45:00 PM 11.11 51.998 0.084 6.84 4.25 12.15
4/4/2021 4:00:00 PM 11.2 52.16 0.084 6.85 4.33 12.1
4/4/2021 4:15:00 PM 11.25 52.25 0.084 6.84 4.33 12.04
4/4/2021 4:30:00 PM 11.29 52.322 0.084 6.84 4.24 12
4/4/2021 4:45:00 PM 11.32 52.376 0.084 6.83 4.35 11.94
4/4/2021 5:00:00 PM 11.35 52.43 0.084 6.83 4.18 11.89
4/4/2021 5:15:00 PM 11.37 52.466 0.084 6.81 4.36 11.82
4/4/2021 5:30:00 PM 11.36 52.448 0.083 6.81 4.43 11.75
4/4/2021 5:45:00 PM 11.35 52.43 0.084 6.81 4.29 11.68
4/4/2021 6:00:00 PM 11.31 52.358 0.084 6.8 4.3 11.57
4/4/2021 6:15:00 PM 11.28 52.304 0.083 6.8 4.36 11.49
4/4/2021 6:30:00 PM 11.24 52.232 0.084 6.79 4.33 11.4
4/4/2021 6:45:00 PM 11.19 52.142 0.084 6.79 4.35 11.28
4/4/2021 7:00:00 PM 11.12 52.016 0.084 6.79 4.36 11.18
4/4/2021 7:15:00 PM 11.05 51.89 0.083 6.78 4.4 11.05
4/4/2021 7:30:00 PM 10.97 51.746 0.084 6.75 4.34 10.91
4/4/2021 7:45:00 PM 10.89 51.602 0.084 6.75 4.31 10.79
4/4/2021 8:00:00 PM 10.81 51.458 0.084 6.76 4.35 10.67
4/4/2021 8:15:00 PM 10.74 51.332 0.084 6.74 4.45 10.56
4/4/2021 8:30:00 PM 10.68 51.224 0.084 6.74 4.4 10.5
4/4/2021 8:45:00 PM 10.61 51.098 0.084 6.72 4.45 10.42
4/4/2021 9:00:00 PM 10.56 51.008 0.084 6.74 4.35 10.38
4/4/2021 9:15:00 PM 10.49 50.882 0.084 6.75 4.42 10.36
4/4/2021 9:30:00 PM 10.43 50.774 0.084 6.74 4.29 10.33
4/4/2021 9:45:00 PM 10.35 50.63 0.084 6.75 4.32 10.3
4/4/2021 10:00:00 PM 10.27 50.486 0.085 6.76 4.44 10.34
4/4/2021 10:15:00 PM 10.19 50.342 0.084 6.74 4.47 10.34
4/4/2021 10:30:00 PM 10.1 50.18 0.084 6.74 4.49 10.35
4/4/2021 10:45:00 PM 10.02 50.036 0.084 6.74 4.51 10.38
4/4/2021 11:00:00 PM 9.94 49.892 0.084 6.73 4.39 10.39
4/4/2021 11:15:00 PM 9.85 49.73 0.084 6.74 4.43 10.4
4/4/2021 11:30:00 PM 9.77 49.586 0.084 6.74 4.45 10.43
4/4/2021 11:45:00 PM 9.68 49.424 0.084 6.73 4.59 10.46
4/5/2021 12:00:00 AM 9.6 49.28 0.084 6.74 4.64 10.48
4/5/2021 12:15:00 AM 9.52 49.136 0.084 6.74 4.39 10.5
4/5/2021 12:30:00 AM 9.42 48.956 0.084 6.72 4.47 10.53
4/5/2021 12:45:00 AM 9.33 48.794 0.084 6.73 4.5 10.57
4/5/2021 1:00:00 AM 9.23 48.614 0.084 6.71 4.7 10.59
4/5/2021 1:15:00 AM 9.14 48.452 0.084 6.72 4.5 10.62
4/5/2021 1:30:00 AM 9.05 48.29 0.084 6.74 4.48 10.64
4/5/2021 1:45:00 AM 8.94 48.092 0.084 6.73 4.49 10.67
4/5/2021 2:00:00 AM 8.84 47.912 0.084 6.73 4.51 10.72
4/5/2021 2:15:00 AM 8.74 47.732 0.084 6.7 4.55 10.74
4/5/2021 2:30:00 AM 8.65 47.57 0.085 6.71 4.63 10.77
4/5/2021 2:45:00 AM 8.55 47.39 0.084 6.7 4.48 10.81
4/5/2021 3:00:00 AM 8.46 47.228 0.085 6.72 4.59 10.83
4/5/2021 3:15:00 AM 8.35 47.03 0.085 6.73 4.55 10.87
4/5/2021 3:30:00 AM 8.25 46.85 0.085 6.73 4.65 10.88
4/5/2021 3:45:00 AM 8.16 46.688 0.085 6.71 4.6 10.92
4/5/2021 4:00:00 AM 8.06 46.508 0.085 6.71 4.53 10.97
4/5/2021 4:15:00 AM 7.96 46.328 0.085 6.71 4.53 11
4/5/2021 4:30:00 AM 7.87 46.166 0.085 6.7 4.94 11.03
4/5/2021 4:45:00 AM 7.77 45.986 0.085 6.71 4.57 11.06
4/5/2021 5:00:00 AM 7.68 45.824 0.085 6.72 4.58 11.09
4/5/2021 5:15:00 AM 7.58 45.644 0.085 6.73 4.51 11.13
4/5/2021 5:30:00 AM 7.49 45.482 0.085 6.73 4.44 11.15
4/5/2021 5:45:00 AM 7.39 45.302 0.085 6.71 4.6 11.19
4/5/2021 6:00:00 AM 7.3 45.14 0.085 6.71 4.44 11.22
4/5/2021 6:15:00 AM 7.2 44.96 0.085 6.72 4.58 11.25
4/5/2021 6:30:00 AM 7.11 44.798 0.085 6.72 4.52 11.29
4/5/2021 6:45:00 AM 7.02 44.636 0.085 6.73 4.37 11.32
4/5/2021 7:00:00 AM 6.93 44.474 0.085 6.72 4.53 11.38
4/5/2021 7:15:00 AM 6.85 44.33 0.085 6.72 4.41 11.46
4/5/2021 7:30:00 AM 6.78 44.204 0.085 6.72 4.47 11.59
4/5/2021 7:45:00 AM 6.73 44.114 0.085 6.74 4.47 11.74
4/5/2021 8:00:00 AM 6.69 44.042 0.085 6.73 4.47 11.89
4/5/2021 8:15:00 AM 6.66 43.988 0.085 6.75 4.38 12.03
4/5/2021 8:30:00 AM 6.65 43.97 0.085 6.75 4.41 12.18
4/5/2021 8:45:00 AM 6.65 43.97 0.085 6.76 4.39 12.3
4/5/2021 9:00:00 AM 6.68 44.024 0.085 6.77 4.45 12.46
4/5/2021 9:15:00 AM 6.74 44.132 0.085 6.77 4.38 12.58
4/5/2021 9:30:00 AM 6.82 44.276 0.084 6.79 4.27 12.68
4/5/2021 9:45:00 AM 6.91 44.438 0.084 6.81 4.36 12.79
4/5/2021 10:00:00 AM 7.04 44.672 0.084 6.81 4.35 12.87
4/5/2021 10:15:00 AM 7.19 44.942 0.084 6.83 4.41 12.92
4/5/2021 10:30:00 AM 7.37 45.266 0.084 6.84 4.28 12.95
4/5/2021 10:45:00 AM 7.57 45.626 0.084 6.84 4.37 12.97
4/5/2021 11:00:00 AM 7.79 46.022 0.084 6.85 4.41 12.97
4/5/2021 11:15:00 AM 8.02 46.436 0.084 6.87 4.42 12.97
4/5/2021 11:30:00 AM 8.27 46.886 0.083 6.87 4.43 12.96
4/5/2021 11:45:00 AM 8.5 47.3 0.083 6.87 4.29 12.95
4/5/2021 12:00:00 PM 8.69 47.642 0.083 6.87 4.17 12.91
4/5/2021 12:15:00 PM 8.96 48.128 0.083 6.87 4.45 12.89
4/5/2021 12:30:00 PM 9.24 48.632 0.083 6.88 4.44 12.84
4/5/2021 12:45:00 PM 9.47 49.046 0.083 6.89 4.47 12.79
4/5/2021 1:00:00 PM 9.71 49.478 0.083 6.88 4.25 12.73
4/5/2021 1:15:00 PM 9.96 49.928 0.083 6.88 4.38 12.69
4/5/2021 1:30:00 PM 10.19 50.342 0.083 6.89 4.35 12.64
4/5/2021 1:45:00 PM 10.38 50.684 0.083 6.89 4.43 12.61
4/5/2021 2:00:00 PM 10.57 51.026 0.083 6.88 4.5 12.56
4/5/2021 2:15:00 PM 10.79 51.422 0.083 6.87 4.38 12.51
4/5/2021 2:30:00 PM 10.94 51.692 0.084 6.89 4.33 12.44
4/5/2021 2:45:00 PM 11.06 51.908 0.084 6.86 4.19 12.39
4/5/2021 3:00:00 PM 11.18 52.124 0.084 6.87 4.22 12.34
4/5/2021 3:15:00 PM 11.26 52.268 0.084 6.85 4.35 12.29
4/5/2021 3:30:00 PM 11.36 52.448 0.084 6.85 4.23 12.26
4/5/2021 3:45:00 PM 11.46 52.628 0.084 6.85 4.31 12.23
4/5/2021 4:00:00 PM 11.52 52.736 0.084 6.85 4.21 12.18
4/5/2021 4:15:00 PM 11.53 52.754 0.084 6.85 4.33 12.14
4/5/2021 4:30:00 PM 11.52 52.736 0.083 6.84 4.24 12.06
4/5/2021 4:45:00 PM 11.52 52.736 0.083 6.83 4.25 12.02
4/5/2021 5:00:00 PM 11.53 52.754 0.083 6.83 4.36 11.95
4/5/2021 5:15:00 PM 11.53 52.754 0.083 6.82 4.42 11.86
4/5/2021 5:30:00 PM 11.52 52.736 0.083 6.82 4.38 11.81
4/5/2021 5:45:00 PM 11.5 52.7 0.083 6.83 4.35 11.72
4/5/2021 6:00:00 PM 11.45 52.61 0.083 6.81 4.33 11.64
4/5/2021 6:15:00 PM 11.39 52.502 0.083 6.81 4.33 11.51
4/5/2021 6:30:00 PM 11.35 52.43 0.082 6.79 4.4 11.36
4/5/2021 6:45:00 PM 11.31 52.358 0.083 6.79 4.3 11.19
4/5/2021 7:00:00 PM 11.28 52.304 0.083 6.8 4.25 11.03
4/5/2021 7:15:00 PM 11.25 52.25 0.083 6.8 4.35 10.9
4/5/2021 7:30:00 PM 11.23 52.214 0.083 6.81 4.31 10.77
4/5/2021 7:45:00 PM 11.19 52.142 0.083 6.81 4.33 10.63
4/5/2021 8:00:00 PM 11.15 52.07 0.083 6.79 4.29 10.51
4/5/2021 8:15:00 PM 11.11 51.998 0.083 6.79 4.32 10.42
4/5/2021 8:30:00 PM 11.06 51.908 0.084 6.8 4.52 10.35
4/5/2021 8:45:00 PM 11.02 51.836 0.083 6.78 4.45 10.3
4/5/2021 9:00:00 PM 10.97 51.746 0.084 6.79 4.37 10.25
4/5/2021 9:15:00 PM 10.93 51.674 0.084 6.79 4.45 10.23
4/5/2021 9:30:00 PM 10.88 51.584 0.084 6.79 4.53 10.21
4/5/2021 9:45:00 PM 10.84 51.512 0.084 6.79 4.52 10.19
4/5/2021 10:00:00 PM 10.81 51.458 0.083 6.79 4.38 10.2
4/5/2021 10:15:00 PM 10.78 51.404 0.083 6.8 4.39 10.19
4/5/2021 10:30:00 PM 10.74 51.332 0.084 6.78 4.47 10.2
4/5/2021 10:45:00 PM 10.71 51.278 0.083 6.78 4.33 10.2
4/5/2021 11:00:00 PM 10.68 51.224 0.083 6.79 4.42 10.2
4/5/2021 11:15:00 PM 10.65 51.17 0.083 6.79 4.46 10.21
4/5/2021 11:30:00 PM 10.62 51.116 0.083 6.81 4.4 10.2
4/5/2021 11:45:00 PM 10.59 51.062 0.083 6.78 4.49 10.22
4/6/2021 12:00:00 AM 10.56 51.008 0.083 6.78 4.36 10.23
4/6/2021 12:15:00 AM 10.53 50.954 0.083 6.79 4.5 10.2
4/6/2021 12:30:00 AM 10.51 50.918 0.083 6.79 4.53 10.23
4/6/2021 12:45:00 AM 10.47 50.846 0.083 6.8 4.5 10.26
4/6/2021 1:00:00 AM 10.44 50.792 0.083 6.81 4.33 10.25
4/6/2021 1:15:00 AM 10.41 50.738 0.083 6.79 4.53 10.26
4/6/2021 1:30:00 AM 10.37 50.666 0.083 6.8 4.42 10.27
4/6/2021 1:45:00 AM 10.33 50.594 0.083 6.8 4.49 10.28
4/6/2021 2:00:00 AM 10.31 50.558 0.083 6.8 4.42 10.29
4/6/2021 2:15:00 AM 10.27 50.486 0.084 6.79 4.41 10.29
4/6/2021 2:30:00 AM 10.24 50.432 0.084 6.8 4.53 10.3
4/6/2021 2:45:00 AM 10.21 50.378 0.084 6.79 4.5 10.32
4/6/2021 3:00:00 AM 10.16 50.288 0.084 6.79 4.56 10.33
4/6/2021 3:15:00 AM 10.12 50.216 0.084 6.79 4.41 10.34
4/6/2021 3:30:00 AM 10.08 50.144 0.084 6.78 4.49 10.37
4/6/2021 3:45:00 AM 10.04 50.072 0.084 6.78 4.52 10.36
4/6/2021 4:00:00 AM 10 50 0.084 6.78 4.53 10.38
4/6/2021 4:15:00 AM 9.95 49.91 0.084 6.78 4.45 10.39
4/6/2021 4:30:00 AM 9.89 49.802 0.084 6.8 4.56 10.41
4/6/2021 4:45:00 AM 9.83 49.694 0.085 6.79 4.43 10.42
4/6/2021 5:00:00 AM 9.76 49.568 0.084 6.77 4.44 10.45
4/6/2021 5:15:00 AM 9.69 49.442 0.085 6.77 4.55 10.46
4/6/2021 5:30:00 AM 9.6 49.28 0.085 6.77 4.5 10.48
4/6/2021 5:45:00 AM 9.52 49.136 0.085 6.76 4.75 10.5
4/6/2021 6:00:00 AM 9.43 48.974 0.085 6.75 4.54 10.53
4/6/2021 6:15:00 AM 9.34 48.812 0.085 6.73 4.57 10.54
4/6/2021 6:30:00 AM 9.26 48.668 0.085 6.75 4.6 10.58
4/6/2021 6:45:00 AM 9.17 48.506 0.085 6.76 4.62 10.61
4/6/2021 7:00:00 AM 9.08 48.344 0.085 6.74 4.59 10.65
4/6/2021 7:15:00 AM 9.01 48.218 0.085 6.73 4.49 10.74
4/6/2021 7:30:00 AM 8.95 48.11 0.085 6.74 4.43 10.85
4/6/2021 7:45:00 AM 8.89 48.002 0.085 6.75 4.5 10.99
4/6/2021 8:00:00 AM 8.85 47.93 0.084 6.77 4.53 11.16
4/6/2021 8:15:00 AM 8.82 47.876 0.084 6.77 4.37 11.33
4/6/2021 8:30:00 AM 8.82 47.876 0.084 6.78 4.41 11.5
4/6/2021 8:45:00 AM 8.8 47.84 0.084 6.79 4.47 11.65
4/6/2021 9:00:00 AM 8.8 47.84 0.084 6.77 4.55 11.8
4/6/2021 9:15:00 AM 8.85 47.93 0.084 6.78 4.41 11.96
4/6/2021 9:30:00 AM 8.97 48.146 0.084 6.81 4.27 12.15
4/6/2021 9:45:00 AM 9.07 48.326 0.083 6.82 4.45 12.27
4/6/2021 10:00:00 AM 9.16 48.488 0.084 6.82 4.48 12.37
4/6/2021 10:15:00 AM 9.3 48.74 0.083 6.84 4.44 12.47
4/6/2021 10:30:00 AM 9.48 49.064 0.083 6.86 4.48 12.5
4/6/2021 10:45:00 AM 9.66 49.388 0.083 6.86 4.48 12.53
4/6/2021 11:00:00 AM 9.86 49.748 0.083 6.86 4.47 12.55
4/6/2021 11:15:00 AM 10.06 50.108 0.083 6.87 4.36 12.55
4/6/2021 11:30:00 AM 10.29 50.522 0.083 6.87 4.32 12.55
4/6/2021 11:45:00 AM 10.5 50.9 0.083 6.88 4.3 12.53
4/6/2021 12:00:00 PM 10.74 51.332 0.083 6.89 4.25 12.5
4/6/2021 12:15:00 PM 11 51.8 0.083 6.89 4.39 12.47
4/6/2021 12:30:00 PM 11.25 52.25 0.083 6.89 4.39 12.43
4/6/2021 12:45:00 PM 11.51 52.718 0.083 6.9 4.25 12.39
4/6/2021 1:00:00 PM 11.76 53.168 0.083 6.89 4.36 12.37
4/6/2021 1:15:00 PM 12 53.6 0.083 6.9 4.32 12.31
4/6/2021 1:30:00 PM 12.21 53.978 0.083 6.9 4.3 12.27
4/6/2021 1:45:00 PM 12.44 54.392 0.083 6.9 4.37 12.26
4/6/2021 2:00:00 PM 12.64 54.752 0.083 6.9 4.24 12.17
4/6/2021 2:15:00 PM 12.81 55.058 0.083 6.9 4.26 12.15
4/6/2021 2:30:00 PM 12.94 55.292 0.083 6.9 4.32 12.07
4/6/2021 2:45:00 PM 13.15 55.67 0.083 6.9 4.28 12.06
4/6/2021 3:00:00 PM 13.3 55.94 0.083 6.89 4.29 11.97
4/6/2021 3:15:00 PM 13.41 56.138 0.083 6.89 4.25 11.91
4/6/2021 3:30:00 PM 13.55 56.39 0.083 6.89 4.37 11.86
4/6/2021 3:45:00 PM 13.65 56.57 0.083 6.88 4.27 11.82
4/6/2021 4:00:00 PM 13.73 56.714 0.083 6.87 4.22 11.76
4/6/2021 4:15:00 PM 13.79 56.822 0.083 6.87 4.39 11.7
4/6/2021 4:30:00 PM 13.85 56.93 0.083 6.87 4.36 11.63
4/6/2021 4:45:00 PM 13.86 56.948 0.083 6.85 4.34 11.57
4/6/2021 5:00:00 PM 13.92 57.056 0.083 6.85 4.36 11.5
4/6/2021 5:15:00 PM 13.94 57.092 0.083 6.84 4.28 11.43
4/6/2021 5:30:00 PM 13.93 57.074 0.083 6.83 4.25 11.36
4/6/2021 5:45:00 PM 13.93 57.074 0.082 6.84 4.3 11.29
4/6/2021 6:00:00 PM 13.93 57.074 0.082 6.83 4.29 11.22
4/6/2021 6:15:00 PM 13.89 57.002 0.082 6.83 4.31 11.09
4/6/2021 6:30:00 PM 13.86 56.948 0.082 6.83 4.36 10.97
4/6/2021 6:45:00 PM 13.82 56.876 0.083 6.83 4.33 10.83
4/6/2021 7:00:00 PM 13.77 56.786 0.083 6.81 4.32 10.67
4/6/2021 7:15:00 PM 13.71 56.678 0.083 6.81 4.32 10.48
4/6/2021 7:30:00 PM 13.67 56.606 0.083 6.82 4.28 10.31
4/6/2021 7:45:00 PM 13.63 56.534 0.083 6.8 4.34 10.12
4/6/2021 8:00:00 PM 13.56 56.408 0.083 6.79 4.36 9.98
4/6/2021 8:15:00 PM 13.48 56.264 0.083 6.77 4.34 9.86
4/6/2021 8:30:00 PM 13.41 56.138 0.083 6.77 4.4 9.75
4/6/2021 8:45:00 PM 13.31 55.958 0.084 6.77 4.45 9.68
4/6/2021 9:00:00 PM 13.23 55.814 0.084 6.76 5.96 9.61
4/6/2021 9:15:00 PM 13.15 55.67 0.084 6.77 4.15 9.57
4/6/2021 9:30:00 PM 13.06 55.508 0.084 6.76 4.15 9.57
4/6/2021 9:45:00 PM 12.97 55.346 0.084 6.76 4.13 9.55
4/6/2021 10:00:00 PM 12.89 55.202 0.084 6.76 4.19 9.55
4/6/2021 10:15:00 PM 12.8 55.04 0.084 6.74 4.27 9.55
4/6/2021 10:30:00 PM 12.73 54.914 0.084 6.76 4.26 9.57
4/6/2021 10:45:00 PM 12.64 54.752 0.084 6.75 4.17 9.58
4/6/2021 11:00:00 PM 12.56 54.608 0.084 6.75 4.25 9.6
4/6/2021 11:15:00 PM 12.47 54.446 0.084 6.74 4.18 9.6
4/6/2021 11:30:00 PM 12.41 54.338 0.084 6.75 4.39 9.62
4/6/2021 11:45:00 PM 12.33 54.194 0.084 6.75 4.23 9.65
4/7/2021 12:00:00 AM 12.26 54.068 0.083 6.76 4.3 9.66
4/7/2021 12:15:00 AM 12.19 53.942 0.083 6.77 4.27 9.69
4/7/2021 12:30:00 AM 12.12 53.816 0.083 6.76 4.22 9.71
4/7/2021 12:45:00 AM 12.07 53.726 0.083 6.76 4.25 9.72
4/7/2021 1:00:00 AM 12 53.6 0.084 6.76 4.25 9.74
4/7/2021 1:15:00 AM 11.92 53.456 0.084 6.77 4.22 9.77
4/7/2021 1:30:00 AM 11.85 53.33 0.083 6.76 4.21 9.79
4/7/2021 1:45:00 AM 11.77 53.186 0.084 6.76 4.29 9.8
4/7/2021 2:00:00 AM 11.69 53.042 0.084 6.76 4.27 9.83
4/7/2021 2:15:00 AM 11.63 52.934 0.084 6.76 4.31 9.85
4/7/2021 2:30:00 AM 11.57 52.826 0.084 6.76 4.17 9.87
4/7/2021 2:45:00 AM 11.5 52.7 0.084 6.76 4.18 9.88
4/7/2021 3:00:00 AM 11.44 52.592 0.084 6.77 4.25 9.92
4/7/2021 3:15:00 AM 11.35 52.43 0.084 6.77 4.31 9.91
4/7/2021 3:30:00 AM 11.27 52.286 0.084 6.77 4.27 9.94
4/7/2021 3:45:00 AM 11.18 52.124 0.085 6.75 4.26 9.97
4/7/2021 4:00:00 AM 11.09 51.962 0.085 6.77 4.26 9.99
4/7/2021 4:15:00 AM 11.02 51.836 0.085 6.76 4.28 10.02
4/7/2021 4:30:00 AM 10.94 51.692 0.085 6.76 3.97 10.06
4/7/2021 4:45:00 AM 10.85 51.53 0.085 6.77 3.99 10.06
4/7/2021 5:00:00 AM 10.77 51.386 0.085 6.76 4.07 10.1
4/7/2021 5:15:00 AM 10.69 51.242 0.085 6.75 4.19 10.11
4/7/2021 5:30:00 AM 10.62 51.116 0.085 6.77 3.97 10.13
4/7/2021 5:45:00 AM 10.55 50.99 0.085 6.75 3.97 10.17
4/7/2021 6:00:00 AM 10.48 50.864 0.085 6.76 4.12 10.19
4/7/2021 6:15:00 AM 10.42 50.756 0.085 6.78 4.36 10.21
4/7/2021 6:30:00 AM 10.36 50.648 0.085 6.78 4.18 10.25
4/7/2021 6:45:00 AM 10.31 50.558 0.085 6.77 4.07 10.25
4/7/2021 7:00:00 AM 10.24 50.432 0.085 6.78 4.17 10.28
4/7/2021 7:15:00 AM 10.19 50.342 0.085 6.78 3.92 10.36
4/7/2021 7:30:00 AM 10.13 50.234 0.085 6.78 4.23 10.46
4/7/2021 7:45:00 AM 10.1 50.18 0.085 6.78 4 10.59
4/7/2021 8:00:00 AM 10.07 50.126 0.085 6.78 4 10.71
4/7/2021 8:15:00 AM 10.05 50.09 0.085 6.8 3.92 10.84
4/7/2021 8:30:00 AM 10.06 50.108 0.085 6.8 3.98 11.08
4/7/2021 8:45:00 AM 10.02 50.036 0.085 6.79 4.08 11.15
4/7/2021 9:00:00 AM 9.99 49.982 0.085 6.82 4.05 11.19
4/7/2021 9:15:00 AM 9.97 49.946 0.085 6.8 4.07 11.15
4/7/2021 9:30:00 AM 9.95 49.91 0.085 6.8 3.97 11.16
4/7/2021 9:45:00 AM 9.97 49.946 0.085 6.81 3.95 11.3
4/7/2021 10:00:00 AM 10.04 50.072 0.085 6.81 4.02 11.57
4/7/2021 10:15:00 AM 10.06 50.108 0.084 6.82 4.11 11.73
4/7/2021 10:30:00 AM 10.13 50.234 0.084 6.84 4.1 11.85
4/7/2021 10:45:00 AM 10.25 50.45 0.084 6.84 4.01 12.02
4/7/2021 11:00:00 AM 10.33 50.594 0.084 6.85 4.18 12.14
4/7/2021 11:15:00 AM 10.55 50.99 0.084 6.87 4.08 12.22
4/7/2021 11:30:00 AM 10.79 51.422 0.084 6.88 4.12 12.29
4/7/2021 11:45:00 AM 11.02 51.836 0.084 6.9 4.06 12.35
4/7/2021 12:00:00 PM 11.27 52.286 0.084 6.9 4.03 12.35
4/7/2021 12:15:00 PM 11.54 52.772 0.084 6.9 3.89 12.33
4/7/2021 12:30:00 PM 11.82 53.276 0.084 6.91 3.88 12.33
4/7/2021 12:45:00 PM 12.11 53.798 0.084 6.91 3.94 12.29
4/7/2021 1:00:00 PM 12.4 54.32 0.083 6.92 3.82 12.25
4/7/2021 1:15:00 PM 12.71 54.878 0.083 6.92 3.96 12.19
4/7/2021 1:30:00 PM 13 55.4 0.083 6.92 3.91 12.18
4/7/2021 1:45:00 PM 13.27 55.886 0.083 6.93 3.91 12.12
4/7/2021 2:00:00 PM 13.53 56.354 0.083 6.93 3.93 12.08
4/7/2021 2:15:00 PM 13.77 56.786 0.084 6.92 3.9 12.03
4/7/2021 2:30:00 PM 13.99 57.182 0.084 6.92 3.81 11.96
4/7/2021 2:45:00 PM 14.17 57.506 0.083 6.92 3.93 11.92
4/7/2021 3:00:00 PM 14.29 57.722 0.084 6.91 3.89 11.87
4/7/2021 3:15:00 PM 14.41 57.938 0.084 6.91 3.89 11.8
4/7/2021 3:30:00 PM 14.61 58.298 0.084 6.91 3.86 11.8
4/7/2021 3:45:00 PM 14.67 58.406 0.084 6.92 3.84 11.76
4/7/2021 4:00:00 PM 14.76 58.568 0.084 6.9 3.89 11.68
4/7/2021 4:15:00 PM 14.74 58.532 0.084 6.88 3.86 11.56
4/7/2021 4:30:00 PM 14.85 58.73 0.084 6.89 3.9 11.59
4/7/2021 4:45:00 PM 14.9 58.82 0.084 6.89 3.9 11.54
4/7/2021 5:00:00 PM 14.89 58.802 0.084 6.88 3.75 11.45
4/7/2021 5:15:00 PM 14.86 58.748 0.083 6.86 3.87 11.37
4/7/2021 5:30:00 PM 14.82 58.676 0.083 6.86 3.88 11.23
4/7/2021 5:45:00 PM 14.78 58.604 0.083 6.85 3.96 11.02
4/7/2021 6:00:00 PM 14.76 58.568 0.084 6.84 3.96 10.91
4/7/2021 6:15:00 PM 14.77 58.586 0.083 6.84 3.8 10.83
4/7/2021 6:30:00 PM 14.77 58.586 0.083 6.84 3.87 10.71
4/7/2021 6:45:00 PM 14.72 58.496 0.083 6.83 3.85 10.54
4/7/2021 7:00:00 PM 14.64 58.352 0.083 6.83 3.94 10.4
4/7/2021 7:15:00 PM 14.55 58.19 0.084 6.83 3.96 10.29
4/7/2021 7:30:00 PM 14.45 58.01 0.084 6.82 5.62 10.12
4/7/2021 7:45:00 PM 14.37 57.866 0.084 6.79 3.91 9.97
4/7/2021 8:00:00 PM 14.31 57.758 0.084 6.8 3.82 9.81
4/7/2021 8:15:00 PM 14.26 57.668 0.084 6.8 3.9 9.7
4/7/2021 8:30:00 PM 14.19 57.542 0.084 6.8 4 9.58
4/7/2021 8:45:00 PM 14.12 57.416 0.084 6.79 3.95 9.49
4/7/2021 9:00:00 PM 14.04 57.272 0.085 6.8 3.98 9.42
4/7/2021 9:15:00 PM 13.94 57.092 0.085 6.8 3.87 9.39
4/7/2021 9:30:00 PM 13.84 56.912 0.085 6.79 3.98 9.35
4/7/2021 9:45:00 PM 13.73 56.714 0.085 6.77 3.95 9.34
4/7/2021 10:00:00 PM 13.63 56.534 0.085 6.77 4.03 9.35
4/7/2021 10:15:00 PM 13.54 56.372 0.085 6.77 3.98 9.35
4/7/2021 10:30:00 PM 13.43 56.174 0.085 6.76 4.05 9.35
4/7/2021 10:45:00 PM 13.34 56.012 0.085 6.77 3.97 9.34
4/7/2021 11:00:00 PM 13.24 55.832 0.085 6.79 4.03 9.42
4/7/2021 11:15:00 PM 13.13 55.634 0.085 6.79 4.05 9.41
4/7/2021 11:30:00 PM 13.05 55.49 0.085 6.78 3.97 9.43
4/7/2021 11:45:00 PM 12.96 55.328 0.085 6.79 3.93 9.46
4/8/2021 12:00:00 AM 12.87 55.166 0.085 6.78 3.92 9.47
4/8/2021 12:15:00 AM 12.78 55.004 0.085 6.77 3.97 9.52
4/8/2021 12:30:00 AM 12.69 54.842 0.085 6.76 4.03 9.52
4/8/2021 12:45:00 AM 12.61 54.698 0.084 6.76 4.09 9.56
4/8/2021 1:00:00 AM 12.53 54.554 0.085 6.77 4.11 9.57
4/8/2021 1:15:00 AM 12.46 54.428 0.084 6.77 4.11 9.59
4/8/2021 1:30:00 AM 12.38 54.284 0.085 6.79 4.04 9.61
4/8/2021 1:45:00 AM 12.29 54.122 0.085 6.79 4.01 9.6
4/8/2021 2:00:00 AM 12.22 53.996 0.085 6.8 3.96 9.64
4/8/2021 2:15:00 AM 12.14 53.852 0.085 6.79 4.09 9.66
4/8/2021 2:30:00 AM 12.07 53.726 0.085 6.79 4.19 9.68
4/8/2021 2:45:00 AM 11.99 53.582 0.085 6.79 3.98 9.72
4/8/2021 3:00:00 AM 11.91 53.438 0.085 6.78 4.16 9.75
4/8/2021 3:15:00 AM 11.83 53.294 0.085 6.78 4.08 9.78
4/8/2021 3:30:00 AM 11.75 53.15 0.085 6.78 4.12 9.8
4/8/2021 3:45:00 AM 11.68 53.024 0.085 6.78 4.01 9.81
4/8/2021 4:00:00 AM 11.59 52.862 0.085 6.78 4.1 9.85
4/8/2021 4:15:00 AM 11.52 52.736 0.085 6.79 4.14 9.86
4/8/2021 4:30:00 AM 11.44 52.592 0.085 6.79 4.08 9.9
4/8/2021 4:45:00 AM 11.36 52.448 0.085 6.77 3.98 9.89
4/8/2021 5:00:00 AM 11.28 52.304 0.086 6.75 4.1 9.91
4/8/2021 5:15:00 AM 11.2 52.16 0.086 6.75 4.07 9.96
4/8/2021 5:30:00 AM 11.12 52.016 0.086 6.78 4.01 10
4/8/2021 5:45:00 AM 11.04 51.872 0.086 6.81 4.18 10.01
4/8/2021 6:00:00 AM 10.95 51.71 0.086 6.81 4.27 10.04
4/8/2021 6:15:00 AM 10.87 51.566 0.086 6.81 4.03 10.07
4/8/2021 6:30:00 AM 10.78 51.404 0.086 6.79 4.18 10.1
4/8/2021 6:45:00 AM 10.7 51.26 0.086 6.8 4.21 10.12
4/8/2021 7:00:00 AM 10.63 51.134 0.086 6.8 4.03 10.17
4/8/2021 7:15:00 AM 10.56 51.008 0.086 6.79 4.24 10.28
4/8/2021 7:30:00 AM 10.5 50.9 0.086 6.79 4.02 10.38
4/8/2021 7:45:00 AM 10.45 50.81 0.086 6.79 4.05 10.55
4/8/2021 8:00:00 AM 10.42 50.756 0.086 6.8 4.04 10.71
4/8/2021 8:15:00 AM 10.4 50.72 0.086 6.81 4.08 10.89
4/8/2021 8:30:00 AM 10.39 50.702 0.086 6.81 3.99 11.08
4/8/2021 8:45:00 AM 10.4 50.72 0.086 6.83 3.89 11.23
4/8/2021 9:00:00 AM 10.43 50.774 0.085 6.84 3.86 11.42
4/8/2021 9:15:00 AM 10.48 50.864 0.085 6.85 4.17 11.59
4/8/2021 9:30:00 AM 10.56 51.008 0.085 6.85 4.36 11.74
4/8/2021 9:45:00 AM 10.67 51.206 0.085 6.86 4.03 11.88
4/8/2021 10:00:00 AM 10.81 51.458 0.085 6.89 3.91 12.01
4/8/2021 10:15:00 AM 10.96 51.728 0.085 6.89 4.03 12.11
4/8/2021 10:30:00 AM 11.13 52.034 0.085 6.9 3.87 12.14
4/8/2021 10:45:00 AM 11.33 52.394 0.085 6.91 3.94 12.19
4/8/2021 11:00:00 AM 11.54 52.772 0.085 6.91 3.82 12.18
4/8/2021 11:15:00 AM 11.78 53.204 0.084 6.93 3.87 12.23
4/8/2021 11:30:00 AM 12.02 53.636 0.085 6.93 4 12.23
4/8/2021 11:45:00 AM 12.27 54.086 0.085 6.93 4.34 12.25
4/8/2021 12:00:00 PM 12.54 54.572 0.085 6.92 4.83 12.23
4/8/2021 12:15:00 PM 12.8 55.04 0.085 6.93 4.78 12.23
4/8/2021 12:30:00 PM 13.06 55.508 0.085 6.94 4.47 12.21
4/8/2021 12:45:00 PM 13.32 55.976 0.085 6.93 4.21 12.21
4/8/2021 1:00:00 PM 13.57 56.426 0.085 6.94 4.17 12.15
4/8/2021 1:15:00 PM 13.82 56.876 0.085 6.94 4.03 12.08
4/8/2021 1:30:00 PM 14.05 57.29 0.085 6.93 4.02 12.04
4/8/2021 1:45:00 PM 14.28 57.704 0.085 6.94 3.95 12.02
4/8/2021 2:00:00 PM 14.49 58.082 0.085 6.95 4.04 12.02
4/8/2021 2:15:00 PM 14.69 58.442 0.085 6.93 3.93 11.87
4/8/2021 2:30:00 PM 14.87 58.766 0.085 6.93 3.96 11.89
4/8/2021 2:45:00 PM 15.03 59.054 0.085 6.93 3.88 11.83
4/8/2021 3:00:00 PM 15.16 59.288 0.085 6.93 3.89 11.76
4/8/2021 3:15:00 PM 15.28 59.504 0.085 6.92 3.9 11.72
4/8/2021 3:30:00 PM 15.36 59.648 0.085 6.92 3.9 11.67
4/8/2021 3:45:00 PM 15.43 59.774 0.085 6.92 3.77 11.63
4/8/2021 4:00:00 PM 15.48 59.864 0.085 6.9 3.85 11.55
4/8/2021 4:15:00 PM 15.52 59.936 0.085 6.9 3.73 11.5
4/8/2021 4:30:00 PM 15.54 59.972 0.085 6.9 3.9 11.47
4/8/2021 4:45:00 PM 15.55 59.99 0.085 6.9 3.91 11.42
4/8/2021 5:00:00 PM 15.55 59.99 0.085 6.88 3.72 11.39
4/8/2021 5:15:00 PM 15.53 59.954 0.085 6.87 3.84 11.25
4/8/2021 5:30:00 PM 15.5 59.9 0.085 6.88 3.94 11.17
4/8/2021 5:45:00 PM 15.47 59.846 0.084 6.9 3.91 11.1
4/8/2021 6:00:00 PM 15.42 59.756 0.084 6.86 3.87 10.99
4/8/2021 6:15:00 PM 15.35 59.63 0.084 6.85 3.89 10.87
4/8/2021 6:30:00 PM 15.29 59.522 0.084 6.84 3.96 10.71
4/8/2021 6:45:00 PM 15.21 59.378 0.084 6.84 3.83 10.52
4/8/2021 7:00:00 PM 15.13 59.234 0.084 6.83 3.93 10.36
4/8/2021 7:15:00 PM 15.04 59.072 0.085 6.82 3.77 10.18
4/8/2021 7:30:00 PM 14.96 58.928 0.085 6.81 3.82 9.96
4/8/2021 7:45:00 PM 14.86 58.748 0.085 6.8 3.82 9.83
4/8/2021 8:00:00 PM 14.77 58.586 0.085 6.8 3.86 9.63
4/8/2021 8:15:00 PM 14.69 58.442 0.085 6.8 3.89 9.58
4/8/2021 8:30:00 PM 14.6 58.28 0.085 6.8 3.83 9.42
4/8/2021 8:45:00 PM 14.52 58.136 0.086 6.79 3.98 9.38
4/8/2021 9:00:00 PM 14.45 58.01 0.086 6.78 3.93 9.29
4/8/2021 9:15:00 PM 14.38 57.884 0.086 6.8 3.91 9.23
4/8/2021 9:30:00 PM 14.29 57.722 0.086 6.79 3.89 9.21
4/8/2021 9:45:00 PM 14.24 57.632 0.086 6.78 3.67 9.16
4/8/2021 10:00:00 PM 14.17 57.506 0.086 6.79 3.88 9.18
4/8/2021 10:15:00 PM 14.09 57.362 0.086 6.8 3.83 9.13
4/8/2021 10:30:00 PM 14.02 57.236 0.086 6.81 3.89 9.17
4/8/2021 10:45:00 PM 13.95 57.11 0.086 6.81 3.91 9.18
4/8/2021 11:00:00 PM 13.88 56.984 0.086 6.8 3.88 9.18
4/8/2021 11:15:00 PM 13.81 56.858 0.086 6.79 3.76 9.18
4/8/2021 11:30:00 PM 13.73 56.714 0.086 6.79 3.87 9.22
4/8/2021 11:45:00 PM 13.67 56.606 0.086 6.79 3.73 9.22
4/9/2021 12:00:00 AM 13.59 56.462 0.085 6.79 3.74 9.25
4/9/2021 12:15:00 AM 13.52 56.336 0.085 6.79 3.8 9.28
4/9/2021 12:30:00 AM 13.44 56.192 0.085 6.78 3.97 9.27
4/9/2021 12:45:00 AM 13.37 56.066 0.085 6.78 3.86 9.3
4/9/2021 1:00:00 AM 13.31 55.958 0.085 6.78 3.88 9.33
4/9/2021 1:15:00 AM 13.24 55.832 0.085 6.79 3.88 9.34
4/9/2021 1:30:00 AM 13.18 55.724 0.085 6.79 3.86 9.38
4/9/2021 1:45:00 AM 13.12 55.616 0.085 6.79 3.88 9.35
4/9/2021 2:00:00 AM 13.05 55.49 0.085 6.8 4.08 9.38
4/9/2021 2:15:00 AM 12.99 55.382 0.085 6.79 3.98 9.43
4/9/2021 2:30:00 AM 12.93 55.274 0.086 6.79 3.96 9.43
4/9/2021 2:45:00 AM 12.88 55.184 0.085 6.79 3.89 9.46
4/9/2021 3:00:00 AM 12.85 55.13 0.086 6.8 4.3 9.46
4/9/2021 3:15:00 AM 12.81 55.058 0.086 6.8 3.97 9.48
4/9/2021 3:30:00 AM 12.76 54.968 0.086 6.8 4.01 9.5
4/9/2021 3:45:00 AM 12.73 54.914 0.086 6.8 4.06 9.51
4/9/2021 4:00:00 AM 12.69 54.842 0.086 6.8 3.92 9.51
4/9/2021 4:15:00 AM 12.64 54.752 0.086 6.8 4.07 9.53
4/9/2021 4:30:00 AM 12.6 54.68 0.086 6.8 4.06 9.54
4/9/2021 4:45:00 AM 12.56 54.608 0.086 6.81 4 9.58
4/9/2021 5:00:00 AM 12.52 54.536 0.086 6.81 4.11 9.58
4/9/2021 5:15:00 AM 12.48 54.464 0.086 6.81 3.95 9.57
4/9/2021 5:30:00 AM 12.44 54.392 0.086 6.81 3.92 9.62
4/9/2021 5:45:00 AM 12.4 54.32 0.086 6.82 3.89 9.62
4/9/2021 6:00:00 AM 12.36 54.248 0.087 6.82 3.91 9.64
4/9/2021 6:15:00 AM 12.32 54.176 0.087 6.82 3.89 9.66
4/9/2021 6:30:00 AM 12.28 54.104 0.087 6.82 3.91 9.67
4/9/2021 6:45:00 AM 12.24 54.032 0.087 6.81 4.12 9.68
4/9/2021 7:00:00 AM 12.2 53.96 0.087 6.81 4.19 9.7
4/9/2021 7:15:00 AM 12.17 53.906 0.087 6.82 4.37 9.75
4/9/2021 7:30:00 AM 12.12 53.816 0.087 6.81 4.23 9.76
4/9/2021 7:45:00 AM 12.1 53.78 0.087 6.82 4.18 9.82
4/9/2021 8:00:00 AM 12.07 53.726 0.087 6.82 3.95 9.87
4/9/2021 8:15:00 AM 12.03 53.654 0.088 6.82 4.08 9.95
4/9/2021 8:30:00 AM 12 53.6 0.088 6.81 3.98 10.02
4/9/2021 8:45:00 AM 11.97 53.546 0.088 6.82 3.92 10.07
4/9/2021 9:00:00 AM 11.95 53.51 0.087 6.82 3.96 10.18
4/9/2021 9:15:00 AM 11.93 53.474 0.087 6.82 3.88 10.29
4/9/2021 9:30:00 AM 11.91 53.438 0.087 6.82 3.98 10.38
4/9/2021 9:45:00 AM 11.89 53.402 0.087 6.82 3.92 10.46
4/9/2021 10:00:00 AM 11.89 53.402 0.087 6.83 3.92 10.64
4/9/2021 10:15:00 AM 11.87 53.366 0.087 6.84 3.78 10.67
4/9/2021 10:30:00 AM 11.85 53.33 0.087 6.83 3.77 10.64
4/9/2021 10:45:00 AM 11.83 53.294 0.087 6.83 3.9 10.67
4/9/2021 11:00:00 AM 11.83 53.294 0.086 6.83 3.82 10.81
4/9/2021 11:15:00 AM 11.83 53.294 0.086 6.83 3.86 10.9
4/9/2021 11:30:00 AM 11.83 53.294 0.086 6.84 3.95 11
4/9/2021 11:45:00 AM 11.83 53.294 0.086 6.84 3.94 11.13
4/9/2021 12:00:00 PM 11.85 53.33 0.086 6.85 3.91 11.24
4/9/2021 12:15:00 PM 11.85 53.33 0.086 6.85 5.48 11.31
4/9/2021 12:30:00 PM 11.9 53.42 0.086 6.84 7.49 11.48
4/9/2021 12:45:00 PM 11.93 53.474 0.086 6.85 6.51 11.6
4/9/2021 1:00:00 PM 11.95 53.51 0.086 6.86 3.76 11.66
4/9/2021 1:15:00 PM 11.96 53.528 0.086 6.86 3.84 11.71
4/9/2021 1:30:00 PM 11.99 53.582 0.086 6.85 3.77 11.71
4/9/2021 1:45:00 PM 11.99 53.582 0.086 6.86 3.73 11.72
4/9/2021 2:00:00 PM 12.01 53.618 0.085 6.86 3.73 11.7
4/9/2021 2:15:00 PM 12.02 53.636 0.085 6.85 3.73 11.64
4/9/2021 2:30:00 PM 12.08 53.744 0.085 6.86 3.78 11.74
4/9/2021 2:45:00 PM 12.15 53.87 0.085 6.87 3.74 11.83
4/9/2021 3:00:00 PM 12.17 53.906 0.085 6.87 3.78 11.83
4/9/2021 3:15:00 PM 12.18 53.924 0.085 6.86 3.71 11.82
4/9/2021 3:30:00 PM 12.23 54.014 0.085 6.86 3.63 11.87
4/9/2021 3:45:00 PM 12.25 54.05 0.085 6.86 3.77 11.85
4/9/2021 4:00:00 PM 12.28 54.104 0.085 6.87 8.26 11.81
4/9/2021 4:15:00 PM 12.31 54.158 0.085 6.87 4.41 11.85
4/9/2021 4:30:00 PM 12.33 54.194 0.085 6.87 3.57 11.83
4/9/2021 4:45:00 PM 12.33 54.194 0.085 6.86 3.99 11.73
4/9/2021 5:00:00 PM 12.34 54.212 0.085 6.86 5.49 11.62
4/9/2021 5:15:00 PM 12.35 54.23 0.085 6.86 10.31 11.56
4/9/2021 5:30:00 PM 12.34 54.212 0.085 6.86 3.97 11.43
4/9/2021 5:45:00 PM 12.34 54.212 0.085 6.86 4.18 11.29
4/9/2021 6:00:00 PM 12.33 54.194 0.085 6.84 3.43 11.22
4/9/2021 6:15:00 PM 12.31 54.158 0.086 6.84 3.47 11.06
4/9/2021 6:30:00 PM 12.29 54.122 0.086 6.85 7.26 10.92
4/9/2021 6:45:00 PM 12.27 54.086 0.086 6.84 5.72 10.78
4/9/2021 7:00:00 PM 12.24 54.032 0.086 6.83 5.51 10.67
4/9/2021 7:15:00 PM 12.21 53.978 0.086 6.84 3.51 10.54
4/9/2021 7:30:00 PM 12.18 53.924 0.086 6.83 3.43 10.42
4/9/2021 7:45:00 PM 12.15 53.87 0.086 6.83 3.39 10.31
4/9/2021 8:00:00 PM 12.12 53.816 0.087 6.83 3.44 10.22
4/9/2021 8:15:00 PM 12.09 53.762 0.087 6.82 3.58 10.14
4/9/2021 8:30:00 PM 12.06 53.708 0.087 6.83 3.46 10.06
4/9/2021 8:45:00 PM 12.02 53.636 0.087 6.83 3.63 10.02
4/9/2021 9:00:00 PM 11.99 53.582 0.087 6.82 3.54 9.98
4/9/2021 9:15:00 PM 11.96 53.528 0.087 6.82 3.59 9.95
4/9/2021 9:30:00 PM 11.92 53.456 0.087 6.82 3.6 9.94
4/9/2021 9:45:00 PM 11.89 53.402 0.087 6.82 3.52 9.92
4/9/2021 10:00:00 PM 11.86 53.348 0.087 6.82 3.53 9.86
4/9/2021 10:15:00 PM 11.84 53.312 0.087 6.81 3.53 9.91
4/9/2021 10:30:00 PM 11.81 53.258 0.087 6.82 3.46 9.86
4/9/2021 10:45:00 PM 11.78 53.204 0.087 6.82 3.55 9.85
4/9/2021 11:00:00 PM 11.76 53.168 0.087 6.82 3.56 9.89
4/9/2021 11:15:00 PM 11.74 53.132 0.087 6.82 3.54 9.92
4/9/2021 11:30:00 PM 11.71 53.078 0.087 6.82 3.54 9.89
4/9/2021 11:45:00 PM 11.69 53.042 0.087 6.83 3.52 9.92
4/10/2021 12:00:00 AM 11.66 52.988 0.087 6.83 3.53 9.84
4/10/2021 12:15:00 AM 11.64 52.952 0.087 6.82 3.53 9.93
4/10/2021 12:30:00 AM 11.62 52.916 0.087 6.82 3.54 9.86
4/10/2021 12:45:00 AM 11.59 52.862 0.087 6.82 3.61 9.91
4/10/2021 1:00:00 AM 11.57 52.826 0.087 6.82 3.63 9.95
4/10/2021 1:15:00 AM 11.55 52.79 0.087 6.82 3.65 9.93
4/10/2021 1:30:00 AM 11.53 52.754 0.087 6.83 3.63 9.91
4/10/2021 1:45:00 AM 11.51 52.718 0.087 6.83 3.71 9.96
4/10/2021 2:00:00 AM 11.49 52.682 0.087 6.83 3.74 9.93
4/10/2021 2:15:00 AM 11.47 52.646 0.087 6.83 3.51 9.93
4/10/2021 2:30:00 AM 11.45 52.61 0.087 6.83 3.57 9.94
4/10/2021 2:45:00 AM 11.43 52.574 0.087 6.82 3.75 9.97
4/10/2021 3:00:00 AM 11.41 52.538 0.087 6.83 3.62 9.94
4/10/2021 3:15:00 AM 11.39 52.502 0.087 6.83 3.74 9.92
4/10/2021 3:30:00 AM 11.38 52.484 0.087 6.83 3.89 9.96
4/10/2021 3:45:00 AM 11.36 52.448 0.087 6.84 3.82 9.95
4/10/2021 4:00:00 AM 11.34 52.412 0.087 6.83 3.88 9.98
4/10/2021 4:15:00 AM 11.33 52.394 0.087 6.84 4.14 10
4/10/2021 4:30:00 AM 11.31 52.358 0.087 6.84 3.84 10
4/10/2021 4:45:00 AM 11.3 52.34 0.087 6.84 3.87 9.95
4/10/2021 5:00:00 AM 11.29 52.322 0.087 6.83 3.62 10.01
4/10/2021 5:15:00 AM 11.27 52.286 0.088 6.83 3.63 10.01
4/10/2021 5:30:00 AM 11.25 52.25 0.088 6.83 3.82 9.99
4/10/2021 5:45:00 AM 11.24 52.232 0.088 6.83 3.74 10.02
4/10/2021 6:00:00 AM 11.23 52.214 0.088 6.84 3.59 9.98
4/10/2021 6:15:00 AM 11.21 52.178 0.088 6.83 3.56 10.04
4/10/2021 6:30:00 AM 11.19 52.142 0.088 6.83 3.62 10
4/10/2021 6:45:00 AM 11.18 52.124 0.088 6.83 3.65 10.03
4/10/2021 7:00:00 AM 11.17 52.106 0.088 6.84 3.69 10.06
4/10/2021 7:15:00 AM 11.16 52.088 0.088 6.85 3.54 10.07
4/10/2021 7:30:00 AM 11.15 52.07 0.088 6.84 3.56 10.14
4/10/2021 7:45:00 AM 11.14 52.052 0.088 6.83 3.53 10.17
4/10/2021 8:00:00 AM 11.14 52.052 0.088 6.83 3.66 10.33
4/10/2021 8:15:00 AM 11.15 52.07 0.088 6.83 3.55 10.43
4/10/2021 8:30:00 AM 11.15 52.07 0.088 6.83 3.98 10.5
4/10/2021 8:45:00 AM 11.17 52.106 0.088 6.84 3.52 10.55
4/10/2021 9:00:00 AM 11.18 52.124 0.088 6.85 3.56 10.77
4/10/2021 9:15:00 AM 11.21 52.178 0.087 6.85 3.52 10.91
4/10/2021 9:30:00 AM 11.24 52.232 0.087 6.86 3.5 11.01
4/10/2021 9:45:00 AM 11.28 52.304 0.087 6.85 3.67 11.21
4/10/2021 10:00:00 AM 11.31 52.358 0.087 6.87 3.53 11.28
4/10/2021 10:15:00 AM 11.36 52.448 0.087 6.86 3.49 11.41
4/10/2021 10:30:00 AM 11.41 52.538 0.087 6.87 3.57 11.54
4/10/2021 10:45:00 AM 11.47 52.646 0.087 6.87 3.56 11.61
4/10/2021 11:00:00 AM 11.55 52.79 0.087 6.88 3.52 11.74
4/10/2021 11:15:00 AM 11.62 52.916 0.087 6.88 3.49 11.77
4/10/2021 11:30:00 AM 11.72 53.096 0.086 6.88 3.46 11.86
4/10/2021 11:45:00 AM 11.82 53.276 0.086 6.88 3.44 11.98
4/10/2021 12:00:00 PM 11.94 53.492 0.086 6.89 3.57 12.03
4/10/2021 12:15:00 PM 12.06 53.708 0.086 6.89 3.45 12.1
4/10/2021 12:30:00 PM 12.19 53.942 0.086 6.9 3.46 12.08
4/10/2021 12:45:00 PM 12.32 54.176 0.086 6.9 3.95 12.13
4/10/2021 1:00:00 PM 12.47 54.446 0.086 6.9 3.7 12.12
4/10/2021 1:15:00 PM 12.58 54.644 0.086 6.91 3.51 12.16
4/10/2021 1:30:00 PM 12.73 54.914 0.086 6.91 3.54 12.13
4/10/2021 1:45:00 PM 12.94 55.292 0.086 6.91 3.44 12.16
4/10/2021 2:00:00 PM 13.11 55.598 0.086 6.91 3.66 12.1
4/10/2021 2:15:00 PM 13.25 55.85 0.086 6.92 3.54 12.1
4/10/2021 2:30:00 PM 13.39 56.102 0.086 6.91 3.52 12.07
4/10/2021 2:45:00 PM 13.54 56.372 0.086 6.87 3.68 12.06
4/10/2021 3:00:00 PM 13.64 56.552 0.086 6.91 3.45 11.99
4/10/2021 3:15:00 PM 13.75 56.75 0.086 6.91 3.57 11.98
4/10/2021 3:30:00 PM 13.86 56.948 0.086 6.91 3.58 11.88
4/10/2021 3:45:00 PM 14.01 57.218 0.086 6.91 3.49 11.82
4/10/2021 4:00:00 PM 14.19 57.542 0.086 6.91 3.44 11.79
4/10/2021 4:15:00 PM 14.32 57.776 0.086 6.92 3.53 11.76
4/10/2021 4:30:00 PM 14.39 57.902 0.086 6.91 3.5 11.65
4/10/2021 4:45:00 PM 14.4 57.92 0.086 6.9 3.7 11.58
4/10/2021 5:00:00 PM 14.4 57.92 0.086 6.89 3.6 11.5
4/10/2021 5:15:00 PM 14.38 57.884 0.086 6.89 3.44 11.44
4/10/2021 5:30:00 PM 14.34 57.812 0.086 6.88 3.47 11.43
4/10/2021 5:45:00 PM 14.29 57.722 0.086 6.85 3.65 11.25
4/10/2021 6:00:00 PM 14.28 57.704 0.086 6.86 3.59 11.24
4/10/2021 6:15:00 PM 14.27 57.686 0.086 6.85 3.59 11.05
4/10/2021 6:30:00 PM 14.26 57.668 0.086 6.86 3.51 10.99
4/10/2021 6:45:00 PM 14.23 57.614 0.086 6.85 3.33 10.81
4/10/2021 7:00:00 PM 14.18 57.524 0.086 6.85 3.6 10.63
4/10/2021 7:15:00 PM 14.13 57.434 0.086 6.85 3.52 10.52
4/10/2021 7:30:00 PM 14.07 57.326 0.086 6.84 3.43 10.28
4/10/2021 7:45:00 PM 14.03 57.254 0.086 6.83 3.53 10.16
4/10/2021 8:00:00 PM 13.97 57.146 0.087 6.83 3.56 9.98
4/10/2021 8:15:00 PM 13.9 57.02 0.087 6.82 3.63 9.8
4/10/2021 8:30:00 PM 13.83 56.894 0.087 6.81 3.64 9.72
4/10/2021 8:45:00 PM 13.75 56.75 0.087 6.82 3.54 9.58
4/10/2021 9:00:00 PM 13.68 56.624 0.088 6.82 3.66 9.5
4/10/2021 9:15:00 PM 13.62 56.516 0.088 6.82 3.58 9.42
4/10/2021 9:30:00 PM 13.56 56.408 0.088 6.82 3.74 9.4
4/10/2021 9:45:00 PM 13.52 56.336 0.088 6.83 3.63 9.39
4/10/2021 10:00:00 PM 13.47 56.246 0.088 6.83 3.59 9.35
4/10/2021 10:15:00 PM 13.41 56.138 0.088 6.82 3.72 9.33
4/10/2021 10:30:00 PM 13.36 56.048 0.088 6.82 3.66 9.3
4/10/2021 10:45:00 PM 13.31 55.958 0.088 6.81 3.59 9.28
4/10/2021 11:00:00 PM 13.27 55.886 0.088 6.82 3.72 9.25
4/10/2021 11:15:00 PM 13.22 55.796 0.088 6.81 3.72 9.29
4/10/2021 11:30:00 PM 13.17 55.706 0.088 6.81 3.84 9.31
4/10/2021 11:45:00 PM 13.13 55.634 0.088 6.81 3.63 9.33
4/11/2021 12:00:00 AM 13.08 55.544 0.088 6.81 3.65 9.32
4/11/2021 12:15:00 AM 13.04 55.472 0.088 6.82 3.56 9.32
4/11/2021 12:30:00 AM 12.99 55.382 0.088 6.82 3.61 9.34
4/11/2021 12:45:00 AM 12.95 55.31 0.088 6.83 3.68 9.37
4/11/2021 1:00:00 AM 12.91 55.238 0.088 6.83 3.6 9.34
4/11/2021 1:15:00 AM 12.87 55.166 0.088 6.83 3.58 9.34
4/11/2021 1:30:00 AM 12.83 55.094 0.088 6.83 3.58 9.4
4/11/2021 1:45:00 AM 12.79 55.022 0.088 6.82 3.64 9.3
4/11/2021 2:00:00 AM 12.76 54.968 0.088 6.83 3.78 9.38
4/11/2021 2:15:00 AM 12.73 54.914 0.087 6.83 3.98 9.37
4/11/2021 2:30:00 AM 12.7 54.86 0.088 6.84 3.63 9.38
4/11/2021 2:45:00 AM 12.67 54.806 0.087 6.83 3.96 9.34
4/11/2021 3:00:00 AM 12.65 54.77 0.087 6.83 3.59 9.37
4/11/2021 3:15:00 AM 12.61 54.698 0.088 6.84 3.66 9.39
4/11/2021 3:30:00 AM 12.6 54.68 0.088 6.84 3.65 9.4
4/11/2021 3:45:00 AM 12.57 54.626 0.088 6.84 3.62 9.35
4/11/2021 4:00:00 AM 12.55 54.59 0.088 6.84 3.76 9.39
4/11/2021 4:15:00 AM 12.52 54.536 0.088 6.84 3.77 9.36
4/11/2021 4:30:00 AM 12.5 54.5 0.087 6.85 3.85 9.37
4/11/2021 4:45:00 AM 12.48 54.464 0.087 6.84 3.89 9.39
4/11/2021 5:00:00 AM 12.46 54.428 0.087 6.84 3.93 9.42
4/11/2021 5:15:00 AM 12.44 54.392 0.087 6.85 3.85 9.43
4/11/2021 5:30:00 AM 12.42 54.356 0.087 6.85 3.75 9.45
4/11/2021 5:45:00 AM 12.4 54.32 0.087 6.85 3.89 9.44
4/11/2021 6:00:00 AM 12.38 54.284 0.087 6.85 4.05 9.44
4/11/2021 6:15:00 AM 12.36 54.248 0.088 6.85 4.23 9.4
4/11/2021 6:30:00 AM 12.35 54.23 0.088 6.85 4.07 9.45
4/11/2021 6:45:00 AM 12.33 54.194 0.088 6.85 4.27 9.39
4/11/2021 7:00:00 AM 12.31 54.158 0.088 6.85 4.15 9.48
4/11/2021 7:15:00 AM 12.29 54.122 0.089 6.85 4.5 9.48
4/11/2021 7:30:00 AM 12.28 54.104 0.089 6.84 4.54 9.47
4/11/2021 7:45:00 AM 12.26 54.068 0.089 6.86 4.72 9.58
4/11/2021 8:00:00 AM 12.25 54.05 0.089 6.85 4.91 9.51
4/11/2021 8:15:00 AM 12.23 54.014 0.089 6.84 5.03 9.68
4/11/2021 8:30:00 AM 12.22 53.996 0.09 6.85 5.57 9.76
4/11/2021 8:45:00 AM 12.21 53.978 0.09 6.84 5.61 9.83
4/11/2021 9:00:00 AM 12.21 53.978 0.091 6.84 7.52 9.94
4/11/2021 9:15:00 AM 12.2 53.96 0.091 6.83 5.47 10.09
4/11/2021 9:30:00 AM 12.21 53.978 0.092 6.84 5.43 10.2
4/11/2021 9:45:00 AM 12.2 53.96 0.094 6.86 18.83 10.27
4/11/2021 10:00:00 AM 12.21 53.978 0.097 6.85 6.23 10.35
4/11/2021 10:15:00 AM 12.21 53.978 0.099 6.85 8.33 10.42
4/11/2021 10:30:00 AM 12.23 54.014 0.099 6.85 6.29 10.57
4/11/2021 10:45:00 AM 12.26 54.068 0.099 6.84 6.16 10.71
4/11/2021 11:00:00 AM 12.3 54.14 0.098 6.86 5.96 10.81
4/11/2021 11:15:00 AM 12.37 54.266 0.098 6.86 6.18 11
4/11/2021 11:30:00 AM 12.44 54.392 0.099 6.87 6.08 11.07
4/11/2021 11:45:00 AM 12.52 54.536 0.098 6.86 6.1 11.15
4/11/2021 12:00:00 PM 12.6 54.68 0.097 6.86 5.98 11.19
4/11/2021 12:15:00 PM 12.69 54.842 0.097 6.88 5.91 11.28
4/11/2021 12:30:00 PM 12.89 55.202 0.097 6.88 6.37 11.41
4/11/2021 12:45:00 PM 13.12 55.616 0.096 6.9 6.11 11.47
4/11/2021 1:00:00 PM 13.27 55.886 0.097 6.9 6.11 11.48
4/11/2021 1:15:00 PM 13.42 56.156 0.096 6.9 5.9 11.55
4/11/2021 1:30:00 PM 13.59 56.462 0.097 6.9 6.15 11.57
4/11/2021 1:45:00 PM 13.74 56.732 0.096 6.91 5.89 11.53
4/11/2021 2:00:00 PM 13.88 56.984 0.096 6.92 6.13 11.53
4/11/2021 2:15:00 PM 14.01 57.218 0.096 6.9 5.84 11.48
4/11/2021 2:30:00 PM 14.09 57.362 0.096 6.9 5.66 11.43
4/11/2021 2:45:00 PM 14.24 57.632 0.095 6.91 7.52 11.46
4/11/2021 3:00:00 PM 14.37 57.866 0.096 6.9 6 11.4
4/11/2021 3:15:00 PM 14.49 58.082 0.096 6.91 5.74 11.38
4/11/2021 3:30:00 PM 14.64 58.352 0.096 6.92 5.89 11.36
4/11/2021 3:45:00 PM 14.85 58.73 0.095 6.88 5.67 11.34
4/11/2021 4:00:00 PM 14.99 58.982 0.095 6.9 5.73 11.29
4/11/2021 4:15:00 PM 15.11 59.198 0.095 6.91 5.55 11.26
4/11/2021 4:30:00 PM 15.16 59.288 0.094 6.9 5.52 11.13
4/11/2021 4:45:00 PM 15.19 59.342 0.094 6.9 5.48 11.03
4/11/2021 5:00:00 PM 15.27 59.486 0.094 6.89 5.37 10.99
4/11/2021 5:15:00 PM 15.25 59.45 0.093 6.89 5.31 10.87
4/11/2021 5:30:00 PM 15.21 59.378 0.093 6.85 5.16 10.66
4/11/2021 5:45:00 PM 15.15 59.27 0.093 6.85 5.2 10.41
4/11/2021 6:00:00 PM 15.07 59.126 0.093 6.83 5.17 10.23
4/11/2021 6:15:00 PM 15 59 0.093 6.86 5.17 10.08
4/11/2021 6:30:00 PM 14.95 58.91 0.093 6.84 5.13 9.98
4/11/2021 6:45:00 PM 14.92 58.856 0.094 6.85 5.53 9.97
4/11/2021 7:00:00 PM 14.86 58.748 0.094 6.84 5.1 9.93
4/11/2021 7:15:00 PM 14.77 58.586 0.094 6.83 5.08 9.74
4/11/2021 7:30:00 PM 14.72 58.496 0.094 6.82 5.24 9.64
4/11/2021 7:45:00 PM 14.66 58.388 0.095 6.83 5.06 9.57
4/11/2021 8:00:00 PM 14.6 58.28 0.095 6.82 5.37 9.45
4/11/2021 8:15:00 PM 14.53 58.154 0.096 6.82 5.57 9.36
4/11/2021 8:30:00 PM 14.47 58.046 0.095 6.81 5.33 9.32
4/11/2021 8:45:00 PM 14.4 57.92 0.096 6.78 5.33 9.24
4/11/2021 9:00:00 PM 14.33 57.794 0.095 6.78 5.15 9.14
4/11/2021 9:15:00 PM 14.25 57.65 0.095 6.74 5.67 9.16
4/11/2021 9:30:00 PM 14.18 57.524 0.095 6.76 5.36 9.13
4/11/2021 9:45:00 PM 14.11 57.398 0.096 6.74 5.27 9.12
4/11/2021 10:00:00 PM 14.04 57.272 0.095 6.74 5.44 9.13
4/11/2021 10:15:00 PM 13.97 57.146 0.096 6.76 5.35 9.12
4/11/2021 10:30:00 PM 13.91 57.038 0.096 6.77 5.44 9.13
4/11/2021 10:45:00 PM 13.84 56.912 0.096 6.76 5.3 9.16
4/11/2021 11:00:00 PM 13.78 56.804 0.096 6.77 5.43 9.16
4/11/2021 11:15:00 PM 13.72 56.696 0.095 6.75 5.25 9.15
4/11/2021 11:30:00 PM 13.67 56.606 0.096 6.77 5.48 9.2
4/11/2021 11:45:00 PM 13.61 56.498 0.095 6.77 5.2 9.19
4/12/2021 12:00:00 AM 13.55 56.39 0.096 6.77 5.35 9.19
4/12/2021 12:15:00 AM 13.49 56.282 0.096 6.76 5.62 9.2
4/12/2021 12:30:00 AM 13.44 56.192 0.096 6.77 5.68 9.25
4/12/2021 12:45:00 AM 13.38 56.084 0.097 6.78 5.63 9.24
4/12/2021 1:00:00 AM 13.33 55.994 0.097 6.76 6.13 9.28
4/12/2021 1:15:00 AM 13.27 55.886 0.098 6.78 6.92 9.2
4/12/2021 1:30:00 AM 13.22 55.796 0.098 6.78 6.86 9.3
4/12/2021 1:45:00 AM 13.17 55.706 0.1 6.8 6.8 9.31
4/12/2021 2:00:00 AM 13.11 55.598 0.1 6.78 6.39 9.3
4/12/2021 2:15:00 AM 13.05 55.49 0.101 6.76 6.74 9.33
4/12/2021 2:30:00 AM 12.99 55.382 0.101 6.78 6.54 9.28
4/12/2021 2:45:00 AM 12.92 55.256 0.101 6.78 6.91 9.35
4/12/2021 3:00:00 AM 12.86 55.148 0.101 6.79 6.82 9.38
4/12/2021 3:15:00 AM 12.81 55.058 0.102 6.79 6.78 9.41
4/12/2021 3:30:00 AM 12.77 54.986 0.102 6.8 6.81 9.41
4/12/2021 3:45:00 AM 12.72 54.896 0.103 6.78 6.67 9.44
4/12/2021 4:00:00 AM 12.67 54.806 0.103 6.8 6.19 9.42
4/12/2021 4:15:00 AM 12.62 54.716 0.104 6.81 6.67 9.47
4/12/2021 4:30:00 AM 12.58 54.644 0.104 6.83 6.27 9.45
4/12/2021 4:45:00 AM 12.53 54.554 0.105 6.8 5.91 9.49
4/12/2021 5:00:00 AM 12.49 54.482 0.105 6.81 6.23 9.46
4/12/2021 5:15:00 AM 12.45 54.41 0.104 6.78 6.19 9.53
4/12/2021 5:30:00 AM 12.4 54.32 0.105 6.79 6.13 9.51
4/12/2021 5:45:00 AM 12.36 54.248 0.105 6.81 5.75 9.56
4/12/2021 6:00:00 AM 12.32 54.176 0.104 6.82 5.97 9.58
4/12/2021 6:15:00 AM 12.27 54.086 0.104 6.83 5.91 9.57
4/12/2021 6:30:00 AM 12.21 53.978 0.104 6.83 5.87 9.58
4/12/2021 6:45:00 AM 12.17 53.906 0.104 6.84 5.63 9.59
4/12/2021 7:00:00 AM 12.13 53.834 0.103 6.82 5.88 9.64
4/12/2021 7:15:00 AM 12.08 53.744 0.104 6.83 6.05 9.68
4/12/2021 7:30:00 AM 12.04 53.672 0.103 6.82 5.97 9.75
4/12/2021 7:45:00 AM 12.01 53.618 0.103 6.83 5.78 9.85
4/12/2021 8:00:00 AM 11.97 53.546 0.103 6.84 5.88 9.89
4/12/2021 8:15:00 AM 11.94 53.492 0.103 6.83 7.69 9.95
4/12/2021 8:30:00 AM 11.91 53.438 0.103 6.84 7.32 10.02
4/12/2021 8:45:00 AM 11.89 53.402 0.103 6.82 5.31 10.15
4/12/2021 9:00:00 AM 11.86 53.348 0.103 6.83 5.4 10.22
4/12/2021 9:15:00 AM 11.84 53.312 0.102 6.84 5.29 10.27
4/12/2021 9:30:00 AM 11.82 53.276 0.102 6.83 5.28 10.31
4/12/2021 9:45:00 AM 11.82 53.276 0.101 6.84 5.28 10.45
4/12/2021 10:00:00 AM 11.84 53.312 0.101 6.83 5.29 10.63
4/12/2021 10:15:00 AM 11.85 53.33 0.102 6.84 5.12 10.73
4/12/2021 10:30:00 AM 11.83 53.294 0.101 6.85 5.33 10.61
4/12/2021 10:45:00 AM 11.82 53.276 0.102 6.85 5.49 10.69
4/12/2021 11:00:00 AM 11.8 53.24 0.101 6.84 5.14 10.7
4/12/2021 11:15:00 AM 11.77 53.186 0.101 6.85 5.53 10.61
4/12/2021 11:30:00 AM 11.78 53.204 0.102 6.85 6.28 10.73
4/12/2021 11:45:00 AM 11.79 53.222 0.103 6.85 16.27 10.81
4/12/2021 12:00:00 PM 11.82 53.276 0.108 6.84 19.47 10.8
4/12/2021 12:15:00 PM 11.84 53.312 0.113 6.83 20.53 10.89
4/12/2021 12:30:00 PM 11.89 53.402 0.114 6.84 32.76 10.91
4/12/2021 12:45:00 PM 11.95 53.51 0.113 6.85 20.48 11
4/12/2021 1:00:00 PM 12.13 53.834 0.114 6.86 20.17 11.12
4/12/2021 1:15:00 PM 12.22 53.996 0.115 6.88 19.02 11.11
4/12/2021 1:30:00 PM 12.31 54.158 0.12 6.85 16.17 11.13
4/12/2021 1:45:00 PM 12.36 54.248 0.121 6.86 15.82 11.09
4/12/2021 2:00:00 PM 12.42 54.356 0.121 6.87 14.46 11.08
4/12/2021 2:15:00 PM 12.49 54.482 0.119 6.86 15.99 11.15
4/12/2021 2:30:00 PM 12.54 54.572 0.118 6.87 14.78 11.12
4/12/2021 2:45:00 PM 12.55 54.59 0.117 6.87 13.46 11.07
4/12/2021 3:00:00 PM 12.52 54.536 0.115 6.87 12.38 10.88
4/12/2021 3:15:00 PM 12.51 54.518 0.115 6.86 12.06 10.92
4/12/2021 3:30:00 PM 12.49 54.482 0.113 6.85 11.5 10.91
4/12/2021 3:45:00 PM 12.46 54.428 0.112 6.85 10.48 10.93
4/12/2021 4:00:00 PM 12.43 54.374 0.113 6.85 11.52 10.81
4/12/2021 4:15:00 PM 12.39 54.302 0.114 6.85 13.06 10.74
4/12/2021 4:30:00 PM 12.36 54.248 0.115 6.85 11.68 10.72
4/12/2021 4:45:00 PM 12.34 54.212 0.112 6.85 11.8 10.79
4/12/2021 5:00:00 PM 12.32 54.176 0.112 6.85 11.11 10.72
4/12/2021 5:15:00 PM 12.27 54.086 0.113 6.85 11.89 10.63
4/12/2021 5:30:00 PM 12.23 54.014 0.109 6.8 11.92 10.65
4/12/2021 5:45:00 PM 12.16 53.888 0.11 6.74 12.49 10.53
4/12/2021 6:00:00 PM 12.11 53.798 0.11 6.73 13.62 10.49
4/12/2021 6:15:00 PM 12.07 53.726 0.108 6.73 13.5 10.46
4/12/2021 6:30:00 PM 12 53.6 0.107 6.72 14.95 10.38
4/12/2021 6:45:00 PM 11.93 53.474 0.106 6.72 17.15 10.31
4/12/2021 7:00:00 PM 11.86 53.348 0.106 6.7 14.97 10.25
4/12/2021 7:15:00 PM 11.79 53.222 0.106 6.71 15.12 10.19
4/12/2021 7:30:00 PM 11.71 53.078 0.105 6.71 16.59 10.15
4/12/2021 7:45:00 PM 11.64 52.952 0.106 6.69 54.83 10.07
4/12/2021 8:00:00 PM 11.56 52.808 0.109 6.69 32.61 10.04
4/12/2021 8:15:00 PM 11.49 52.682 0.109 6.7 45.96 10
4/12/2021 8:30:00 PM 11.44 52.592 0.109 6.7 39.59 10
4/12/2021 8:45:00 PM 11.39 52.502 0.108 6.71 32.29 10.01
4/12/2021 9:00:00 PM 11.35 52.43 0.106 6.73 25.44 10.04
4/12/2021 9:15:00 PM 11.32 52.376 0.105 6.73 21.13 10.04
4/12/2021 9:30:00 PM 11.29 52.322 0.105 6.72 21.26 10.04
4/12/2021 9:45:00 PM 11.26 52.268 0.105 6.75 17.91 10.04
4/12/2021 10:00:00 PM 11.23 52.214 0.103 6.73 21.27 10.07
4/12/2021 10:15:00 PM 11.19 52.142 0.104 6.73 18.04 10.1
4/12/2021 10:30:00 PM 11.16 52.088 0.103 6.72 15.06 10.11
4/12/2021 10:45:00 PM 11.13 52.034 0.102 6.72 19.15 10.11
4/12/2021 11:00:00 PM 11.09 51.962 0.101 6.73 18.71 10.15
4/12/2021 11:15:00 PM 11.06 51.908 0.1 6.71 33.4 10.17
4/12/2021 11:30:00 PM 11.02 51.836 0.1 6.71 15.81 10.18
4/12/2021 11:45:00 PM 10.98 51.764 0.098 6.72 65.9 10.2
4/13/2021 12:00:00 AM 10.94 51.692 0.098 6.71 17.87 10.22
4/13/2021 12:15:00 AM 10.89 51.602 0.098 6.72 15.09 10.24
4/13/2021 12:30:00 AM 10.85 51.53 0.097 6.71 19.03 10.26
4/13/2021 12:45:00 AM 10.81 51.458 0.097 6.71 17.83 10.28
4/13/2021 1:00:00 AM 10.78 51.404 0.096 6.7 18.17 10.3
4/13/2021 1:15:00 AM 10.74 51.332 0.096 6.72 13.96 10.31
4/13/2021 1:30:00 AM 10.71 51.278 0.096 6.72 16.28 10.33
4/13/2021 1:45:00 AM 10.68 51.224 0.095 6.72 21.26 10.34
4/13/2021 2:00:00 AM 10.64 51.152 0.096 6.73 18.21 10.35
4/13/2021 2:15:00 AM 10.61 51.098 0.095 6.75 19.54 10.37
4/13/2021 2:30:00 AM 10.57 51.026 0.095 6.73 18.92 10.38
4/13/2021 2:45:00 AM 10.54 50.972 0.095 6.72 16.97 10.39
4/13/2021 3:00:00 AM 10.5 50.9 0.094 6.72 16.3 10.42
4/13/2021 3:15:00 AM 10.46 50.828 0.094 6.75 18.24 10.42
4/13/2021 3:30:00 AM 10.43 50.774 0.094 6.73 16.82 10.43
4/13/2021 3:45:00 AM 10.39 50.702 0.094 6.73 16.38 10.44
4/13/2021 4:00:00 AM 10.36 50.648 0.093 6.74 15.78 10.46
4/13/2021 4:15:00 AM 10.32 50.576 0.095 6.74 15.78 10.45
4/13/2021 4:30:00 AM 10.29 50.522 0.094 6.74 15.29 10.47
4/13/2021 4:45:00 AM 10.26 50.468 0.095 6.73 15.51 10.47
4/13/2021 5:00:00 AM 10.23 50.414 0.095 6.73 15.65 10.49
4/13/2021 5:15:00 AM 10.2 50.36 0.096 6.75 15.72 10.49
4/13/2021 5:30:00 AM 10.18 50.324 0.096 6.73 15.22 10.5
4/13/2021 5:45:00 AM 10.15 50.27 0.096 6.74 15.38 10.52
4/13/2021 6:00:00 AM 10.13 50.234 0.096 6.75 15.81 10.53
4/13/2021 6:15:00 AM 10.1 50.18 0.096 6.73 15.8 10.53
4/13/2021 6:30:00 AM 10.07 50.126 0.096 6.75 15.43 10.55
4/13/2021 6:45:00 AM 10.04 50.072 0.096 6.74 15.77 10.56
4/13/2021 7:00:00 AM 10.01 50.018 0.096 6.75 14.16 10.58
4/13/2021 7:15:00 AM 9.99 49.982 0.095 6.75 14.55 10.6
4/13/2021 7:30:00 AM 9.96 49.928 0.095 6.74 14.41 10.63
4/13/2021 7:45:00 AM 9.94 49.892 0.095 6.76 13.4 10.66
4/13/2021 8:00:00 AM 9.92 49.856 0.095 6.74 13.24 10.7
4/13/2021 8:15:00 AM 9.91 49.838 0.094 6.75 12.57 10.75
4/13/2021 8:30:00 AM 9.91 49.838 0.093 6.75 13.53 10.8
4/13/2021 8:45:00 AM 9.91 49.838 0.092 6.77 12.11 10.87
4/13/2021 9:00:00 AM 9.92 49.856 0.093 6.77 11.82 10.94
4/13/2021 9:15:00 AM 9.96 49.928 0.092 6.79 11.66 11.03
4/13/2021 9:30:00 AM 10.05 50.09 0.092 6.79 11.65 11.14
4/13/2021 9:45:00 AM 10.07 50.126 0.092 6.81 11.32 11.2
4/13/2021 10:00:00 AM 10.1 50.18 0.091 6.8 11.43 11.23
4/13/2021 10:15:00 AM 10.11 50.198 0.091 6.78 11.14 11.25
4/13/2021 10:30:00 AM 10.14 50.252 0.091 6.78 10.99 11.29
4/13/2021 10:45:00 AM 10.16 50.288 0.09 6.79 11.17 11.3
4/13/2021 11:00:00 AM 10.25 50.45 0.09 6.8 10.6 11.37
4/13/2021 11:15:00 AM 10.35 50.63 0.09 6.8 11.04 11.44
4/13/2021 11:30:00 AM 10.4 50.72 0.089 6.82 11.19 11.45
4/13/2021 11:45:00 AM 10.46 50.828 0.089 6.82 10.81 11.46
4/13/2021 12:00:00 PM 10.58 51.044 0.088 6.82 10.72 11.47
4/13/2021 12:15:00 PM 10.84 51.512 0.088 6.85 10.65 11.49
4/13/2021 12:30:00 PM 10.99 51.782 0.088 6.85 10.58 11.51
4/13/2021 12:45:00 PM 11.3 52.34 0.087 6.9 9.92 11.55
4/13/2021 1:00:00 PM 11.51 52.718 0.087 6.9 9.83 11.55
4/13/2021 1:15:00 PM 11.79 53.222 0.086 6.89 9.42 11.53
4/13/2021 1:30:00 PM 11.81 53.258 0.086 6.88 9.22 11.47
4/13/2021 1:45:00 PM 11.88 53.384 0.086 6.85 9.33 11.43
4/13/2021 2:00:00 PM 11.91 53.438 0.086 6.85 8.79 11.43
4/13/2021 2:15:00 PM 11.84 53.312 0.086 6.85 8.28 11.41
4/13/2021 2:30:00 PM 11.76 53.168 0.086 6.82 8.32 11.38
4/13/2021 2:45:00 PM 11.71 53.078 0.085 6.8 8.18 11.3
4/13/2021 3:00:00 PM 11.71 53.078 0.085 6.78 8.09 11.24
4/13/2021 3:15:00 PM 11.7 53.06 0.085 6.78 8.44 11.17
4/13/2021 3:30:00 PM 11.68 53.024 0.085 6.78 8.28 11.19
4/13/2021 3:45:00 PM 11.72 53.096 0.084 6.79 8.05 11.2
4/13/2021 4:00:00 PM 11.79 53.222 0.085 6.78 8.17 11.24
4/13/2021 4:15:00 PM 11.83 53.294 0.084 6.8 7.95 11.25
4/13/2021 4:30:00 PM 11.99 53.582 0.084 6.81 7.73 11.26
4/13/2021 4:45:00 PM 12.08 53.744 0.084 6.82 7.39 11.23
4/13/2021 5:00:00 PM 12.18 53.924 0.084 6.83 7.24 11.21
4/13/2021 5:15:00 PM 12.24 54.032 0.083 6.83 8.25 11.16
4/13/2021 5:30:00 PM 12.3 54.14 0.083 6.83 7.78 11.1
4/13/2021 5:45:00 PM 12.34 54.212 0.083 6.83 7.68 11.03
4/13/2021 6:00:00 PM 12.32 54.176 0.084 6.81 7.55 10.96
4/13/2021 6:15:00 PM 12.28 54.104 0.083 6.81 7.8 10.91
4/13/2021 6:30:00 PM 12.24 54.032 0.083 6.79 8.37 10.84
4/13/2021 6:45:00 PM 12.25 54.05 0.083 6.8 7.87 10.76
4/13/2021 7:00:00 PM 12.26 54.068 0.083 6.79 7.51 10.67
4/13/2021 7:15:00 PM 12.25 54.05 0.083 6.79 7.32 10.58
4/13/2021 7:30:00 PM 12.21 53.978 0.083 6.78 7.6 10.49
4/13/2021 7:45:00 PM 12.15 53.87 0.083 6.78 8.01 10.41
4/13/2021 8:00:00 PM 12.1 53.78 0.083 6.78 7.87 10.33
4/13/2021 8:15:00 PM 12.06 53.708 0.083 6.76 7.76 10.27
4/13/2021 8:30:00 PM 12 53.6 0.083 6.76 8.01 10.22
4/13/2021 8:45:00 PM 11.94 53.492 0.083 6.75 8.26 10.19
4/13/2021 9:00:00 PM 11.89 53.402 0.083 6.74 8.18 10.17
4/13/2021 9:15:00 PM 11.83 53.294 0.083 6.73 8.45 10.16
4/13/2021 9:30:00 PM 11.76 53.168 0.083 6.74 8.38 10.15
4/13/2021 9:45:00 PM 11.7 53.06 0.083 6.72 8.47 10.16
4/13/2021 10:00:00 PM 11.64 52.952 0.083 6.73 8.31 10.17
4/13/2021 10:15:00 PM 11.58 52.844 0.082 6.72 8.26 10.18
4/13/2021 10:30:00 PM 11.52 52.736 0.083 6.74 8.61 10.19
4/13/2021 10:45:00 PM 11.45 52.61 0.083 6.72 8.55 10.2
4/13/2021 11:00:00 PM 11.38 52.484 0.083 6.71 8.3 10.22
4/13/2021 11:15:00 PM 11.3 52.34 0.083 6.71 8.52 10.24
4/13/2021 11:30:00 PM 11.21 52.178 0.083 6.7 8.4 10.26
4/13/2021 11:45:00 PM 11.13 52.034 0.083 6.7 8.56 10.28
4/14/2021 12:00:00 AM 11.05 51.89 0.083 6.7 9.03 10.3
4/14/2021 12:15:00 AM 10.96 51.728 0.083 6.71 8.8 10.32
4/14/2021 12:30:00 AM 10.88 51.584 0.083 6.7 8.58 10.35
4/14/2021 12:45:00 AM 10.79 51.422 0.083 6.71 8.61 10.37
4/14/2021 1:00:00 AM 10.71 51.278 0.083 6.71 8.25 10.39
4/14/2021 1:15:00 AM 10.63 51.134 0.082 6.7 8.1 10.42
4/14/2021 1:30:00 AM 10.55 50.99 0.083 6.69 8.18 10.44
4/14/2021 1:45:00 AM 10.47 50.846 0.082 6.7 8.11 10.46
4/14/2021 2:00:00 AM 10.38 50.684 0.082 6.7 7.89 10.49
4/14/2021 2:15:00 AM 10.3 50.54 0.082 6.68 8.04 10.51
4/14/2021 2:30:00 AM 10.23 50.414 0.082 6.7 8.13 10.54
4/14/2021 2:45:00 AM 10.15 50.27 0.082 6.69 8.15 10.55
4/14/2021 3:00:00 AM 10.08 50.144 0.082 6.7 8.21 10.58
4/14/2021 3:15:00 AM 10.01 50.018 0.082 6.71 8.14 10.6
4/14/2021 3:30:00 AM 9.96 49.928 0.082 6.7 8.03 10.61
4/14/2021 3:45:00 AM 9.91 49.838 0.082 6.71 8.21 10.63
4/14/2021 4:00:00 AM 9.86 49.748 0.082 6.72 7.91 10.65
4/14/2021 4:15:00 AM 9.81 49.658 0.082 6.73 7.86 10.66
4/14/2021 4:30:00 AM 9.77 49.586 0.082 6.72 7.85 10.68
4/14/2021 4:45:00 AM 9.73 49.514 0.082 6.73 7.87 10.7
4/14/2021 5:00:00 AM 9.68 49.424 0.082 6.72 7.82 10.71
4/14/2021 5:15:00 AM 9.64 49.352 0.082 6.74 7.46 10.72
4/14/2021 5:30:00 AM 9.6 49.28 0.082 6.74 7.91 10.74
4/14/2021 5:45:00 AM 9.56 49.208 0.082 6.74 7.77 10.75
4/14/2021 6:00:00 AM 9.51 49.118 0.081 6.75 7.69 10.76
4/14/2021 6:15:00 AM 9.47 49.046 0.082 6.74 8.1 10.78
4/14/2021 6:30:00 AM 9.43 48.974 0.081 6.76 7.63 10.79
4/14/2021 6:45:00 AM 9.39 48.902 0.081 6.76 9.64 10.81
4/14/2021 7:00:00 AM 9.35 48.83 0.081 6.75 26.49 10.83
4/14/2021 7:15:00 AM 9.32 48.776 0.081 6.73 7.43 10.87
4/14/2021 7:30:00 AM 9.29 48.722 0.081 6.74 183.04 10.9
4/14/2021 7:45:00 AM 9.28 48.704 0.081 6.76 7.66 10.96
4/14/2021 8:00:00 AM 9.26 48.668 0.081 6.76 7.32 11.03
4/14/2021 8:15:00 AM 9.25 48.65 0.081 6.76 6.85 11.09
4/14/2021 8:30:00 AM 9.26 48.668 0.08 6.76 6.52 11.2
4/14/2021 8:45:00 AM 9.27 48.686 0.08 6.76 6.51 11.28
4/14/2021 9:00:00 AM 9.29 48.722 0.08 6.79 6.76 11.35
4/14/2021 9:15:00 AM 9.32 48.776 0.08 6.78 6.16 11.43
4/14/2021 9:30:00 AM 9.36 48.848 0.08 6.8 6.34 11.51
4/14/2021 9:45:00 AM 9.41 48.938 0.08 6.78 6.23 11.56
4/14/2021 10:00:00 AM 9.46 49.028 0.08 6.81 6.1 11.62
4/14/2021 10:15:00 AM 9.49 49.082 0.079 6.8 5.89 11.63
4/14/2021 10:30:00 AM 9.57 49.226 0.079 6.81 6 11.67
4/14/2021 10:45:00 AM 9.64 49.352 0.079 6.83 5.86 11.7
4/14/2021 11:00:00 AM 9.74 49.532 0.079 6.83 5.82 11.73
4/14/2021 11:15:00 AM 9.86 49.748 0.079 6.84 5.7 11.75
4/14/2021 11:30:00 AM 9.98 49.964 0.079 6.84 5.65 11.76
4/14/2021 11:45:00 AM 10.12 50.216 0.079 6.86 5.69 11.76
4/14/2021 12:00:00 PM 10.21 50.378 0.079 6.85 5.7 11.75
4/14/2021 12:15:00 PM 10.3 50.54 0.078 6.87 5.73 11.73
4/14/2021 12:30:00 PM 10.38 50.684 0.079 6.86 5.57 11.69
4/14/2021 12:45:00 PM 10.45 50.81 0.078 6.84 5.56 11.67
4/14/2021 1:00:00 PM 10.55 50.99 0.078 6.86 5.68 11.66
4/14/2021 1:15:00 PM 10.67 51.206 0.078 6.85 5.36 11.66
4/14/2021 1:30:00 PM 10.86 51.548 0.078 6.85 5.48 11.65
4/14/2021 1:45:00 PM 11.16 52.088 0.078 6.9 5.2 11.63
4/14/2021 2:00:00 PM 11.36 52.448 0.078 6.88 5.42 11.58
4/14/2021 2:15:00 PM 11.69 53.042 0.078 6.91 5.18 11.54
4/14/2021 2:30:00 PM 11.99 53.582 0.078 6.91 5.49 11.49
4/14/2021 2:45:00 PM 12.19 53.942 0.078 6.92 5.55 11.44
4/14/2021 3:00:00 PM 12.29 54.122 0.078 6.9 5.3 11.38
4/14/2021 3:15:00 PM 12.3 54.14 0.078 6.88 5.64 11.31
4/14/2021 3:30:00 PM 12.37 54.266 0.078 6.85 5.46 11.26
4/14/2021 3:45:00 PM 12.37 54.266 0.078 6.85 5.4 11.2
4/14/2021 4:00:00 PM 12.38 54.284 0.077 6.84 5.61 11.15
4/14/2021 4:15:00 PM 12.43 54.374 0.077 6.85 5.49 11.09
4/14/2021 4:30:00 PM 12.58 54.644 0.077 6.85 6.07 11.07
4/14/2021 4:45:00 PM 12.68 54.824 0.077 6.85 5.82 11.02
4/14/2021 5:00:00 PM 12.66 54.788 0.077 6.86 5.36 10.91
4/14/2021 5:15:00 PM 12.65 54.77 0.077 6.83 5.46 10.89
4/14/2021 5:30:00 PM 12.61 54.698 0.077 6.83 5.58 10.83
4/14/2021 5:45:00 PM 12.59 54.662 0.077 6.8 5.45 10.79
4/14/2021 6:00:00 PM 12.58 54.644 0.077 6.81 5.5 10.76
4/14/2021 6:15:00 PM 12.6 54.68 0.077 6.83 5.68 10.74
4/14/2021 6:30:00 PM 12.59 54.662 0.077 6.81 5.48 10.7
4/14/2021 6:45:00 PM 12.56 54.608 0.077 6.82 5.81 10.65
4/14/2021 7:00:00 PM 12.54 54.572 0.077 6.8 5.81 10.59
4/14/2021 7:15:00 PM 12.51 54.518 0.077 6.79 5.69 10.51
4/14/2021 7:30:00 PM 12.48 54.464 0.077 6.78 5.8 10.42
4/14/2021 7:45:00 PM 12.44 54.392 0.077 6.79 5.6 10.34
4/14/2021 8:00:00 PM 12.39 54.302 0.077 6.77 5.75 10.25
4/14/2021 8:15:00 PM 12.35 54.23 0.078 6.78 5.72 10.17
4/14/2021 8:30:00 PM 12.33 54.194 0.078 6.78 6.2 10.11
4/14/2021 8:45:00 PM 12.28 54.104 0.078 6.82 6.21 10.06
4/14/2021 9:00:00 PM 12.22 53.996 0.078 6.77 6.14 10.04
4/14/2021 9:15:00 PM 12.15 53.87 0.078 6.76 6.45 10.02
4/14/2021 9:30:00 PM 12.08 53.744 0.078 6.77 6.63 10.02
4/14/2021 9:45:00 PM 12 53.6 0.078 6.77 6.34 10.02
4/14/2021 10:00:00 PM 11.91 53.438 0.078 6.73 6.21 10.03
4/14/2021 10:15:00 PM 11.81 53.258 0.078 6.74 6.64 10.04
4/14/2021 10:30:00 PM 11.71 53.078 0.078 6.71 6.52 10.06
4/14/2021 10:45:00 PM 11.61 52.898 0.078 6.75 6.69 10.09
4/14/2021 11:00:00 PM 11.51 52.718 0.078 6.69 6.44 10.1
4/14/2021 11:15:00 PM 11.4 52.52 0.078 6.71 6.45 10.13
4/14/2021 11:30:00 PM 11.31 52.358 0.078 6.71 6.47 10.15
4/14/2021 11:45:00 PM 11.23 52.214 0.079 6.7 7.02 10.17
4/15/2021 12:00:00 AM 11.15 52.07 0.078 6.71 6.86 10.19
4/15/2021 12:15:00 AM 11.06 51.908 0.079 6.73 6.33 10.21
4/15/2021 12:30:00 AM 10.98 51.764 0.079 6.72 6.4 10.24
4/15/2021 12:45:00 AM 10.92 51.656 0.078 6.73 6.41 10.25
4/15/2021 1:00:00 AM 10.84 51.512 0.079 6.71 6.67 10.28
4/15/2021 1:15:00 AM 10.78 51.404 0.079 6.73 6.73 10.3
4/15/2021 1:30:00 AM 10.7 51.26 0.079 6.74 6.63 10.32
4/15/2021 1:45:00 AM 10.63 51.134 0.079 6.74 6.66 10.34
4/15/2021 2:00:00 AM 10.57 51.026 0.078 6.74 6.36 10.36
4/15/2021 2:15:00 AM 10.49 50.882 0.079 6.72 6.6 10.37
4/15/2021 2:30:00 AM 10.43 50.774 0.079 6.74 6.35 10.4
4/15/2021 2:45:00 AM 10.36 50.648 0.079 6.75 6.29 10.4
4/15/2021 3:00:00 AM 10.3 50.54 0.079 6.72 6.77 10.43
4/15/2021 3:15:00 AM 10.23 50.414 0.079 6.75 6.26 10.44
4/15/2021 3:30:00 AM 10.16 50.288 0.079 6.73 6.2 10.46
4/15/2021 3:45:00 AM 10.09 50.162 0.079 6.74 6.38 10.49
4/15/2021 4:00:00 AM 10.02 50.036 0.079 6.73 6.37 10.51
4/15/2021 4:15:00 AM 9.95 49.91 0.079 6.74 6.02 10.51
4/15/2021 4:30:00 AM 9.89 49.802 0.079 6.75 6.06 10.53
4/15/2021 4:45:00 AM 9.83 49.694 0.079 6.75 6.09 10.54
4/15/2021 5:00:00 AM 9.78 49.604 0.079 6.74 6.59 10.56
4/15/2021 5:15:00 AM 9.73 49.514 0.079 6.74 6.09 10.58
4/15/2021 5:30:00 AM 9.69 49.442 0.079 6.76 6.59 10.59
4/15/2021 5:45:00 AM 9.64 49.352 0.079 6.77 6.66 10.61
4/15/2021 6:00:00 AM 9.6 49.28 0.079 6.78 6.31 10.62
4/15/2021 6:15:00 AM 9.56 49.208 0.079 6.77 6.41 10.64
4/15/2021 6:30:00 AM 9.52 49.136 0.079 6.77 6.15 10.65
4/15/2021 6:45:00 AM 9.48 49.064 0.079 6.78 6.22 10.67
4/15/2021 7:00:00 AM 9.44 48.992 0.079 6.75 6.11 10.69
4/15/2021 7:15:00 AM 9.41 48.938 0.079 6.78 6.52 10.73
4/15/2021 7:30:00 AM 9.39 48.902 0.079 6.78 5.73 10.78
4/15/2021 7:45:00 AM 9.36 48.848 0.079 6.78 6.27 10.8
4/15/2021 8:00:00 AM 9.35 48.83 0.078 6.76 5.67 10.85
4/15/2021 8:15:00 AM 9.34 48.812 0.078 6.81 5.46 10.9
4/15/2021 8:30:00 AM 9.34 48.812 0.078 6.79 5.69 10.99
4/15/2021 8:45:00 AM 9.35 48.83 0.078 6.8 5.35 11.06
4/15/2021 9:00:00 AM 9.35 48.83 0.078 6.79 5.52 11.13
4/15/2021 9:15:00 AM 9.36 48.848 0.078 6.78 5.19 11.18
4/15/2021 9:30:00 AM 9.37 48.866 0.078 6.81 5.11 11.25
4/15/2021 9:45:00 AM 9.36 48.848 0.078 6.81 5.1 11.27
4/15/2021 10:00:00 AM 9.35 48.83 0.078 6.8 5.35 11.29
4/15/2021 10:15:00 AM 9.39 48.902 0.078 6.82 5.38 11.38
4/15/2021 10:30:00 AM 9.38 48.884 0.078 6.8 5.13 11.4
4/15/2021 10:45:00 AM 9.38 48.884 0.078 6.8 5.25 11.45
4/15/2021 11:00:00 AM 9.41 48.938 0.077 6.82 4.99 11.51
4/15/2021 11:15:00 AM 9.54 49.172 0.077 6.83 4.94 11.6
4/15/2021 11:30:00 AM 9.66 49.388 0.077 6.84 4.9 11.66
4/15/2021 11:45:00 AM 9.79 49.622 0.077 6.85 4.83 11.69
4/15/2021 12:00:00 PM 10 50 0.077 6.89 4.89 11.71
4/15/2021 12:15:00 PM 10.07 50.126 0.077 6.88 4.7 11.72
4/15/2021 12:30:00 PM 10.13 50.234 0.077 6.85 4.76 11.72
4/15/2021 12:45:00 PM 10.14 50.252 0.077 6.87 4.78 11.72
4/15/2021 1:00:00 PM 10.34 50.612 0.077 6.88 4.64 11.7
4/15/2021 1:15:00 PM 10.45 50.81 0.077 6.89 5.02 11.68
4/15/2021 1:30:00 PM 10.57 51.026 0.077 6.85 4.8 11.66
4/15/2021 1:45:00 PM 10.76 51.368 0.077 6.89 5.02 11.62
4/15/2021 2:00:00 PM 10.79 51.422 0.076 6.89 4.98 11.58
4/15/2021 2:15:00 PM 10.83 51.494 0.076 6.88 4.9 11.54
4/15/2021 2:30:00 PM 10.83 51.494 0.076 6.86 4.88 11.5
4/15/2021 2:45:00 PM 10.9 51.62 0.076 6.86 4.99 11.48
4/15/2021 3:00:00 PM 10.99 51.782 0.076 6.87 4.86 11.42
4/15/2021 3:15:00 PM 11.06 51.908 0.076 6.87 4.7 11.38
4/15/2021 3:30:00 PM 11.04 51.872 0.076 6.86 4.78 11.34
4/15/2021 3:45:00 PM 11.1 51.98 0.076 6.84 4.81 11.33
4/15/2021 4:00:00 PM 11.06 51.908 0.076 6.82 4.72 11.23
4/15/2021 4:15:00 PM 11.05 51.89 0.076 6.83 4.84 11.22
4/15/2021 4:30:00 PM 11.07 51.926 0.076 6.84 4.78 11.23
4/15/2021 4:45:00 PM 11.12 52.016 0.076 6.83 5.08 11.25
4/15/2021 5:00:00 PM 11.16 52.088 0.076 6.84 4.84 11.26
4/15/2021 5:15:00 PM 11.14 52.052 0.076 6.85 7.7 11.3
4/15/2021 5:30:00 PM 11.11 51.998 0.076 6.82 16.2 11.22
4/15/2021 5:45:00 PM 11.05 51.89 0.076 6.82 20.32 11.2
4/15/2021 6:00:00 PM 10.96 51.728 0.076 6.81 8.03 11.16
4/15/2021 6:15:00 PM 10.89 51.602 0.076 6.78 5.88 11.13
4/15/2021 6:30:00 PM 10.78 51.404 0.076 6.79 5.84 11.1
4/15/2021 6:45:00 PM 10.68 51.224 0.076 6.75 5.68 11.07
4/15/2021 7:00:00 PM 10.59 51.062 0.076 6.76 5.28 10.98
4/15/2021 7:15:00 PM 10.52 50.936 0.076 6.75 5.57 10.94
4/15/2021 7:30:00 PM 10.43 50.774 0.076 6.75 5.8 10.89
4/15/2021 7:45:00 PM 10.31 50.558 0.076 6.74 5.51 10.83
4/15/2021 8:00:00 PM 10.18 50.324 0.076 6.72 5.25 10.77
4/15/2021 8:15:00 PM 10.07 50.126 0.076 6.71 5.37 10.73
4/15/2021 8:30:00 PM 9.98 49.964 0.076 6.71 5.33 10.68
4/15/2021 8:45:00 PM 9.89 49.802 0.077 6.72 5.43 10.64
4/15/2021 9:00:00 PM 9.79 49.622 0.077 6.73 5.39 10.64
4/15/2021 9:15:00 PM 9.71 49.478 0.077 6.74 5.83 10.63
4/15/2021 9:30:00 PM 9.64 49.352 0.077 6.75 5.62 10.62
4/15/2021 9:45:00 PM 9.57 49.226 0.077 6.73 5.77 10.63
4/15/2021 10:00:00 PM 9.51 49.118 0.077 6.73 5.39 10.64
4/15/2021 10:15:00 PM 9.45 49.01 0.077 6.76 5.46 10.65
4/15/2021 10:30:00 PM 9.39 48.902 0.077 6.76 5.75 10.66
4/15/2021 10:45:00 PM 9.33 48.794 0.077 6.76 5.35 10.66
4/15/2021 11:00:00 PM 9.27 48.686 0.077 6.74 5.83 10.68
4/15/2021 11:15:00 PM 9.21 48.578 0.077 6.75 5.81 10.71
4/15/2021 11:30:00 PM 9.13 48.434 0.077 6.73 5.54 10.72
4/15/2021 11:45:00 PM 9.06 48.308 0.077 6.75 5.52 10.74
4/16/2021 12:00:00 AM 8.98 48.164 0.077 6.74 5.91 10.75
4/16/2021 12:15:00 AM 8.9 48.02 0.077 6.75 5.46 10.78
4/16/2021 12:30:00 AM 8.83 47.894 0.077 6.76 5.49 10.8
4/16/2021 12:45:00 AM 8.76 47.768 0.078 6.73 5.8 10.82
4/16/2021 1:00:00 AM 8.69 47.642 0.077 6.75 5.56 10.85
4/16/2021 1:15:00 AM 8.62 47.516 0.077 6.77 5.55 10.86
4/16/2021 1:30:00 AM 8.56 47.408 0.077 6.74 6.01 10.89
4/16/2021 1:45:00 AM 8.5 47.3 0.078 6.73 5.55 10.89
4/16/2021 2:00:00 AM 8.44 47.192 0.078 6.75 5.55 10.91
4/16/2021 2:15:00 AM 8.39 47.102 0.078 6.76 5.64 10.93
4/16/2021 2:30:00 AM 8.35 47.03 0.077 6.77 5.46 10.95
4/16/2021 2:45:00 AM 8.3 46.94 0.078 6.76 5.58 10.97
4/16/2021 3:00:00 AM 8.25 46.85 0.078 6.77 5.42 10.97
4/16/2021 3:15:00 AM 8.21 46.778 0.078 6.76 5.07 10.99
4/16/2021 3:30:00 AM 8.14 46.652 0.078 6.76 5.35 11.01
4/16/2021 3:45:00 AM 8.1 46.58 0.078 6.77 5.16 11.02
4/16/2021 4:00:00 AM 8.05 46.49 0.078 6.75 5.38 11.04
4/16/2021 4:15:00 AM 7.98 46.364 0.078 6.78 5.3 11.06
4/16/2021 4:30:00 AM 7.93 46.274 0.078 6.77 5.32 11.07
4/16/2021 4:45:00 AM 7.89 46.202 0.078 6.76 5.05 11.08
4/16/2021 5:00:00 AM 7.84 46.112 0.078 6.76 5.27 11.1
4/16/2021 5:15:00 AM 7.81 46.058 0.078 6.76 5.03 11.11
4/16/2021 5:30:00 AM 7.77 45.986 0.078 6.78 5.39 11.12
4/16/2021 5:45:00 AM 7.73 45.914 0.078 6.78 5.16 11.14
4/16/2021 6:00:00 AM 7.7 45.86 0.078 6.8 5.27 11.15
4/16/2021 6:15:00 AM 7.67 45.806 0.078 6.8 5.14 11.15
4/16/2021 6:30:00 AM 7.64 45.752 0.078 6.78 5.11 11.17
4/16/2021 6:45:00 AM 7.61 45.698 0.078 6.78 5.23 11.18
4/16/2021 7:00:00 AM 7.58 45.644 0.078 6.79 4.97 11.19
4/16/2021 7:15:00 AM 7.56 45.608 0.078 6.78 5.06 11.22
4/16/2021 7:30:00 AM 7.55 45.59 0.078 6.79 5.02 11.25
4/16/2021 7:45:00 AM 7.53 45.554 0.078 6.78 4.96 11.31
4/16/2021 8:00:00 AM 7.51 45.518 0.078 6.81 5.54 11.37
4/16/2021 8:15:00 AM 7.51 45.518 0.078 6.78 5 11.42
4/16/2021 8:30:00 AM 7.51 45.518 0.078 6.82 4.89 11.5
4/16/2021 8:45:00 AM 7.53 45.554 0.078 6.78 4.97 11.6
4/16/2021 9:00:00 AM 7.55 45.59 0.078 6.83 4.86 11.68
4/16/2021 9:15:00 AM 7.57 45.626 0.078 6.83 4.9 11.75
4/16/2021 9:30:00 AM 7.6 45.68 0.077 6.84 4.61 11.83
4/16/2021 9:45:00 AM 7.63 45.734 0.077 6.82 4.65 11.9
4/16/2021 10:00:00 AM 7.68 45.824 0.077 6.85 4.73 11.96
4/16/2021 10:15:00 AM 7.71 45.878 0.077 6.85 4.56